Provisional Data: Apalachin Creek near Apalachin, NY


Please select a monitoring station.
Please select start date.
Please select start date.

Toggle Unit: C/F Toggle Unit: C/F
Sample Time Temperature (C) Temperature (F) Specific Conductivity (mS/cm) pH   Turbidity (NTU+) DO (mg/L)
9/6/2021 12:00:00 AM 18.99 66.182 0.186 7.07 0.56 7.44
9/6/2021 12:15:00 AM 18.96 66.128 0.196 7.07 0.48 7.43
9/6/2021 12:30:00 AM 18.93 66.074 0.198 7.07 0.4 7.45
9/6/2021 12:45:00 AM 18.9 66.02 0.2 7.07 0.42 7.45
9/6/2021 1:00:00 AM 18.88 65.984 0.195 7.07 0.51 7.42
9/6/2021 1:15:00 AM 18.86 65.948 0.194 7.07 0.49 7.45
9/6/2021 1:30:00 AM 18.84 65.912 0.196 7.07 0.59 7.45
9/6/2021 1:45:00 AM 18.82 65.876 0.195 7.07 0.43 7.45
9/6/2021 2:00:00 AM 18.79 65.82201 0.199 7.07 0.45 7.46
9/6/2021 2:15:00 AM 18.77 65.786 0.194 7.07 0.47 7.46
9/6/2021 2:30:00 AM 18.75 65.75 0.201 7.07 0.53 7.45
9/6/2021 2:45:00 AM 18.72 65.696 0.2 7.07 0.53 7.46
9/6/2021 3:00:00 AM 18.7 65.66 0.198 7.07 0.55 7.46
9/6/2021 3:15:00 AM 18.67 65.606 0.197 7.08 0.63 7.47
9/6/2021 3:30:00 AM 18.64 65.552 0.196 7.07 0.51 7.47
9/6/2021 3:45:00 AM 18.61 65.498 0.199 7.08 0.49 7.47
9/6/2021 4:00:00 AM 18.59 65.462 0.198 7.07 0.52 7.47
9/6/2021 4:15:00 AM 18.55 65.39 0.196 7.08 0.48 7.47
9/6/2021 4:30:00 AM 18.53 65.354 0.2 7.08 0.54 7.48
9/6/2021 4:45:00 AM 18.49 65.282 0.199 7.08 0.6 7.48
9/6/2021 5:00:00 AM 18.47 65.246 0.198 7.08 0.66 7.49
9/6/2021 5:15:00 AM 18.43 65.174 0.196 7.08 0.65 7.49
9/6/2021 5:30:00 AM 18.4 65.12 0.199 7.08 0.7 7.5
9/6/2021 5:45:00 AM 18.38 65.084 0.196 7.08 0.61 7.49
9/6/2021 6:00:00 AM 18.35 65.03 0.196 7.08 0.77 7.49
9/6/2021 6:15:00 AM 18.32 64.976 0.195 7.08 0.58 7.51
9/6/2021 6:30:00 AM 18.28 64.904 0.196 7.08 0.76 7.5
9/6/2021 6:45:00 AM 18.23 64.814 0.195 7.08 0.51 7.53
9/6/2021 7:00:00 AM 18.21 64.778 0.196 7.08 0.57 7.54
9/6/2021 7:15:00 AM 18.19 64.742 0.194 7.08 0.48 7.59
9/6/2021 7:30:00 AM 18.19 64.742 0.195 7.09 0.5 7.72
9/6/2021 7:45:00 AM 18.19 64.742 0.197 7.1 0.43 7.86
9/6/2021 8:00:00 AM 18.19 64.742 0.2 7.11 0.55 7.95
9/6/2021 8:15:00 AM 18.19 64.742 0.197 7.12 0.43 8.07
9/6/2021 8:30:00 AM 18.22 64.796 0.199 7.14 0.39 8.32
9/6/2021 8:45:00 AM 18.29 64.922 0.198 7.17 0.4 8.61
9/6/2021 9:00:00 AM 18.35 65.03 0.194 7.18 0.44 8.77
9/6/2021 9:15:00 AM 18.41 65.138 0.195 7.2 0.36 8.87
9/6/2021 9:30:00 AM 18.48 65.264 0.195 7.2 6.1 8.91
9/6/2021 9:45:00 AM 18.65 65.57 0.194 7.23 0.64 9.12
9/6/2021 10:00:00 AM 18.8 65.84 0.195 7.25 0.62 9.31
9/6/2021 10:15:00 AM 18.83 65.894 0.194 7.26 0.56 9.3
9/6/2021 10:30:00 AM 18.94 66.092 0.195 7.27 0.57 9.41
9/6/2021 10:45:00 AM 19 66.2 0.198 7.28 0.58 9.44
9/6/2021 11:00:00 AM 19.12 66.416 0.198 7.3 0.48 9.59
9/6/2021 11:15:00 AM 19.2 66.56 0.194 7.32 0.55 9.68
9/6/2021 11:30:00 AM 19.34 66.812 0.193 7.34 0.9 9.77
9/6/2021 11:45:00 AM 19.52 67.136 0.193 7.34 0.55 9.8
9/6/2021 12:00:00 PM 19.69 67.442 0.193 7.35 0.55 9.82
9/6/2021 12:15:00 PM 19.91 67.838 0.197 7.36 0.49 9.85
9/6/2021 12:30:00 PM 20.05 68.09 0.196 7.38 0.49 9.9
9/6/2021 12:45:00 PM 20.23 68.414 0.195 7.38 0.58 9.83
9/6/2021 1:00:00 PM 20.36 68.648 0.193 7.39 0.49 9.88
9/6/2021 1:15:00 PM 20.53 68.954 0.197 7.4 0.67 9.87
9/6/2021 1:30:00 PM 20.56 69.008 0.197 7.38 6.53 9.66
9/6/2021 1:45:00 PM 20.49 68.882 0.195 7.37 0.5 9.56
9/6/2021 2:00:00 PM 20.5 68.9 0.195 7.36 0.43 9.6
9/6/2021 2:15:00 PM 20.61 69.098 0.195 7.4 0.49 9.82
9/6/2021 2:30:00 PM 20.77 69.386 0.195 7.41 0.43 9.86
9/6/2021 2:45:00 PM 20.88 69.584 0.194 7.41 0.43 9.83
9/6/2021 3:00:00 PM 20.95 69.71 0.193 7.4 0.45 9.77
9/6/2021 3:15:00 PM 20.96 69.728 0.196 7.4 0.41 9.74
9/6/2021 3:30:00 PM 20.98 69.764 0.193 7.4 1.79 9.76
9/6/2021 3:45:00 PM 21.09 69.962 0.193 7.41 0.88 9.81
9/6/2021 4:00:00 PM 21.13 70.034 0.192 7.41 0.71 9.74
9/6/2021 4:15:00 PM 21.06 69.908 0.191 7.37 0.46 9.46
9/6/2021 4:30:00 PM 21.11 69.998 0.186 7.37 0.48 9.48
9/6/2021 4:45:00 PM 21.13 70.034 0.189 7.37 0.41 9.5
9/6/2021 5:00:00 PM 21.1 69.98 0.187 7.36 0.48 9.43
9/6/2021 5:15:00 PM 21.09 69.962 0.189 7.36 0.36 9.47
9/6/2021 5:30:00 PM 21.02 69.836 0.189 7.36 0.42 9.41
9/6/2021 5:45:00 PM 20.9 69.62 0.189 7.33 0.4 9.27
9/6/2021 6:00:00 PM 20.78 69.404 0.185 7.31 0.46 9.14
9/6/2021 6:15:00 PM 20.67 69.206 0.187 7.29 0.58 9.03
9/6/2021 6:30:00 PM 20.55 68.99 0.184 7.27 0.5 8.88
9/6/2021 6:45:00 PM 20.41 68.738 0.181 7.25 0.41 8.71
9/6/2021 7:00:00 PM 20.27 68.486 0.182 7.23 0.51 8.54
9/6/2021 7:15:00 PM 20.12 68.216 0.186 7.21 0.52 8.34
9/6/2021 7:30:00 PM 19.98 67.964 0.186 7.19 0.74 8.17
9/6/2021 7:45:00 PM 19.84 67.712 0.189 7.17 0.49 8.03
9/6/2021 8:00:00 PM 19.71 67.478 0.186 7.16 0.47 7.9
9/6/2021 8:15:00 PM 19.59 67.262 0.187 7.15 0.54 7.81
9/6/2021 8:30:00 PM 19.45 67.01 0.188 7.14 0.5 7.74
9/6/2021 8:45:00 PM 19.38 66.884 0.188 7.13 0.83 7.69
9/6/2021 9:00:00 PM 19.28 66.704 0.188 7.12 0.56 7.64
9/6/2021 9:15:00 PM 19.21 66.578 0.188 7.12 0.5 7.6
9/6/2021 9:30:00 PM 19.12 66.416 0.188 7.11 0.52 7.58
9/6/2021 9:45:00 PM 19.04 66.272 0.188 7.11 0.55 7.56
9/6/2021 10:00:00 PM 18.97 66.146 0.187 7.1 0.57 7.53
9/6/2021 10:15:00 PM 18.89 66.002 0.187 7.1 0.55 7.56
9/6/2021 10:30:00 PM 18.81 65.858 0.187 7.1 0.63 7.55
9/6/2021 10:45:00 PM 18.76 65.768 0.187 7.1 0.58 7.56
9/6/2021 11:00:00 PM 18.69 65.642 0.187 7.1 0.56 7.55
9/6/2021 11:15:00 PM 18.64 65.552 0.187 7.09 0.62 7.55
9/6/2021 11:30:00 PM 18.61 65.498 0.187 7.09 0.47 7.53
9/6/2021 11:45:00 PM 18.54 65.372 0.187 7.09 0.6 7.57
9/7/2021 12:00:00 AM 18.49 65.282 0.187 7.09 0.57 7.56
9/7/2021 12:15:00 AM 18.44 65.192 0.187 7.09 0.51 7.59
9/7/2021 12:30:00 AM 18.41 65.138 0.187 7.09 0.61 7.56
9/7/2021 12:45:00 AM 18.35 65.03 0.187 7.09 0.56 7.56
9/7/2021 1:00:00 AM 18.32 64.976 0.187 7.09 0.62 7.57
9/7/2021 1:15:00 AM 18.27 64.886 0.187 7.09 0.53 7.58
9/7/2021 1:30:00 AM 18.23 64.814 0.187 7.08 0.6 7.58
9/7/2021 1:45:00 AM 18.18 64.724 0.187 7.08 0.61 7.59
9/7/2021 2:00:00 AM 18.14 64.652 0.187 7.08 0.81 7.58
9/7/2021 2:15:00 AM 18.1 64.58 0.187 7.08 0.57 7.61
9/7/2021 2:30:00 AM 18.06 64.508 0.187 7.08 0.54 7.61
9/7/2021 2:45:00 AM 18.02 64.436 0.188 7.08 0.55 7.62
9/7/2021 3:00:00 AM 17.98 64.364 0.187 7.08 0.53 7.61
9/7/2021 3:15:00 AM 17.94 64.292 0.188 7.08 0.7 7.62
9/7/2021 3:30:00 AM 17.91 64.238 0.188 7.08 0.56 7.63
9/7/2021 3:45:00 AM 17.88 64.184 0.188 7.08 0.57 7.64
9/7/2021 4:00:00 AM 17.84 64.112 0.188 7.08 0.6 7.63
9/7/2021 4:15:00 AM 17.8 64.04 0.188 7.08 0.55 7.63
9/7/2021 4:30:00 AM 17.76 63.968 0.188 7.08 0.56 7.64
9/7/2021 4:45:00 AM 17.74 63.932 0.188 7.08 0.66 7.64
9/7/2021 5:00:00 AM 17.71 63.878 0.188 7.08 0.63 7.65
9/7/2021 5:15:00 AM 17.68 63.824 0.189 7.08 0.66 7.66
9/7/2021 5:30:00 AM 17.65 63.77 0.19 7.08 0.55 7.66
9/7/2021 5:45:00 AM 17.62 63.716 0.189 7.08 0.77 7.66
9/7/2021 6:00:00 AM 17.6 63.68 0.189 7.08 0.63 7.66
9/7/2021 6:15:00 AM 17.57 63.626 0.189 7.08 0.68 7.67
9/7/2021 6:30:00 AM 17.55 63.59 0.189 7.08 0.68 7.66
9/7/2021 6:45:00 AM 17.53 63.554 0.19 7.08 0.56 7.68
9/7/2021 7:00:00 AM 17.51 63.518 0.193 7.08 0.55 7.72
9/7/2021 7:15:00 AM 17.49 63.482 0.192 7.09 0.54 7.79
9/7/2021 7:30:00 AM 17.48 63.464 0.193 7.09 0.61 7.83
9/7/2021 7:45:00 AM 17.48 63.464 0.193 7.1 0.65 7.98
9/7/2021 8:00:00 AM 17.5 63.5 0.194 7.12 0.5 8.13
9/7/2021 8:15:00 AM 17.52 63.536 0.194 7.13 0.55 8.28
9/7/2021 8:30:00 AM 17.54 63.572 0.194 7.14 0.53 8.4
9/7/2021 8:45:00 AM 17.58 63.644 0.193 7.16 0.55 8.62
9/7/2021 9:00:00 AM 17.66 63.788 0.193 7.19 0.48 8.86
9/7/2021 9:15:00 AM 17.69 63.842 0.193 7.19 0.51 8.92
9/7/2021 9:30:00 AM 17.82 64.076 0.194 7.21 0.51 9.04
9/7/2021 9:45:00 AM 17.89 64.202 0.192 7.22 0.48 9.07
9/7/2021 10:00:00 AM 18.03 64.454 0.192 7.23 0.51 9.17
9/7/2021 10:15:00 AM 18.2 64.76 0.192 7.25 0.41 9.3
9/7/2021 10:30:00 AM 18.38 65.084 0.195 7.26 0.49 9.36
9/7/2021 10:45:00 AM 18.6 65.48 0.197 7.28 0.48 9.49
9/7/2021 11:00:00 AM 18.83 65.894 0.199 7.29 0.47 9.57
9/7/2021 11:15:00 AM 19.04 66.272 0.193 7.31 0.54 9.64
9/7/2021 11:30:00 AM 19.32 66.776 0.2 7.33 0.45 9.7
9/7/2021 11:45:00 AM 19.53 67.154 0.196 7.34 0.48 9.78
9/7/2021 12:00:00 PM 19.77 67.586 0.199 7.36 0.48 9.87
9/7/2021 12:15:00 PM 19.89 67.802 0.198 7.37 0.44 9.88
9/7/2021 12:30:00 PM 20.01 68.018 0.199 7.36 0.37 9.81
9/7/2021 12:45:00 PM 20.17 68.306 0.198 7.38 0.46 9.86
9/7/2021 1:00:00 PM 20.37 68.666 0.197 7.39 0.41 9.91
9/7/2021 1:15:00 PM 20.56 69.008 0.196 7.4 0.47 9.93
9/7/2021 1:30:00 PM 20.7 69.26 0.194 7.41 0.49 9.96
9/7/2021 1:45:00 PM 20.85 69.53 0.188 7.41 0.41 9.95
9/7/2021 2:00:00 PM 20.91 69.638 0.2 7.41 0.45 9.93
9/7/2021 2:15:00 PM 21.03 69.854 0.195 7.42 0.48 9.9
9/7/2021 2:30:00 PM 21.2 70.16 0.2 7.43 0.4 9.92
9/7/2021 2:45:00 PM 21.29 70.32201 0.198 7.43 0.43 9.9
9/7/2021 3:00:00 PM 21.36 70.448 0.198 7.42 0.42 9.84
9/7/2021 3:15:00 PM 21.4 70.52 0.2 7.41 0.38 9.75
9/7/2021 3:30:00 PM 21.45 70.61 0.201 7.41 0.4 9.79
9/7/2021 3:45:00 PM 21.49 70.682 0.2 7.41 0.61 9.78
9/7/2021 4:00:00 PM 21.49 70.682 0.198 7.41 0.67 9.71
9/7/2021 4:15:00 PM 21.5 70.7 0.199 7.4 0.66 9.63
9/7/2021 4:30:00 PM 21.51 70.718 0.197 7.39 0.46 9.59
9/7/2021 4:45:00 PM 21.5 70.7 0.196 7.39 0.46 9.56
9/7/2021 5:00:00 PM 21.46 70.628 0.195 7.37 0.88 9.5
9/7/2021 5:15:00 PM 21.4 70.52 0.191 7.36 0.56 9.39
9/7/2021 5:30:00 PM 21.31 70.358 0.189 7.34 0.52 9.25
9/7/2021 5:45:00 PM 21.23 70.214 0.191 7.32 0.55 9.14
9/7/2021 6:00:00 PM 21.12 70.016 0.188 7.3 1.12 9.03
9/7/2021 6:15:00 PM 21.01 69.818 0.189 7.28 1.33 8.89
9/7/2021 6:30:00 PM 20.88 69.584 0.189 7.26 0.58 8.73
9/7/2021 6:45:00 PM 20.74 69.332 0.187 7.23 0.6 8.56
9/7/2021 7:00:00 PM 20.61 69.098 0.188 7.21 0.52 8.37
9/7/2021 7:15:00 PM 20.45 68.81 0.189 7.19 0.51 8.19
9/7/2021 7:30:00 PM 20.33 68.594 0.188 7.17 0.51 8.03
9/7/2021 7:45:00 PM 20.16 68.288 0.189 7.15 0.73 7.85
9/7/2021 8:00:00 PM 20.03 68.054 0.189 7.13 0.49 7.71
9/7/2021 8:15:00 PM 19.92 67.856 0.183 7.11 0.52 7.6
9/7/2021 8:30:00 PM 19.84 67.712 0.183 7.1 0.78 7.5
9/7/2021 8:45:00 PM 19.72 67.496 0.185 7.09 0.49 7.45
9/7/2021 9:00:00 PM 19.65 67.37 0.183 7.09 0.52 7.4
9/7/2021 9:15:00 PM 19.55 67.19 0.184 7.08 0.47 7.36
9/7/2021 9:30:00 PM 19.48 67.064 0.184 7.07 0.48 7.33
9/7/2021 9:45:00 PM 19.4 66.92 0.183 7.07 0.6 7.31
9/7/2021 10:00:00 PM 19.32 66.776 0.187 7.07 0.71 7.29
9/7/2021 10:15:00 PM 19.27 66.686 0.19 7.06 0.49 7.27
9/7/2021 10:30:00 PM 19.22 66.596 0.19 7.06 0.51 7.23
9/7/2021 10:45:00 PM 19.15 66.47 0.191 7.06 0.59 7.27
9/7/2021 11:00:00 PM 19.1 66.38 0.191 7.06 0.51 7.27
9/7/2021 11:15:00 PM 19.04 66.272 0.19 7.06 0.39 7.26
9/7/2021 11:30:00 PM 18.99 66.182 0.191 7.06 0.45 7.26
9/7/2021 11:45:00 PM 18.96 66.128 0.19 7.05 0.48 7.27
9/8/2021 12:00:00 AM 18.93 66.074 0.191 7.05 0.47 7.26
9/8/2021 12:15:00 AM 18.89 66.002 0.194 7.05 0.35 7.28
9/8/2021 12:30:00 AM 18.88 65.984 0.194 7.05 0.54 7.24
9/8/2021 12:45:00 AM 18.86 65.948 0.195 7.05 0.49 7.25
9/8/2021 1:00:00 AM 18.84 65.912 0.194 7.05 0.53 7.25
9/8/2021 1:15:00 AM 18.82 65.876 0.194 7.05 0.44 7.24
9/8/2021 1:30:00 AM 18.81 65.858 0.201 7.05 0.43 7.24
9/8/2021 1:45:00 AM 18.79 65.82201 0.203 7.05 0.45 7.24
9/8/2021 2:00:00 AM 18.77 65.786 0.203 7.05 0.5 7.23
9/8/2021 2:15:00 AM 18.76 65.768 0.207 7.05 0.7 7.24
9/8/2021 2:30:00 AM 18.74 65.732 0.203 7.05 0.45 7.22
9/8/2021 2:45:00 AM 18.72 65.696 0.205 7.05 0.75 7.23
9/8/2021 3:00:00 AM 18.71 65.67799 0.204 7.05 0.45 7.23
9/8/2021 3:15:00 AM 18.68 65.624 0.206 7.05 0.54 7.21
9/8/2021 3:30:00 AM 18.65 65.57 0.203 7.04 0.54 7.23
9/8/2021 3:45:00 AM 18.63 65.534 0.205 7.04 0.52 7.22
9/8/2021 4:00:00 AM 18.6 65.48 0.205 7.04 0.52 7.24
9/8/2021 4:15:00 AM 18.59 65.462 0.206 7.04 0.4 7.24
9/8/2021 4:30:00 AM 18.56 65.408 0.205 7.04 0.41 7.21
9/8/2021 4:45:00 AM 18.54 65.372 0.206 7.04 0.57 7.24
9/8/2021 5:00:00 AM 18.54 65.372 0.207 7.04 0.48 7.22
9/8/2021 5:15:00 AM 18.54 65.372 0.205 7.04 0.41 7.23
9/8/2021 5:30:00 AM 18.53 65.354 0.204 7.04 0.5 7.2
9/8/2021 5:45:00 AM 18.51 65.318 0.206 7.04 0.57 7.21
9/8/2021 6:00:00 AM 18.5 65.3 0.207 7.04 0.53 7.21
9/8/2021 6:15:00 AM 18.49 65.282 0.205 7.04 0.53 7.22
9/8/2021 6:30:00 AM 18.48 65.264 0.206 7.04 0.55 7.21
9/8/2021 6:45:00 AM 18.48 65.264 0.204 7.04 0.48 7.21
9/8/2021 7:00:00 AM 18.47 65.246 0.205 7.05 0.47 7.2
9/8/2021 7:15:00 AM 18.47 65.246 0.203 7.05 0.43 7.25
9/8/2021 7:30:00 AM 18.49 65.282 0.207 7.06 0.5 7.46
9/8/2021 7:45:00 AM 18.51 65.318 0.206 7.07 0.48 7.6
9/8/2021 8:00:00 AM 18.53 65.354 0.204 7.08 0.56 7.7
9/8/2021 8:15:00 AM 18.58 65.444 0.205 7.1 0.49 7.87
9/8/2021 8:30:00 AM 18.65 65.57 0.207 7.12 0.4 8.15
9/8/2021 8:45:00 AM 18.71 65.67799 0.206 7.14 0.46 8.29
9/8/2021 9:00:00 AM 18.74 65.732 0.205 7.15 0.53 8.45
9/8/2021 9:15:00 AM 18.82 65.876 0.206 7.17 0.39 8.67
9/8/2021 9:30:00 AM 18.91 66.038 0.204 7.19 0.48 8.86
9/8/2021 9:45:00 AM 18.98 66.164 0.205 7.2 0.54 9
9/8/2021 10:00:00 AM 19.07 66.326 0.205 7.22 0.41 9.11
9/8/2021 10:15:00 AM 19.22 66.596 0.203 7.23 0.4 9.24
9/8/2021 10:30:00 AM 19.35 66.83 0.204 7.25 0.41 9.34
9/8/2021 10:45:00 AM 19.5 67.1 0.203 7.26 0.45 9.41
9/8/2021 11:00:00 AM 19.66 67.388 0.191 7.27 0.45 9.51
9/8/2021 11:15:00 AM 19.85 67.73 0.203 7.29 0.35 9.58
9/8/2021 11:30:00 AM 20.07 68.126 0.202 7.3 0.44 9.63
9/8/2021 11:45:00 AM 20.31 68.558 0.207 7.32 0.45 9.72
9/8/2021 12:00:00 PM 20.52 68.936 0.205 7.34 0.38 9.85
9/8/2021 12:15:00 PM 20.74 69.332 0.205 7.36 0.51 9.92
9/8/2021 12:30:00 PM 20.88 69.584 0.206 7.37 0.4 10
9/8/2021 12:45:00 PM 21.09 69.962 0.206 7.38 0.47 9.96
9/8/2021 1:00:00 PM 21.28 70.304 0.206 7.39 0.38 10.01
9/8/2021 1:15:00 PM 21.41 70.538 0.205 7.4 0.38 10.02
9/8/2021 1:30:00 PM 21.5 70.7 0.206 7.41 0.37 10.03
9/8/2021 1:45:00 PM 21.54 70.772 0.206 7.41 0.38 10
9/8/2021 2:00:00 PM 21.55 70.79 0.204 7.4 0.43 9.93
9/8/2021 2:15:00 PM 21.57 70.826 0.204 7.4 0.44 9.88
9/8/2021 2:30:00 PM 21.59 70.862 0.203 7.39 0.42 9.83
9/8/2021 2:45:00 PM 21.57 70.826 0.202 7.38 0.46 9.75
9/8/2021 3:00:00 PM 21.55 70.79 0.196 7.38 0.35 9.72
9/8/2021 3:15:00 PM 21.55 70.79 0.187 7.38 0.67 9.69
9/8/2021 3:30:00 PM 21.46 70.628 0.188 7.35 0.35 9.5
9/8/2021 3:45:00 PM 21.28 70.304 0.188 7.29 0.45 9.05
9/8/2021 4:00:00 PM 21.16 70.088 0.188 7.24 1.4 8.62
9/8/2021 4:15:00 PM 20.96 69.728 0.187 7.2 0.5 8.24
9/8/2021 4:30:00 PM 20.84 69.512 0.187 7.18 0.75 8.05
9/8/2021 4:45:00 PM 20.7 69.26 0.186 7.16 0.68 7.88
9/8/2021 5:00:00 PM 20.59 69.062 0.185 7.15 1.01 7.73
9/8/2021 5:15:00 PM 20.51 68.918 0.184 7.14 1.09 7.63
9/8/2021 5:30:00 PM 20.41 68.738 0.184 7.13 1.15 7.55
9/8/2021 5:45:00 PM 20.34 68.612 0.184 7.12 1.06 7.48
9/8/2021 6:00:00 PM 20.25 68.45 0.183 7.12 0.65 7.44
9/8/2021 6:15:00 PM 20.17 68.306 0.183 7.11 0.78 7.38
9/8/2021 6:30:00 PM 20.11 68.198 0.183 7.1 0.85 7.3
9/8/2021 6:45:00 PM 20.03 68.054 0.189 7.1 0.63 7.32
9/8/2021 7:00:00 PM 19.97 67.946 0.188 7.1 0.61 7.34
9/8/2021 7:15:00 PM 19.93 67.874 0.189 7.09 0.59 7.31
9/8/2021 7:30:00 PM 19.87 67.766 0.188 7.09 0.6 7.29
9/8/2021 7:45:00 PM 19.82 67.676 0.188 7.09 0.65 7.26
9/8/2021 8:00:00 PM 19.78 67.604 0.188 7.08 0.66 7.22
9/8/2021 8:15:00 PM 19.74 67.532 0.188 7.08 0.64 7.21
9/8/2021 8:30:00 PM 19.68 67.424 0.189 7.08 0.64 7.2
9/8/2021 8:45:00 PM 19.65 67.37 0.189 7.08 0.67 7.2
9/8/2021 9:00:00 PM 19.61 67.298 0.19 7.07 0.51 7.18
9/8/2021 9:15:00 PM 19.58 67.244 0.19 7.07 0.6 7.17
9/8/2021 9:30:00 PM 19.53 67.154 0.191 7.07 0.64 7.17
9/8/2021 9:45:00 PM 19.51 67.118 0.191 7.08 0.48 7.17
9/8/2021 10:00:00 PM 19.47 67.046 0.191 7.08 0.51 7.2
9/8/2021 10:15:00 PM 19.44 66.992 0.19 7.08 0.61 7.2
9/8/2021 10:30:00 PM 19.42 66.956 0.19 7.08 0.58 7.22
9/8/2021 10:45:00 PM 19.39 66.902 0.19 7.09 0.68 7.24
9/8/2021 11:00:00 PM 19.36 66.848 0.19 7.09 0.6 7.25
9/8/2021 11:15:00 PM 19.33 66.794 0.19 7.09 0.55 7.27
9/8/2021 11:30:00 PM 19.29 66.722 0.19 7.09 0.7 7.29
9/8/2021 11:45:00 PM 19.26 66.668 0.19 7.1 0.64 7.32
9/9/2021 12:00:00 AM 19.23 66.614 0.189 7.1 0.67 7.34
9/9/2021 12:15:00 AM 19.22 66.596 0.189 7.1 0.55 7.34
9/9/2021 12:30:00 AM 19.2 66.56 0.189 7.11 0.69 7.37
9/9/2021 12:45:00 AM 19.18 66.524 0.189 7.11 0.73 7.37
9/9/2021 1:00:00 AM 19.16 66.488 0.189 7.11 0.67 7.39
9/9/2021 1:15:00 AM 19.14 66.452 0.191 7.12 0.71 7.42
9/9/2021 1:30:00 AM 19.12 66.416 0.19 7.12 0.7 7.41
9/9/2021 1:45:00 AM 19.11 66.398 0.192 7.12 0.6 7.44
9/9/2021 2:00:00 AM 19.09 66.362 0.197 7.12 0.61 7.45
9/9/2021 2:15:00 AM 19.08 66.344 0.197 7.13 0.59 7.45
9/9/2021 2:30:00 AM 19.06 66.308 0.198 7.13 0.65 7.44
9/9/2021 2:45:00 AM 19.05 66.29 0.196 7.13 0.62 7.46
9/9/2021 3:00:00 AM 19.04 66.272 0.194 7.13 0.8 7.46
9/9/2021 3:15:00 AM 19.02 66.236 0.197 7.13 0.61 7.47
9/9/2021 3:30:00 AM 19.01 66.218 0.197 7.13 0.71 7.48
9/9/2021 3:45:00 AM 18.99 66.182 0.197 7.13 0.69 7.48
9/9/2021 4:00:00 AM 18.97 66.146 0.198 7.14 0.7 7.49
9/9/2021 4:15:00 AM 18.95 66.11 0.197 7.14 0.72 7.49
9/9/2021 4:30:00 AM 18.94 66.092 0.196 7.14 0.72 7.5
9/9/2021 4:45:00 AM 18.93 66.074 0.196 7.14 0.65 7.5
9/9/2021 5:00:00 AM 18.92 66.056 0.198 7.14 0.88 7.52
9/9/2021 5:15:00 AM 18.91 66.038 0.2 7.14 0.8 7.53
9/9/2021 5:30:00 AM 18.9 66.02 0.2 7.14 0.74 7.52
9/9/2021 5:45:00 AM 18.88 65.984 0.199 7.14 0.76 7.52
9/9/2021 6:00:00 AM 18.86 65.948 0.192 7.14 0.71 7.54
9/9/2021 6:15:00 AM 18.84 65.912 0.196 7.14 0.67 7.55
9/9/2021 6:30:00 AM 18.82 65.876 0.196 7.14 0.68 7.55
9/9/2021 6:45:00 AM 18.79 65.82201 0.2 7.14 0.69 7.55
9/9/2021 7:00:00 AM 18.77 65.786 0.198 7.14 0.8 7.55
9/9/2021 7:15:00 AM 18.75 65.75 0.198 7.15 0.61 7.62
9/9/2021 7:30:00 AM 18.73 65.714 0.199 7.15 0.72 7.7
9/9/2021 7:45:00 AM 18.73 65.714 0.2 7.16 0.56 7.79
9/9/2021 8:00:00 AM 18.73 65.714 0.2 7.18 0.67 7.94
9/9/2021 8:15:00 AM 18.74 65.732 0.199 7.19 0.67 8.09
9/9/2021 8:30:00 AM 18.75 65.75 0.197 7.21 1.26 8.26
9/9/2021 8:45:00 AM 18.75 65.75 0.199 7.22 0.62 8.35
9/9/2021 9:00:00 AM 18.75 65.75 0.198 7.23 0.59 8.4
9/9/2021 9:15:00 AM 18.79 65.82201 0.198 7.24 0.63 8.56
9/9/2021 9:30:00 AM 18.82 65.876 0.197 7.25 0.65 8.65
9/9/2021 9:45:00 AM 18.86 65.948 0.196 7.27 0.62 8.73
9/9/2021 10:00:00 AM 18.9 66.02 0.198 7.28 0.74 8.85
9/9/2021 10:15:00 AM 18.94 66.092 0.196 7.3 0.66 9.01
9/9/2021 10:30:00 AM 19.02 66.236 0.197 7.33 0.61 9.2
9/9/2021 10:45:00 AM 19.09 66.362 0.195 7.35 0.63 9.31
9/9/2021 11:00:00 AM 19.18 66.524 0.195 7.37 0.67 9.45
9/9/2021 11:15:00 AM 19.43 66.974 0.195 7.41 0.61 9.67
9/9/2021 11:30:00 AM 19.54 67.172 0.195 7.43 0.67 9.74
9/9/2021 11:45:00 AM 19.64 67.352 0.196 7.46 0.7 9.85
9/9/2021 12:00:00 PM 19.75 67.55 0.196 7.48 0.65 9.92
9/9/2021 12:15:00 PM 19.84 67.712 0.196 7.49 0.65 9.94
9/9/2021 12:30:00 PM 19.98 67.964 0.195 7.5 0.63 9.92
9/9/2021 12:45:00 PM 20.08 68.144 0.196 7.51 0.62 9.95
9/9/2021 1:00:00 PM 20.17 68.306 0.196 7.52 0.52 9.92
9/9/2021 1:15:00 PM 20.25 68.45 0.193 7.53 0.61 9.96
9/9/2021 1:30:00 PM 20.32 68.576 0.19 7.54 0.58 9.95
9/9/2021 1:45:00 PM 20.33 68.594 0.196 7.53 0.71 9.88
9/9/2021 2:00:00 PM 20.34 68.612 0.194 7.52 0.55 9.79
9/9/2021 2:15:00 PM 20.34 68.612 0.195 7.51 0.62 9.73
9/9/2021 2:30:00 PM 20.33 68.594 0.193 7.5 0.55 9.65
9/9/2021 2:45:00 PM 20.32 68.576 0.193 7.48 0.63 9.58
9/9/2021 3:00:00 PM 20.29 68.522 0.192 7.47 0.6 9.47
9/9/2021 3:15:00 PM 20.3 68.54 0.19 7.47 0.64 9.57
9/9/2021 3:30:00 PM 20.41 68.738 0.19 7.49 0.6 9.71
9/9/2021 3:45:00 PM 20.48 68.864 0.189 7.5 0.62 9.73
9/9/2021 4:00:00 PM 20.58 69.044 0.186 7.49 0.54 9.7
9/9/2021 4:15:00 PM 20.61 69.098 0.188 7.48 0.58 9.65
9/9/2021 4:30:00 PM 20.67 69.206 0.188 7.48 0.64 9.64
9/9/2021 4:45:00 PM 20.74 69.332 0.184 7.48 0.61 9.6
9/9/2021 5:00:00 PM 20.69 69.242 0.185 7.45 0.74 9.42
9/9/2021 5:15:00 PM 20.62 69.116 0.182 7.42 0.66 9.24
9/9/2021 5:30:00 PM 20.53 68.954 0.183 7.4 0.61 9.1
9/9/2021 5:45:00 PM 20.49 68.882 0.183 7.39 0.7 9.11
9/9/2021 6:00:00 PM 20.44 68.792 0.19 7.38 0.6 9.04
9/9/2021 6:15:00 PM 20.35 68.63 0.186 7.35 0.59 8.89
9/9/2021 6:30:00 PM 20.29 68.522 0.186 7.34 0.57 8.81
9/9/2021 6:45:00 PM 20.18 68.324 0.185 7.31 0.56 8.64
9/9/2021 7:00:00 PM 20.1 68.18 0.185 7.29 0.59 8.52
9/9/2021 7:15:00 PM 20 68 0.183 7.26 0.56 8.38
9/9/2021 7:30:00 PM 19.89 67.802 0.186 7.24 0.5 8.25
9/9/2021 7:45:00 PM 19.78 67.604 0.188 7.22 0.63 8.06
9/9/2021 8:00:00 PM 19.66 67.388 0.181 7.2 0.7 7.94
9/9/2021 8:15:00 PM 19.54 67.172 0.186 7.18 0.55 7.82
9/9/2021 8:30:00 PM 19.45 67.01 0.185 7.17 0.68 7.75
9/9/2021 8:45:00 PM 19.35 66.83 0.181 7.16 0.55 7.68
9/9/2021 9:00:00 PM 19.27 66.686 0.187 7.15 0.51 7.63
9/9/2021 9:15:00 PM 19.2 66.56 0.184 7.14 0.58 7.58
9/9/2021 9:30:00 PM 19.14 66.452 0.185 7.14 0.56 7.57
9/9/2021 9:45:00 PM 19.08 66.344 0.186 7.13 0.64 7.53
9/9/2021 10:00:00 PM 19.03 66.254 0.186 7.13 0.63 7.53
9/9/2021 10:15:00 PM 18.97 66.146 0.186 7.12 0.65 7.54
9/9/2021 10:30:00 PM 18.93 66.074 0.185 7.12 0.58 7.52
9/9/2021 10:45:00 PM 18.91 66.038 0.184 7.12 0.51 7.51
9/9/2021 11:00:00 PM 18.86 65.948 0.185 7.12 0.58 7.51
9/9/2021 11:15:00 PM 18.82 65.876 0.184 7.11 0.68 7.5
9/9/2021 11:30:00 PM 18.76 65.768 0.181 7.11 0.58 7.52
9/9/2021 11:45:00 PM 18.71 65.67799 0.181 7.11 0.58 7.51
9/10/2021 12:00:00 AM 18.68 65.624 0.18 7.11 0.5 7.52
9/10/2021 12:15:00 AM 18.65 65.57 0.183 7.11 0.64 7.53
9/10/2021 12:30:00 AM 18.63 65.534 0.181 7.11 0.61 7.51
9/10/2021 12:45:00 AM 18.59 65.462 0.181 7.11 0.53 7.51
9/10/2021 1:00:00 AM 18.55 65.39 0.182 7.11 0.62 7.52
9/10/2021 1:15:00 AM 18.52 65.336 0.185 7.11 0.46 7.51
9/10/2021 1:30:00 AM 18.49 65.282 0.184 7.11 0.53 7.52
9/10/2021 1:45:00 AM 18.47 65.246 0.186 7.11 0.65 7.54
9/10/2021 2:00:00 AM 18.45 65.21 0.187 7.1 0.62 7.53
9/10/2021 2:15:00 AM 18.42 65.156 0.189 7.1 0.6 7.52
9/10/2021 2:30:00 AM 18.38 65.084 0.187 7.1 0.58 7.52
9/10/2021 2:45:00 AM 18.35 65.03 0.183 7.1 0.74 7.53
9/10/2021 3:00:00 AM 18.33 64.994 0.185 7.1 0.78 7.54
9/10/2021 3:15:00 AM 18.33 64.994 0.186 7.1 0.57 7.53
9/10/2021 3:30:00 AM 18.31 64.958 0.181 7.1 0.64 7.54
9/10/2021 3:45:00 AM 18.3 64.94 0.186 7.1 0.47 7.51
9/10/2021 4:00:00 AM 18.29 64.922 0.184 7.1 0.61 7.55
9/10/2021 4:15:00 AM 18.28 64.904 0.184 7.11 0.57 7.56
9/10/2021 4:30:00 AM 18.25 64.85 0.181 7.11 0.56 7.56
9/10/2021 4:45:00 AM 18.23 64.814 0.18 7.11 0.57 7.57
9/10/2021 5:00:00 AM 18.19 64.742 0.18 7.11 0.53 7.58
9/10/2021 5:15:00 AM 18.16 64.688 0.18 7.12 0.66 7.6
9/10/2021 5:30:00 AM 18.12 64.616 0.179 7.12 0.63 7.62
9/10/2021 5:45:00 AM 18.08 64.544 0.179 7.12 0.54 7.64
9/10/2021 6:00:00 AM 18.04 64.472 0.179 7.12 0.6 7.63
9/10/2021 6:15:00 AM 17.99 64.382 0.179 7.12 0.57 7.66
9/10/2021 6:30:00 AM 17.95 64.31 0.178 7.12 0.61 7.66
9/10/2021 6:45:00 AM 17.92 64.256 0.179 7.12 0.66 7.69
9/10/2021 7:00:00 AM 17.88 64.184 0.179 7.13 0.57 7.72
9/10/2021 7:15:00 AM 17.84 64.112 0.179 7.13 0.62 7.75
9/10/2021 7:30:00 AM 17.82 64.076 0.179 7.14 0.6 7.85
9/10/2021 7:45:00 AM 17.8 64.04 0.179 7.14 0.58 7.93
9/10/2021 8:00:00 AM 17.8 64.04 0.179 7.16 0.58 8.08
9/10/2021 8:15:00 AM 17.82 64.076 0.178 7.17 0.65 8.22
9/10/2021 8:30:00 AM 17.84 64.112 0.179 7.18 0.56 8.29
9/10/2021 8:45:00 AM 17.89 64.202 0.178 7.19 0.57 8.43
9/10/2021 9:00:00 AM 17.98 64.364 0.178 7.21 0.67 8.63
9/10/2021 9:15:00 AM 18.04 64.472 0.178 7.23 0.6 8.78
9/10/2021 9:30:00 AM 18.16 64.688 0.178 7.25 0.9 8.95
9/10/2021 9:45:00 AM 18.23 64.814 0.178 7.27 0.75 9.08
9/10/2021 10:00:00 AM 18.33 64.994 0.178 7.29 0.67 9.18
9/10/2021 10:15:00 AM 18.48 65.264 0.178 7.31 0.61 9.35
9/10/2021 10:30:00 AM 18.61 65.498 0.178 7.32 0.59 9.37
9/10/2021 10:45:00 AM 18.72 65.696 0.177 7.33 0.58 9.42
9/10/2021 11:00:00 AM 18.85 65.93 0.177 7.34 0.57 9.48
9/10/2021 11:15:00 AM 19 66.2 0.178 7.36 0.5 9.58
9/10/2021 11:30:00 AM 19.13 66.434 0.178 7.37 0.56 9.6
9/10/2021 11:45:00 AM 19.3 66.74 0.178 7.39 0.52 9.67
9/10/2021 12:00:00 PM 19.49 67.082 0.178 7.4 0.65 9.74
9/10/2021 12:15:00 PM 19.65 67.37 0.178 7.42 0.51 9.78
9/10/2021 12:30:00 PM 19.89 67.802 0.177 7.43 0.65 9.82
9/10/2021 12:45:00 PM 20.06 68.108 0.178 7.43 0.52 9.78
9/10/2021 1:00:00 PM 20.21 68.378 0.178 7.44 0.59 9.79
9/10/2021 1:15:00 PM 20.39 68.702 0.178 7.45 0.52 9.81
9/10/2021 1:30:00 PM 20.54 68.972 0.178 7.46 0.66 9.81
9/10/2021 1:45:00 PM 20.64 69.152 0.178 7.46 0.82 9.78
9/10/2021 2:00:00 PM 20.71 69.278 0.178 7.46 0.65 9.72
9/10/2021 2:15:00 PM 20.81 69.458 0.178 7.47 0.64 9.81
9/10/2021 2:30:00 PM 20.81 69.458 0.178 7.47 0.5 9.78
9/10/2021 2:45:00 PM 20.8 69.44 0.178 7.48 0.51 9.82
9/10/2021 3:00:00 PM 20.8 69.44 0.178 7.49 0.56 9.84
9/10/2021 3:15:00 PM 20.83 69.494 0.178 7.49 0.55 9.82
9/10/2021 3:30:00 PM 20.83 69.494 0.178 7.47 0.54 9.72
9/10/2021 3:45:00 PM 20.79 69.422 0.178 7.46 0.5 9.65
9/10/2021 4:00:00 PM 20.74 69.332 0.177 7.45 0.58 9.61
9/10/2021 4:15:00 PM 20.74 69.332 0.177 7.44 0.93 9.55
9/10/2021 4:30:00 PM 20.73 69.314 0.177 7.44 0.59 9.55
9/10/2021 4:45:00 PM 20.69 69.242 0.178 7.43 0.51 9.46
9/10/2021 5:00:00 PM 20.63 69.134 0.178 7.41 0.54 9.43
9/10/2021 5:15:00 PM 20.57 69.026 0.178 7.4 0.45 9.35
9/10/2021 5:30:00 PM 20.47 68.846 0.178 7.38 0.65 9.23
9/10/2021 5:45:00 PM 20.39 68.702 0.178 7.36 0.55 9.16
9/10/2021 6:00:00 PM 20.19 68.342 0.178 7.33 1 8.95
9/10/2021 6:15:00 PM 20.11 68.198 0.178 7.32 2.06 8.84
9/10/2021 6:30:00 PM 19.99 67.982 0.178 7.29 1.16 8.76
9/10/2021 6:45:00 PM 19.86 67.748 0.178 7.27 1.54 8.59
9/10/2021 7:00:00 PM 19.73 67.514 0.178 7.24 0.83 8.4
9/10/2021 7:15:00 PM 19.58 67.244 0.179 7.22 0.65 8.29
9/10/2021 7:30:00 PM 19.44 66.992 0.178 7.2 0.65 8.14
9/10/2021 7:45:00 PM 19.33 66.794 0.179 7.18 0.65 8.01
9/10/2021 8:00:00 PM 19.21 66.578 0.179 7.16 0.74 7.89
9/10/2021 8:15:00 PM 19.11 66.398 0.179 7.15 0.57 7.81
9/10/2021 8:30:00 PM 18.98 66.164 0.179 7.14 0.57 7.75
9/10/2021 8:45:00 PM 18.91 66.038 0.179 7.13 0.52 7.69
9/10/2021 9:00:00 PM 18.8 65.84 0.179 7.12 0.59 7.65
9/10/2021 9:15:00 PM 18.7 65.66 0.179 7.12 0.63 7.63
9/10/2021 9:30:00 PM 18.63 65.534 0.179 7.11 0.57 7.59
9/10/2021 9:45:00 PM 18.54 65.372 0.18 7.11 0.54 7.59
9/10/2021 10:00:00 PM 18.48 65.264 0.18 7.1 0.64 7.57
9/10/2021 10:15:00 PM 18.41 65.138 0.18 7.1 0.7 7.57
9/10/2021 10:30:00 PM 18.33 64.994 0.18 7.1 0.64 7.57
9/10/2021 10:45:00 PM 18.26 64.868 0.18 7.1 0.76 7.58
9/10/2021 11:00:00 PM 18.2 64.76 0.18 7.09 0.65 7.59
9/10/2021 11:15:00 PM 18.15 64.67 0.18 7.09 0.71 7.57
9/10/2021 11:30:00 PM 18.08 64.544 0.18 7.09 0.6 7.59
9/10/2021 11:45:00 PM 18.04 64.472 0.18 7.09 0.61 7.58
9/11/2021 12:00:00 AM 17.99 64.382 0.18 7.09 0.59 7.58
9/11/2021 12:15:00 AM 17.95 64.31 0.18 7.08 0.58 7.57
9/11/2021 12:30:00 AM 17.89 64.202 0.18 7.08 0.7 7.57
9/11/2021 12:45:00 AM 17.86 64.148 0.181 7.08 0.65 7.59
9/11/2021 1:00:00 AM 17.81 64.058 0.181 7.08 0.67 7.6
9/11/2021 1:15:00 AM 17.76 63.968 0.181 7.08 0.72 7.61
9/11/2021 1:30:00 AM 17.71 63.878 0.181 7.08 0.61 7.62
9/11/2021 1:45:00 AM 17.68 63.824 0.181 7.08 0.84 7.62
9/11/2021 2:00:00 AM 17.64 63.752 0.181 7.08 0.61 7.62
9/11/2021 2:15:00 AM 17.6 63.68 0.181 7.08 0.61 7.63
9/11/2021 2:30:00 AM 17.57 63.626 0.182 7.08 0.6 7.63
9/11/2021 2:45:00 AM 17.54 63.572 0.182 7.08 0.57 7.62
9/11/2021 3:00:00 AM 17.5 63.5 0.184 7.08 0.55 7.62
9/11/2021 3:15:00 AM 17.47 63.446 0.184 7.08 0.69 7.65
9/11/2021 3:30:00 AM 17.43 63.374 0.183 7.08 0.57 7.65
9/11/2021 3:45:00 AM 17.4 63.32 0.182 7.08 0.6 7.64
9/11/2021 4:00:00 AM 17.37 63.266 0.182 7.08 0.53 7.66
9/11/2021 4:15:00 AM 17.34 63.212 0.182 7.08 0.63 7.66
9/11/2021 4:30:00 AM 17.31 63.158 0.182 7.08 0.76 7.65
9/11/2021 4:45:00 AM 17.27 63.086 0.182 7.08 0.64 7.67
9/11/2021 5:00:00 AM 17.24 63.032 0.182 7.08 0.6 7.66
9/11/2021 5:15:00 AM 17.21 62.978 0.182 7.07 0.7 7.63
9/11/2021 5:30:00 AM 17.21 62.978 0.183 7.07 0.58 7.67
9/11/2021 5:45:00 AM 17.18 62.924 0.182 7.07 0.69 7.64
9/11/2021 6:00:00 AM 17.19 62.942 0.183 7.07 0.72 7.65
9/11/2021 6:15:00 AM 17.17 62.906 0.183 7.07 0.68 7.67
9/11/2021 6:30:00 AM 17.16 62.888 0.185 7.07 0.75 7.66
9/11/2021 6:45:00 AM 17.14 62.852 0.184 7.07 0.55 7.66
9/11/2021 7:00:00 AM 17.12 62.816 0.185 7.07 0.65 7.65
9/11/2021 7:15:00 AM 17.12 62.816 0.185 7.07 0.57 7.74
9/11/2021 7:30:00 AM 17.11 62.798 0.184 7.08 0.5 7.77
9/11/2021 7:45:00 AM 17.11 62.798 0.185 7.09 0.62 7.85
9/11/2021 8:00:00 AM 17.12 62.816 0.187 7.09 0.6 7.93
9/11/2021 8:15:00 AM 17.14 62.852 0.185 7.11 0.54 8.1
9/11/2021 8:30:00 AM 17.17 62.906 0.184 7.12 0.57 8.27
9/11/2021 8:45:00 AM 17.21 62.978 0.187 7.14 0.51 8.49
9/11/2021 9:00:00 AM 17.28 63.104 0.191 7.16 0.49 8.66
9/11/2021 9:15:00 AM 17.33 63.194 0.192 7.18 0.52 8.85
9/11/2021 9:30:00 AM 17.4 63.32 0.183 7.19 0.53 8.98
9/11/2021 9:45:00 AM 17.53 63.554 0.182 7.21 0.53 9.1
9/11/2021 10:00:00 AM 17.62 63.716 0.188 7.22 0.59 9.21
9/11/2021 10:15:00 AM 17.78 64.004 0.182 7.23 0.43 9.3
9/11/2021 10:30:00 AM 17.98 64.364 0.182 7.24 0.49 9.33
9/11/2021 10:45:00 AM 18.16 64.688 0.182 7.25 0.49 9.42
9/11/2021 11:00:00 AM 18.38 65.084 0.183 7.27 0.49 9.49
9/11/2021 11:15:00 AM 18.64 65.552 0.182 7.28 0.52 9.55
9/11/2021 11:30:00 AM 18.91 66.038 0.183 7.3 0.44 9.62
9/11/2021 11:45:00 AM 19.07 66.326 0.183 7.31 0.53 9.67
9/11/2021 12:00:00 PM 19.34 66.812 0.183 7.33 0.45 9.75
9/11/2021 12:15:00 PM 19.55 67.19 0.183 7.33 0.52 9.78
9/11/2021 12:30:00 PM 19.78 67.604 0.191 7.35 0.45 9.79
9/11/2021 12:45:00 PM 19.97 67.946 0.189 7.35 0.38 9.83
9/11/2021 1:00:00 PM 20.15 68.27 0.183 7.36 0.44 9.84
9/11/2021 1:15:00 PM 20.31 68.558 0.183 7.37 0.45 9.83
9/11/2021 1:30:00 PM 20.5 68.9 0.183 7.38 0.44 9.84
9/11/2021 1:45:00 PM 20.61 69.098 0.183 7.39 0.46 9.89
9/11/2021 2:00:00 PM 20.72 69.296 0.183 7.4 0.44 9.9
9/11/2021 2:15:00 PM 20.78 69.404 0.183 7.4 0.54 9.85
9/11/2021 2:30:00 PM 20.84 69.512 0.183 7.4 0.43 9.85
9/11/2021 2:45:00 PM 20.95 69.71 0.184 7.41 0.39 9.87
9/11/2021 3:00:00 PM 21.02 69.836 0.184 7.41 3.5 9.86
9/11/2021 3:15:00 PM 21.07 69.926 0.184 7.4 0.66 9.78
9/11/2021 3:30:00 PM 21.05 69.89 0.184 7.4 0.46 9.74
9/11/2021 3:45:00 PM 21.08 69.944 0.184 7.4 0.45 9.72
9/11/2021 4:00:00 PM 21.08 69.944 0.183 7.4 0.4 9.72
9/11/2021 4:15:00 PM 21.05 69.89 0.183 7.39 0.46 9.66
9/11/2021 4:30:00 PM 21 69.8 0.183 7.37 0.82 9.59
9/11/2021 4:45:00 PM 20.95 69.71 0.183 7.36 0.42 9.52
9/11/2021 5:00:00 PM 20.92 69.656 0.183 7.36 0.61 9.5
9/11/2021 5:15:00 PM 20.86 69.548 0.183 7.36 0.57 9.47
9/11/2021 5:30:00 PM 20.75 69.35 0.183 7.34 1.63 9.37
9/11/2021 5:45:00 PM 20.66 69.188 0.183 7.33 0.49 9.29
9/11/2021 6:00:00 PM 20.54 68.972 0.183 7.31 0.51 9.15
9/11/2021 6:15:00 PM 20.42 68.756 0.184 7.29 0.52 9.03
9/11/2021 6:30:00 PM 20.28 68.504 0.184 7.26 0.5 8.85
9/11/2021 6:45:00 PM 20.12 68.216 0.184 7.24 0.58 8.67
9/11/2021 7:00:00 PM 19.99 67.982 0.183 7.21 0.48 8.5
9/11/2021 7:15:00 PM 19.83 67.694 0.184 7.18 0.5 8.27
9/11/2021 7:30:00 PM 19.7 67.46 0.184 7.17 0.49 8.1
9/11/2021 7:45:00 PM 19.59 67.262 0.186 7.15 0.44 7.93
9/11/2021 8:00:00 PM 19.46 67.028 0.184 7.13 0.43 7.79
9/11/2021 8:15:00 PM 19.36 66.848 0.184 7.11 0.54 7.66
9/11/2021 8:30:00 PM 19.26 66.668 0.184 7.1 0.58 7.54
9/11/2021 8:45:00 PM 19.15 66.47 0.184 7.09 0.39 7.5
9/11/2021 9:00:00 PM 19.08 66.344 0.184 7.08 0.53 7.41
9/11/2021 9:15:00 PM 19.01 66.218 0.185 7.08 0.53 7.39
9/11/2021 9:30:00 PM 18.92 66.056 0.185 7.07 0.5 7.38
9/11/2021 9:45:00 PM 18.88 65.984 0.185 7.07 0.49 7.34
9/11/2021 10:00:00 PM 18.81 65.858 0.185 7.06 0.55 7.32
9/11/2021 10:15:00 PM 18.72 65.696 0.185 7.06 0.47 7.34
9/11/2021 10:30:00 PM 18.69 65.642 0.185 7.06 0.62 7.28
9/11/2021 10:45:00 PM 18.64 65.552 0.185 7.06 0.51 7.3
9/11/2021 11:00:00 PM 18.57 65.426 0.185 7.06 0.53 7.32
9/11/2021 11:15:00 PM 18.53 65.354 0.185 7.05 0.46 7.29
9/11/2021 11:30:00 PM 18.49 65.282 0.185 7.05 0.54 7.28
9/11/2021 11:45:00 PM 18.45 65.21 0.185 7.05 0.49 7.26
9/12/2021 12:00:00 AM 18.4 65.12 0.185 7.05 0.57 7.29
9/12/2021 12:15:00 AM 18.37 65.066 0.185 7.05 0.51 7.27
9/12/2021 12:30:00 AM 18.36 65.048 0.185 7.05 0.51 7.26
9/12/2021 12:45:00 AM 18.33 64.994 0.186 7.05 0.49 7.32
9/12/2021 1:00:00 AM 18.31 64.958 0.186 7.05 0.59 7.28
9/12/2021 1:15:00 AM 18.28 64.904 0.186 7.05 0.57 7.29
9/12/2021 1:30:00 AM 18.25 64.85 0.186 7.05 0.55 7.28
9/12/2021 1:45:00 AM 18.22 64.796 0.186 7.05 0.56 7.26
9/12/2021 2:00:00 AM 18.19 64.742 0.186 7.04 0.57 7.29
9/12/2021 2:15:00 AM 18.16 64.688 0.186 7.05 0.47 7.3
9/12/2021 2:30:00 AM 18.15 64.67 0.186 7.04 0.57 7.29
9/12/2021 2:45:00 AM 18.15 64.67 0.185 7.04 1.33 7.28
9/12/2021 3:00:00 AM 18.16 64.688 0.187 7.04 0.62 7.29
9/12/2021 3:15:00 AM 18.17 64.706 0.186 7.04 0.52 7.3
9/12/2021 3:30:00 AM 18.18 64.724 0.188 7.04 0.45 7.28
9/12/2021 3:45:00 AM 18.18 64.724 0.188 7.04 0.44 7.26
9/12/2021 4:00:00 AM 18.18 64.724 0.192 7.04 0.5 7.26
9/12/2021 4:15:00 AM 18.18 64.724 0.19 7.04 0.53 7.26
9/12/2021 4:30:00 AM 18.19 64.742 0.189 7.04 0.48 7.26
9/12/2021 4:45:00 AM 18.19 64.742 0.192 7.04 0.5 7.24
9/12/2021 5:00:00 AM 18.2 64.76 0.194 7.04 0.55 7.24
9/12/2021 5:15:00 AM 18.2 64.76 0.191 7.04 0.39 7.24
9/12/2021 5:30:00 AM 18.22 64.796 0.187 7.04 0.62 7.23
9/12/2021 5:45:00 AM 18.23 64.814 0.187 7.04 0.44 7.23
9/12/2021 6:00:00 AM 18.22 64.796 0.19 7.04 0.54 7.19
9/12/2021 6:15:00 AM 18.21 64.778 0.193 7.04 0.49 7.19
9/12/2021 6:30:00 AM 18.21 64.778 0.192 7.04 0.52 7.18
9/12/2021 6:45:00 AM 18.2 64.76 0.191 7.04 0.44 7.19
9/12/2021 7:00:00 AM 18.19 64.742 0.19 7.04 0.51 7.18
9/12/2021 7:15:00 AM 18.19 64.742 0.189 7.04 0.43 7.21
9/12/2021 7:30:00 AM 18.2 64.76 0.188 7.04 0.52 7.28
9/12/2021 7:45:00 AM 18.23 64.814 0.189 7.05 0.4 7.4
9/12/2021 8:00:00 AM 18.28 64.904 0.189 7.06 0.45 7.58
9/12/2021 8:15:00 AM 18.31 64.958 0.189 7.07 0.5 7.7
9/12/2021 8:30:00 AM 18.36 65.048 0.189 7.09 0.88 7.92
9/12/2021 8:45:00 AM 18.41 65.138 0.189 7.1 0.43 8.1
9/12/2021 9:00:00 AM 18.46 65.228 0.189 7.12 0.38 8.24
9/12/2021 9:15:00 AM 18.55 65.39 0.189 7.14 0.44 8.48
9/12/2021 9:30:00 AM 18.63 65.534 0.189 7.16 0.45 8.67
9/12/2021 9:45:00 AM 18.71 65.67799 0.188 7.18 0.46 8.88
9/12/2021 10:00:00 AM 18.8 65.84 0.188 7.19 0.47 9.03
9/12/2021 10:15:00 AM 18.92 66.056 0.189 7.21 0.42 9.17
9/12/2021 10:30:00 AM 19.04 66.272 0.189 7.23 0.4 9.33
9/12/2021 10:45:00 AM 19.14 66.452 0.189 7.24 0.34 9.41
9/12/2021 11:00:00 AM 19.34 66.812 0.188 7.26 0.41 9.56
9/12/2021 11:15:00 AM 19.47 67.046 0.188 7.27 0.4 9.66
9/12/2021 11:30:00 AM 19.59 67.262 0.189 7.29 0.38 9.71
9/12/2021 11:45:00 AM 19.66 67.388 0.189 7.29 0.39 9.72
9/12/2021 12:00:00 PM 19.72 67.496 0.189 7.29 0.38 9.67
9/12/2021 12:15:00 PM 19.77 67.586 0.189 7.29 0.39 9.6
9/12/2021 12:30:00 PM 19.8 67.64 0.19 7.28 0.39 9.49
9/12/2021 12:45:00 PM 19.88 67.784 0.189 7.29 0.38 9.52
9/12/2021 1:00:00 PM 19.97 67.946 0.188 7.29 0.57 9.56
9/12/2021 1:15:00 PM 20.03 68.054 0.188 7.3 0.53 9.59
9/12/2021 1:30:00 PM 20.1 68.18 0.19 7.31 0.41 9.63
9/12/2021 1:45:00 PM 20.14 68.252 0.192 7.32 0.4 9.7
9/12/2021 2:00:00 PM 20.18 68.324 0.201 7.33 0.51 9.75
9/12/2021 2:15:00 PM 20.2 68.36 0.201 7.33 0.32 9.74
9/12/2021 2:30:00 PM 20.19 68.342 0.2 7.32 0.4 9.67
9/12/2021 2:45:00 PM 20.17 68.306 0.196 7.31 0.5 9.56
9/12/2021 3:00:00 PM 20.13 68.234 0.197 7.28 1.11 9.31
9/12/2021 3:15:00 PM 20.16 68.288 0.193 7.28 0.48 9.32
9/12/2021 3:30:00 PM 20.28 68.504 0.194 7.3 0.4 9.51
9/12/2021 3:45:00 PM 20.42 68.756 0.192 7.32 0.46 9.72
9/12/2021 4:00:00 PM 20.53 68.954 0.191 7.34 0.56 9.82
9/12/2021 4:15:00 PM 20.56 69.008 0.191 7.34 0.81 9.76
9/12/2021 4:30:00 PM 20.57 69.026 0.19 7.33 0.99 9.76
9/12/2021 4:45:00 PM 20.62 69.116 0.191 7.34 0.38 9.77
9/12/2021 5:00:00 PM 20.65 69.17 0.19 7.34 1.31 9.75
9/12/2021 5:15:00 PM 20.64 69.152 0.193 7.33 6.87 9.68
9/12/2021 5:30:00 PM 20.6 69.08 0.191 7.32 1.86 9.55
9/12/2021 5:45:00 PM 20.53 68.954 0.194 7.28 1.21 9.28
9/12/2021 6:00:00 PM 20.45 68.81 0.192 7.23 0.64 8.89
9/12/2021 6:15:00 PM 20.41 68.738 0.192 7.21 0.61 8.68
9/12/2021 6:30:00 PM 20.34 68.612 0.19 7.19 0.57 8.52
9/12/2021 6:45:00 PM 20.28 68.504 0.19 7.17 0.53 8.32
9/12/2021 7:00:00 PM 20.2 68.36 0.19 7.14 0.47 8.09
9/12/2021 7:15:00 PM 20.12 68.216 0.19 7.12 0.41 7.87
9/12/2021 7:30:00 PM 20.05 68.09 0.19 7.1 0.59 7.68
9/12/2021 7:45:00 PM 19.98 67.964 0.19 7.08 0.79 7.54
9/12/2021 8:00:00 PM 19.93 67.874 0.19 7.07 0.47 7.42
9/12/2021 8:15:00 PM 19.86 67.748 0.19 7.06 0.51 7.31
9/12/2021 8:30:00 PM 19.81 67.658 0.191 7.05 0.37 7.22
9/12/2021 8:45:00 PM 19.76 67.568 0.191 7.04 1.03 7.15
9/12/2021 9:00:00 PM 19.72 67.496 0.191 7.04 0.45 7.11
9/12/2021 9:15:00 PM 19.69 67.442 0.191 7.03 0.45 7.05
9/12/2021 9:30:00 PM 19.64 67.352 0.191 7.03 0.51 7.01
9/12/2021 9:45:00 PM 19.6 67.28 0.191 7.02 0.51 6.97
9/12/2021 10:00:00 PM 19.57 67.226 0.191 7.02 0.46 6.95
9/12/2021 10:15:00 PM 19.53 67.154 0.191 7.02 0.53 6.92
9/12/2021 10:30:00 PM 19.51 67.118 0.192 7.02 0.46 6.91
9/12/2021 10:45:00 PM 19.48 67.064 0.192 7.01 0.57 6.93
9/12/2021 11:00:00 PM 19.46 67.028 0.192 7.01 0.52 6.92
9/12/2021 11:15:00 PM 19.44 66.992 0.191 7.01 0.47 6.89
9/12/2021 11:30:00 PM 19.41 66.938 0.192 7.01 0.71 6.87
9/12/2021 11:45:00 PM 19.39 66.902 0.191 7.01 0.5 6.87
9/13/2021 12:00:00 AM 19.37 66.866 0.191 7.01 0.7 6.87
9/13/2021 12:15:00 AM 19.34 66.812 0.192 7.01 0.45 6.87
9/13/2021 12:30:00 AM 19.31 66.758 0.191 7.01 0.44 6.86
9/13/2021 12:45:00 AM 19.29 66.722 0.192 7.01 0.4 6.87
9/13/2021 1:00:00 AM 19.29 66.722 0.191 7.01 0.49 6.82
9/13/2021 1:15:00 AM 19.28 66.704 0.192 7 0.5 6.84
9/13/2021 1:30:00 AM 19.27 66.686 0.192 7 0.5 6.83
9/13/2021 1:45:00 AM 19.27 66.686 0.192 7 0.45 6.82
9/13/2021 2:00:00 AM 19.25 66.65 0.192 7 0.53 6.84
9/13/2021 2:15:00 AM 19.25 66.65 0.192 7 0.42 6.84
9/13/2021 2:30:00 AM 19.25 66.65 0.192 7 0.44 6.82
9/13/2021 2:45:00 AM 19.24 66.632 0.191 7 0.44 6.81
9/13/2021 3:00:00 AM 19.23 66.614 0.192 7 0.42 6.83
9/13/2021 3:15:00 AM 19.22 66.596 0.192 7 0.4 6.81
9/13/2021 3:30:00 AM 19.21 66.578 0.192 7 0.68 6.78
9/13/2021 3:45:00 AM 19.2 66.56 0.193 7 0.48 6.79
9/13/2021 4:00:00 AM 19.19 66.542 0.192 7 0.41 6.79
9/13/2021 4:15:00 AM 19.18 66.524 0.192 7 0.52 6.78
9/13/2021 4:30:00 AM 19.16 66.488 0.192 7 0.55 6.8
9/13/2021 4:45:00 AM 19.15 66.47 0.193 7.01 0.54 6.79
9/13/2021 5:00:00 AM 19.14 66.452 0.193 7.01 1.27 6.78
9/13/2021 5:15:00 AM 19.13 66.434 0.192 7.01 1.26 6.77
9/13/2021 5:30:00 AM 19.09 66.362 0.193 7.01 1.14 6.83
9/13/2021 5:45:00 AM 19.08 66.344 0.193 7.01 0.53 6.79
9/13/2021 6:00:00 AM 19.07 66.326 0.194 7.01 0.52 6.8
9/13/2021 6:15:00 AM 19.05 66.29 0.194 7.01 0.52 6.81
9/13/2021 6:30:00 AM 19.04 66.272 0.194 7.01 0.54 6.8
9/13/2021 6:45:00 AM 19.02 66.236 0.194 7.01 0.54 6.79
9/13/2021 7:00:00 AM 19 66.2 0.194 7.01 0.44 6.81
9/13/2021 7:15:00 AM 18.99 66.182 0.194 7.01 0.4 6.84
9/13/2021 7:30:00 AM 18.98 66.164 0.194 7.01 0.46 6.88
9/13/2021 7:45:00 AM 18.98 66.164 0.194 7.02 0.46 6.97
9/13/2021 8:00:00 AM 18.99 66.182 0.194 7.02 2.24 7.03
9/13/2021 8:15:00 AM 19.01 66.218 0.194 7.04 2.19 7.21
9/13/2021 8:30:00 AM 19.02 66.236 0.195 7.05 0.59 7.41
9/13/2021 8:45:00 AM 19.05 66.29 0.194 7.06 0.51 7.6
9/13/2021 9:00:00 AM 19.08 66.344 0.194 7.08 0.5 7.86
9/13/2021 9:15:00 AM 19.11 66.398 0.194 7.1 0.67 7.99
9/13/2021 9:30:00 AM 19.15 66.47 0.194 7.11 0.44 8.23
9/13/2021 9:45:00 AM 19.21 66.578 0.194 7.13 0.35 8.44
9/13/2021 10:00:00 AM 19.26 66.668 0.194 7.15 0.43 8.56
9/13/2021 10:15:00 AM 19.35 66.83 0.193 7.17 0.41 8.87
9/13/2021 10:30:00 AM 19.44 66.992 0.193 7.19 0.36 9.06
9/13/2021 10:45:00 AM 19.54 67.172 0.194 7.22 0.41 9.3
9/13/2021 11:00:00 AM 19.6 67.28 0.194 7.23 0.34 9.37
9/13/2021 11:15:00 AM 19.68 67.424 0.194 7.24 0.41 9.45
9/13/2021 11:30:00 AM 19.77 67.586 0.194 7.25 0.33 9.58
9/13/2021 11:45:00 AM 19.84 67.712 0.193 7.26 1.64 9.63
9/13/2021 12:00:00 PM 19.94 67.892 0.193 7.28 0.46 9.75
9/13/2021 12:15:00 PM 20 68 0.193 7.28 0.76 9.76
9/13/2021 12:30:00 PM 20.05 68.09 0.193 7.29 3.03 9.78
9/13/2021 12:45:00 PM 20.1 68.18 0.193 7.29 1.7 9.8
9/13/2021 1:00:00 PM 20.19 68.342 0.194 7.3 0.37 9.83
9/13/2021 1:15:00 PM 20.26 68.468 0.194 7.3 0.39 9.86
9/13/2021 1:30:00 PM 20.32 68.576 0.194 7.31 0.42 9.89
9/13/2021 1:45:00 PM 20.41 68.738 0.194 7.31 0.4 9.87
9/13/2021 2:00:00 PM 20.53 68.954 0.194 7.32 0.41 9.94
9/13/2021 2:15:00 PM 20.67 69.206 0.194 7.33 0.49 9.97
9/13/2021 2:30:00 PM 20.74 69.332 0.194 7.33 0.65 9.98
9/13/2021 2:45:00 PM 20.74 69.332 0.194 7.33 0.4 9.94
9/13/2021 3:00:00 PM 20.75 69.35 0.194 7.33 0.44 9.86
9/13/2021 3:15:00 PM 20.78 69.404 0.194 7.33 0.29 9.89
9/13/2021 3:30:00 PM 20.78 69.404 0.194 7.33 1.32 9.88
9/13/2021 3:45:00 PM 20.8 69.44 0.194 7.33 0.41 9.86
9/13/2021 4:00:00 PM 20.81 69.458 0.194 7.32 1.37 9.83
9/13/2021 4:15:00 PM 20.8 69.44 0.194 7.31 1.29 9.75
9/13/2021 4:30:00 PM 20.8 69.44 0.195 7.3 1.46 9.65
9/13/2021 4:45:00 PM 20.83 69.494 0.194 7.29 1.85 9.64
9/13/2021 5:00:00 PM 20.83 69.494 0.195 7.3 0.21 9.66
9/13/2021 5:15:00 PM 20.81 69.458 0.194 7.29 0.28 9.6
9/13/2021 5:30:00 PM 20.78 69.404 0.195 7.27 0.3 9.49
9/13/2021 5:45:00 PM 20.71 69.278 0.195 7.25 0.3 9.35
9/13/2021 6:00:00 PM 20.63 69.134 0.195 7.23 0.26 9.14
9/13/2021 6:15:00 PM 20.55 68.99 0.194 7.21 0.27 8.95
9/13/2021 6:30:00 PM 20.49 68.882 0.195 7.19 0.3 8.75
9/13/2021 6:45:00 PM 20.42 68.756 0.195 7.16 0.36 8.52
9/13/2021 7:00:00 PM 20.33 68.594 0.196 7.13 0.38 8.22
9/13/2021 7:15:00 PM 20.22 68.396 0.196 7.11 0.31 7.92
9/13/2021 7:30:00 PM 20.13 68.234 0.196 7.09 0.31 7.72
9/13/2021 7:45:00 PM 20.04 68.07201 0.196 7.07 0.27 7.51
9/13/2021 8:00:00 PM 19.97 67.946 0.196 7.05 0.32 7.36
9/13/2021 8:15:00 PM 19.89 67.802 0.196 7.04 0.37 7.23
9/13/2021 8:30:00 PM 19.84 67.712 0.196 7.03 0.28 7.12
9/13/2021 8:45:00 PM 19.78 67.604 0.196 7.02 0.66 7.01
9/13/2021 9:00:00 PM 19.72 67.496 0.197 7.02 0.46 6.94
9/13/2021 9:15:00 PM 19.68 67.424 0.197 7.01 0.29 6.91
9/13/2021 9:30:00 PM 19.64 67.352 0.197 7.01 0.24 6.86
9/13/2021 9:45:00 PM 19.58 67.244 0.197 7.01 0.28 6.83
9/13/2021 10:00:00 PM 19.53 67.154 0.197 7 0.27 6.81
9/13/2021 10:15:00 PM 19.48 67.064 0.197 7 0.36 6.78
9/13/2021 10:30:00 PM 19.43 66.974 0.197 7 0.44 6.75
9/13/2021 10:45:00 PM 19.38 66.884 0.197 7 0.29 6.75
9/13/2021 11:00:00 PM 19.34 66.812 0.196 7 0.21 6.73
9/13/2021 11:15:00 PM 19.29 66.722 0.197 6.99 0.34 6.74
9/13/2021 11:30:00 PM 19.23 66.614 0.197 6.99 0.51 6.73
9/13/2021 11:45:00 PM 19.19 66.542 0.197 6.99 0.29 6.72
9/14/2021 12:00:00 AM 19.15 66.47 0.197 6.99 0.37 6.73
9/14/2021 12:15:00 AM 19.12 66.416 0.197 6.99 0.26 6.71
9/14/2021 12:30:00 AM 19.09 66.362 0.197 6.99 0.34 6.72
9/14/2021 12:45:00 AM 19.07 66.326 0.197 6.99 0.43 6.73
9/14/2021 1:00:00 AM 19.06 66.308 0.197 6.99 0.53 6.73
9/14/2021 1:15:00 AM 19.03 66.254 0.197 6.99 0.4 6.74
9/14/2021 1:30:00 AM 19.02 66.236 0.196 6.99 0.45 6.73
9/14/2021 1:45:00 AM 19.01 66.218 0.196 6.99 0.54 6.73
9/14/2021 2:00:00 AM 18.99 66.182 0.196 6.99 0.35 6.74
9/14/2021 2:15:00 AM 18.98 66.164 0.196 6.99 0.47 6.77
9/14/2021 2:30:00 AM 18.97 66.146 0.196 6.99 0.5 6.78
9/14/2021 2:45:00 AM 18.96 66.128 0.196 6.99 0.44 6.76
9/14/2021 3:00:00 AM 18.95 66.11 0.196 6.99 0.4 6.77
9/14/2021 3:15:00 AM 18.95 66.11 0.196 6.99 0.52 6.75
9/14/2021 3:30:00 AM 18.94 66.092 0.196 6.99 0.48 6.72
9/14/2021 3:45:00 AM 18.94 66.092 0.197 6.99 0.41 6.73
9/14/2021 4:00:00 AM 18.94 66.092 0.196 6.99 0.41 6.74
9/14/2021 4:15:00 AM 18.93 66.074 0.197 7 0.37 6.76
9/14/2021 4:30:00 AM 18.93 66.074 0.197 7 0.41 6.75
9/14/2021 4:45:00 AM 18.93 66.074 0.197 7 0.38 6.74
9/14/2021 5:00:00 AM 18.93 66.074 0.197 7 0.43 6.72
9/14/2021 5:15:00 AM 18.92 66.056 0.197 7 0.37 6.75
9/14/2021 5:30:00 AM 18.92 66.056 0.197 7 0.38 6.75
9/14/2021 5:45:00 AM 18.92 66.056 0.197 7 0.29 6.73
9/14/2021 6:00:00 AM 18.92 66.056 0.198 7 0.35 6.75
9/14/2021 6:15:00 AM 18.92 66.056 0.197 7 0.37 6.73
9/14/2021 6:30:00 AM 18.92 66.056 0.198 7 0.32 6.73
9/14/2021 6:45:00 AM 18.93 66.074 0.198 7 0.32 6.74
9/14/2021 7:00:00 AM 18.93 66.074 0.198 7 0.35 6.73
9/14/2021 7:15:00 AM 18.93 66.074 0.198 7 0.29 6.76
9/14/2021 7:30:00 AM 18.92 66.056 0.198 7 0.35 6.77
9/14/2021 7:45:00 AM 18.92 66.056 0.198 7 0.38 6.8
9/14/2021 8:00:00 AM 18.93 66.074 0.198 7.01 0.23 6.9
9/14/2021 8:15:00 AM 18.94 66.092 0.198 7.02 0.22 7.1
9/14/2021 8:30:00 AM 18.98 66.164 0.198 7.04 0.27 7.3
9/14/2021 8:45:00 AM 19.02 66.236 0.198 7.06 0.27 7.6
9/14/2021 9:00:00 AM 19.06 66.308 0.198 7.08 0.27 7.87
9/14/2021 9:15:00 AM 19.11 66.398 0.198 7.1 0.2 8.08
9/14/2021 9:30:00 AM 19.17 66.506 0.198 7.12 0.25 8.29
9/14/2021 9:45:00 AM 19.23 66.614 0.197 7.13 0.26 8.48
9/14/2021 10:00:00 AM 19.32 66.776 0.197 7.15 0.3 8.68
9/14/2021 10:15:00 AM 19.41 66.938 0.197 7.17 0.31 8.84
9/14/2021 10:30:00 AM 19.53 67.154 0.197 7.19 0.22 9.03
9/14/2021 10:45:00 AM 19.61 67.298 0.197 7.2 0.25 9.18
9/14/2021 11:00:00 AM 19.79 67.622 0.197 7.22 0.2 9.37
9/14/2021 11:15:00 AM 19.98 67.964 0.197 7.25 0.2 9.56
9/14/2021 11:30:00 AM 20.2 68.36 0.197 7.27 0.22 9.74
9/14/2021 11:45:00 AM 20.39 68.702 0.197 7.29 0.28 9.76
9/14/2021 12:00:00 PM 20.46 68.828 0.197 7.3 0.28 9.81
9/14/2021 12:15:00 PM 20.55 68.99 0.196 7.3 0.28 9.82
9/14/2021 12:30:00 PM 20.6 69.08 0.197 7.3 0.29 9.79
9/14/2021 12:45:00 PM 20.64 69.152 0.196 7.3 0.18 9.72
9/14/2021 1:00:00 PM 20.67 69.206 0.196 7.3 0.2 9.69
9/14/2021 1:15:00 PM 20.72 69.296 0.197 7.3 0.16 9.69
9/14/2021 1:30:00 PM 20.78 69.404 0.197 7.31 0.32 9.67
9/14/2021 1:45:00 PM 20.88 69.584 0.197 7.32 0.14 9.81
9/14/2021 2:00:00 PM 20.94 69.692 0.197 7.33 0.29 9.79
9/14/2021 2:15:00 PM 20.96 69.728 0.196 7.33 0.28 9.72
9/14/2021 2:30:00 PM 21.02 69.836 0.197 7.33 0.25 9.75
9/14/2021 2:45:00 PM 21.17 70.106 0.197 7.34 0.33 9.85
9/14/2021 3:00:00 PM 21.3 70.34 0.196 7.36 0.18 9.94
9/14/2021 3:15:00 PM 21.46 70.628 0.196 7.37 0.33 10.01
9/14/2021 3:30:00 PM 21.58 70.844 0.196 7.38 0.3 10.01
9/14/2021 3:45:00 PM 21.63 70.934 0.197 7.39 0.16 10.02
9/14/2021 4:00:00 PM 21.71 71.078 0.197 7.39 0.28 10.01
9/14/2021 4:15:00 PM 21.74 71.132 0.196 7.39 0.25 9.98
9/14/2021 4:30:00 PM 21.73 71.114 0.196 7.39 0.23 9.95
9/14/2021 4:45:00 PM 21.68 71.024 0.197 7.37 0.37 9.79
9/14/2021 5:00:00 PM 21.64 70.952 0.197 7.35 0.28 9.64
9/14/2021 5:15:00 PM 21.58 70.844 0.197 7.31 0.37 9.37
9/14/2021 5:30:00 PM 21.52 70.736 0.197 7.29 0.27 9.15
9/14/2021 5:45:00 PM 21.44 70.592 0.197 7.26 0.3 8.94
9/14/2021 6:00:00 PM 21.37 70.466 0.197 7.24 0.72 8.76
9/14/2021 6:15:00 PM 21.29 70.32201 0.197 7.22 0.28 8.54
9/14/2021 6:30:00 PM 21.23 70.214 0.197 7.2 0.45 8.47
9/14/2021 6:45:00 PM 21.12 70.016 0.197 7.18 0.32 8.3
9/14/2021 7:00:00 PM 21.04 69.872 0.197 7.16 1.26 8.11
9/14/2021 7:15:00 PM 20.92 69.656 0.197 7.14 0.2 7.88
9/14/2021 7:30:00 PM 20.82 69.476 0.197 7.12 0.32 7.66
9/14/2021 7:45:00 PM 20.72 69.296 0.196 7.1 0.23 7.46
9/14/2021 8:00:00 PM 20.64 69.152 0.197 7.08 0.33 7.3
9/14/2021 8:15:00 PM 20.56 69.008 0.197 7.07 0.31 7.17
9/14/2021 8:30:00 PM 20.46 68.828 0.197 7.06 0.34 7.07
9/14/2021 8:45:00 PM 20.38 68.684 0.198 7.05 0.39 6.98
9/14/2021 9:00:00 PM 20.31 68.558 0.197 7.04 0.41 6.9
9/14/2021 9:15:00 PM 20.24 68.432 0.197 7.04 0.39 6.86
9/14/2021 9:30:00 PM 20.19 68.342 0.197 7.03 0.5 6.81
9/14/2021 9:45:00 PM 20.13 68.234 0.197 7.03 0.39 6.79
9/14/2021 10:00:00 PM 20.07 68.126 0.197 7.03 0.77 6.76
9/14/2021 10:15:00 PM 20.01 68.018 0.197 7.02 0.34 6.73
9/14/2021 10:30:00 PM 19.96 67.92799 0.197 7.02 0.27 6.73
9/14/2021 10:45:00 PM 19.93 67.874 0.197 7.02 0.3 6.69
9/14/2021 11:00:00 PM 19.88 67.784 0.197 7.02 0.31 6.69
9/14/2021 11:15:00 PM 19.86 67.748 0.197 7.02 0.43 6.68
9/14/2021 11:30:00 PM 19.83 67.694 0.196 7.02 0.43 6.68
9/14/2021 11:45:00 PM 19.8 67.64 0.197 7.02 0.29 6.69
9/15/2021 12:00:00 AM 19.78 67.604 0.197 7.01 0.36 6.67
9/15/2021 12:15:00 AM 19.75 67.55 0.198 7.01 0.36 6.68
9/15/2021 12:30:00 AM 19.73 67.514 0.197 7.01 0.26 6.66
9/15/2021 12:45:00 AM 19.71 67.478 0.198 7.01 0.25 6.68
9/15/2021 1:00:00 AM 19.7 67.46 0.197 7.01 0.39 6.67
9/15/2021 1:15:00 AM 19.68 67.424 0.198 7.01 0.32 6.66
9/15/2021 1:30:00 AM 19.66 67.388 0.198 7.01 0.39 6.64
9/15/2021 1:45:00 AM 19.65 67.37 0.198 7.01 0.35 6.63
9/15/2021 2:00:00 AM 19.63 67.334 0.198 7.01 0.37 6.63
9/15/2021 2:15:00 AM 19.63 67.334 0.198 7.01 0.38 6.61
9/15/2021 2:30:00 AM 19.62 67.316 0.198 7.01 0.34 6.65
9/15/2021 2:45:00 AM 19.59 67.262 0.198 7.01 0.35 6.63
9/15/2021 3:00:00 AM 19.59 67.262 0.198 7.01 0.58 6.63
9/15/2021 3:15:00 AM 19.58 67.244 0.198 7.01 0.48 6.59
9/15/2021 3:30:00 AM 19.57 67.226 0.198 7.01 0.5 6.59
9/15/2021 3:45:00 AM 19.56 67.208 0.198 7.01 0.35 6.61
9/15/2021 4:00:00 AM 19.56 67.208 0.198 7.01 0.32 6.59
9/15/2021 4:15:00 AM 19.55 67.19 0.198 7.01 0.43 6.6
9/15/2021 4:30:00 AM 19.54 67.172 0.198 7.01 0.28 6.61
9/15/2021 4:45:00 AM 19.53 67.154 0.198 7.01 0.32 6.6
9/15/2021 5:00:00 AM 19.52 67.136 0.198 7.01 0.32 6.6
9/15/2021 5:15:00 AM 19.52 67.136 0.198 7.01 0.24 6.59
9/15/2021 5:30:00 AM 19.51 67.118 0.198 7.01 0.32 6.57
9/15/2021 5:45:00 AM 19.5 67.1 0.198 7.01 0.3 6.59
9/15/2021 6:00:00 AM 19.49 67.082 0.198 7 0.45 6.58
9/15/2021 6:15:00 AM 19.47 67.046 0.198 7.01 0.4 6.58
9/15/2021 6:30:00 AM 19.45 67.01 0.199 7 0.53 6.58
9/15/2021 6:45:00 AM 19.43 66.974 0.198 7 0.53 6.59
9/15/2021 7:00:00 AM 19.42 66.956 0.199 7 0.64 6.53
9/15/2021 7:15:00 AM 19.41 66.938 0.198 7 0.69 6.54
9/15/2021 7:30:00 AM 19.4 66.92 0.198 7.01 0.53 6.71
9/15/2021 7:45:00 AM 19.4 66.92 0.199 7.01 0.46 6.78
9/15/2021 8:00:00 AM 19.42 66.956 0.199 7.03 0.48 7
9/15/2021 8:15:00 AM 19.44 66.992 0.199 7.04 0.33 7.07
9/15/2021 8:30:00 AM 19.47 67.046 0.199 7.05 0.4 7.27
9/15/2021 8:45:00 AM 19.52 67.136 0.199 7.06 0.3 7.4
9/15/2021 9:00:00 AM 19.58 67.244 0.199 7.08 0.35 7.63
9/15/2021 9:15:00 AM 19.68 67.424 0.199 7.1 0.29 7.95
9/15/2021 9:30:00 AM 19.79 67.622 0.198 7.13 0.25 8.22
9/15/2021 9:45:00 AM 19.89 67.802 0.198 7.14 0.28 8.37
9/15/2021 10:00:00 AM 20.05 68.09 0.198 7.17 0.37 8.63
9/15/2021 10:15:00 AM 20.16 68.288 0.198 7.19 0.41 8.79
9/15/2021 10:30:00 AM 20.25 68.45 0.198 7.2 0.21 8.91
9/15/2021 10:45:00 AM 20.34 68.612 0.198 7.21 0.3 9.06
9/15/2021 11:00:00 AM 20.44 68.792 0.198 7.23 0.25 9.2
9/15/2021 11:15:00 AM 20.59 69.062 0.197 7.25 0.31 9.33
9/15/2021 11:30:00 AM 20.69 69.242 0.197 7.25 1.24 9.38
9/15/2021 11:45:00 AM 20.8 69.44 0.197 7.26 0.54 9.44
9/15/2021 12:00:00 PM 20.89 69.602 0.198 7.28 0.37 9.51
9/15/2021 12:15:00 PM 21.02 69.836 0.198 7.29 0.25 9.61
9/15/2021 12:30:00 PM 21.15 70.07 0.197 7.31 0.89 9.73
9/15/2021 12:45:00 PM 21.17 70.106 0.198 7.3 16.95 9.6
9/15/2021 1:00:00 PM 21.11 69.998 0.196 7.28 6.2 9.25
9/15/2021 1:15:00 PM 20.97 69.746 0.195 7.23 2.31 8.61
9/15/2021 1:30:00 PM 20.85 69.53 0.191 7.21 11.14 8.25
9/15/2021 1:45:00 PM 20.82 69.476 0.19 7.2 2.94 8.14
9/15/2021 2:00:00 PM 20.9 69.62 0.191 7.21 1.95 8.2
9/15/2021 2:15:00 PM 21.03 69.854 0.192 7.26 3.5 8.61
9/15/2021 2:30:00 PM 21.13 70.034 0.191 7.3 1.18 9.03
9/15/2021 2:45:00 PM 21.16 70.088 0.192 7.32 1.14 9.16
9/15/2021 3:00:00 PM 21.14 70.052 0.19 7.33 3.49 9.05
9/15/2021 3:15:00 PM 21.23 70.214 0.191 7.39 4.18 9.08
9/15/2021 3:30:00 PM 21.17 70.106 0.205 7.37 14.23 9.01
9/15/2021 3:45:00 PM 21.16 70.088 0.192 7.39 21.05 8.81
9/15/2021 4:00:00 PM 21.16 70.088 0.183 7.39 22.11 8.63
9/15/2021 4:15:00 PM 21.13 70.034 0.177 7.38 23.86 8.45
9/15/2021 4:30:00 PM 21.06 69.908 0.175 7.36 27.07 8.31
9/15/2021 4:45:00 PM 20.95 69.71 0.172 7.33 31.98 8.11
9/15/2021 5:00:00 PM 20.77 69.386 0.169 7.29 34.36 7.99
9/15/2021 5:15:00 PM 20.64 69.152 0.168 7.26 61 7.94
9/15/2021 5:30:00 PM 20.55 68.99 0.167 7.25 40.91 7.94
9/15/2021 5:45:00 PM 20.45 68.81 0.167 7.24 29.88 7.94
9/15/2021 6:00:00 PM 20.37 68.666 0.167 7.22 23.33 7.91
9/15/2021 6:15:00 PM 20.3 68.54 0.168 7.21 23.29 7.86
9/15/2021 6:30:00 PM 20.22 68.396 0.168 7.2 24.13 7.82
9/15/2021 6:45:00 PM 20.15 68.27 0.169 7.19 25.01 7.76
9/15/2021 7:00:00 PM 20.09 68.162 0.17 7.18 29.81 7.69
9/15/2021 7:15:00 PM 20.03 68.054 0.171 7.17 31.12 7.66
9/15/2021 7:30:00 PM 19.97 67.946 0.174 7.14 119 7.5
9/15/2021 7:45:00 PM 20.53 68.954 0.153 7.39 66.29 8.18
9/15/2021 8:00:00 PM 20.67 69.206 0.147 7.43 57.07 8.27
9/15/2021 8:15:00 PM 20.61 69.098 0.14 7.41 82.21 8.31
9/15/2021 8:30:00 PM 20.49 68.882 0.134 7.39 113.98 8.33
9/15/2021 8:45:00 PM 20.37 68.666 0.126 7.36 79.62 8.36
9/15/2021 9:00:00 PM 20.23 68.414 0.121 7.33 85.72 8.37
9/15/2021 9:15:00 PM 20.07 68.126 0.117 7.3 103.77 8.4
9/15/2021 9:30:00 PM 19.91 67.838 0.113 7.28 101.61 8.44
9/15/2021 9:45:00 PM 19.77 67.586 0.11 7.28 142.68 8.47
9/15/2021 10:00:00 PM 19.64 67.352 0.108 7.26 163.61 8.5
9/15/2021 10:15:00 PM 19.53 67.154 0.106 7.26 163.47 8.53
9/15/2021 10:30:00 PM 19.43 66.974 0.105 7.25 182.82 8.56
9/15/2021 10:45:00 PM 19.36 66.848 0.104 7.25 150.01 8.57
9/15/2021 11:00:00 PM 19.31 66.758 0.104 7.25 200.59 8.59
9/15/2021 11:15:00 PM 19.26 66.668 0.105 7.25 113.36 8.6
9/15/2021 11:30:00 PM 19.21 66.578 0.106 7.25 99.94 8.6
9/15/2021 11:45:00 PM 19.17 66.506 0.107 7.25 102.71 8.61
9/16/2021 12:00:00 AM 19.14 66.452 0.107 7.25 76.11 8.62
9/16/2021 12:15:00 AM 19.11 66.398 0.108 7.25 87.59 8.62
9/16/2021 12:30:00 AM 19.07 66.326 0.109 7.26 69.73 8.63
9/16/2021 12:45:00 AM 19.04 66.272 0.109 7.26 75.88 8.63
9/16/2021 1:00:00 AM 19.01 66.218 0.11 7.26 68.38 8.64
9/16/2021 1:15:00 AM 18.99 66.182 0.11 7.26 57.44 8.65
9/16/2021 1:30:00 AM 18.96 66.128 0.11 7.26 65.72 8.65
9/16/2021 1:45:00 AM 18.93 66.074 0.111 7.26 54.69 8.66
9/16/2021 2:00:00 AM 18.9 66.02 0.111 7.26 49.56 8.66
9/16/2021 2:15:00 AM 18.86 65.948 0.111 7.26 43.81 8.67
9/16/2021 2:30:00 AM 18.83 65.894 0.111 7.26 74.94 8.67
9/16/2021 2:45:00 AM 18.8 65.84 0.111 7.26 47.24 8.68
9/16/2021 3:00:00 AM 18.78 65.804 0.111 7.26 54.09 8.68
9/16/2021 3:15:00 AM 18.76 65.768 0.111 7.26 42.55 8.68
9/16/2021 3:30:00 AM 18.73 65.714 0.112 7.25 64.07 8.68
9/16/2021 3:45:00 AM 18.7 65.66 0.112 7.25 47.57 8.68
9/16/2021 4:00:00 AM 18.67 65.606 0.112 7.25 47.46 8.68
9/16/2021 4:15:00 AM 18.63 65.534 0.112 7.25 37.1 8.68
9/16/2021 4:30:00 AM 18.61 65.498 0.112 7.24 45.47 8.68
9/16/2021 4:45:00 AM 18.58 65.444 0.113 7.25 42.06 8.68
9/16/2021 5:00:00 AM 18.56 65.408 0.113 7.24 43.58 8.68
9/16/2021 5:15:00 AM 18.55 65.39 0.113 7.24 38.99 8.68
9/16/2021 5:30:00 AM 18.54 65.372 0.113 7.24 37.53 8.67
9/16/2021 5:45:00 AM 18.53 65.354 0.113 7.24 45.56 8.67
9/16/2021 6:00:00 AM 18.51 65.318 0.113 7.24 35.78 8.67
9/16/2021 6:15:00 AM 18.5 65.3 0.113 7.24 35.28 8.67
9/16/2021 6:30:00 AM 18.48 65.264 0.113 7.23 45.56 8.67
9/16/2021 6:45:00 AM 18.46 65.228 0.114 7.23 38.65 8.66
9/16/2021 7:00:00 AM 18.44 65.192 0.114 7.23 31.69 8.67
9/16/2021 7:15:00 AM 18.42 65.156 0.114 7.23 30.58 8.67
9/16/2021 7:30:00 AM 18.41 65.138 0.114 7.23 23.7 8.67
9/16/2021 7:45:00 AM 18.4 65.12 0.114 7.24 28.57 8.69
9/16/2021 8:00:00 AM 18.39 65.102 0.114 7.23 27.3 8.7
9/16/2021 8:15:00 AM 18.39 65.102 0.115 7.24 25.39 8.73
9/16/2021 8:30:00 AM 18.4 65.12 0.115 7.25 26.54 8.78
9/16/2021 8:45:00 AM 18.42 65.156 0.115 7.25 23.78 8.81
9/16/2021 9:00:00 AM 18.44 65.192 0.115 7.26 24.45 8.85
9/16/2021 9:15:00 AM 18.45 65.21 0.115 7.27 22.03 8.87
9/16/2021 9:30:00 AM 18.48 65.264 0.116 7.27 21.71 8.9
9/16/2021 9:45:00 AM 18.51 65.318 0.116 7.28 21.66 8.93
9/16/2021 10:00:00 AM 18.56 65.408 0.116 7.3 20.74 8.99
9/16/2021 10:15:00 AM 18.64 65.552 0.116 7.31 20.42 9.05
9/16/2021 10:30:00 AM 18.73 65.714 0.116 7.33 19.94 9.12
9/16/2021 10:45:00 AM 18.81 65.858 0.117 7.34 23.96 9.16
9/16/2021 11:00:00 AM 18.88 65.984 0.117 7.36 19.23 9.17
9/16/2021 11:15:00 AM 18.94 66.092 0.117 7.36 17.45 9.2
9/16/2021 11:30:00 AM 19.01 66.218 0.118 7.37 16.6 9.21
9/16/2021 11:45:00 AM 19.08 66.344 0.118 7.38 16.74 9.23
9/16/2021 12:00:00 PM 19.13 66.434 0.118 7.39 16.89 9.23
9/16/2021 12:15:00 PM 19.22 66.596 0.118 7.4 16.46 9.24
9/16/2021 12:30:00 PM 19.41 66.938 0.118 7.41 15.74 9.29
9/16/2021 12:45:00 PM 19.67 67.406 0.118 7.43 15.71 9.32
9/16/2021 1:00:00 PM 19.92 67.856 0.118 7.44 13.83 9.31
9/16/2021 1:15:00 PM 20.14 68.252 0.119 7.45 13.66 9.29
9/16/2021 1:30:00 PM 20.36 68.648 0.119 7.46 13.02 9.27
9/16/2021 1:45:00 PM 20.54 68.972 0.119 7.47 13.08 9.25
9/16/2021 2:00:00 PM 20.61 69.098 0.119 7.46 13.89 9.21
9/16/2021 2:15:00 PM 20.74 69.332 0.12 7.47 12.55 9.19
9/16/2021 2:30:00 PM 20.89 69.602 0.12 7.47 12.87 9.16
9/16/2021 2:45:00 PM 21.06 69.908 0.12 7.48 12.36 9.13
9/16/2021 3:00:00 PM 21.2 70.16 0.12 7.48 12.13 9.09
9/16/2021 3:15:00 PM 21.27 70.286 0.12 7.48 12.51 9.05
9/16/2021 3:30:00 PM 21.35 70.43 0.121 7.48 11.98 9.05
9/16/2021 3:45:00 PM 21.38 70.484 0.121 7.49 12.16 9.03
9/16/2021 4:00:00 PM 21.37 70.466 0.121 7.48 11.59 8.97
9/16/2021 4:15:00 PM 21.33 70.394 0.121 7.46 11.72 8.93
9/16/2021 4:30:00 PM 21.28 70.304 0.122 7.45 11.8 8.89
9/16/2021 4:45:00 PM 21.22 70.196 0.122 7.44 11.89 8.85
9/16/2021 5:00:00 PM 21.19 70.142 0.121 7.43 11.49 8.84
9/16/2021 5:15:00 PM 21.13 70.034 0.122 7.42 11.4 8.79
9/16/2021 5:30:00 PM 21.03 69.854 0.123 7.41 12.35 8.72
9/16/2021 5:45:00 PM 20.94 69.692 0.123 7.38 13.01 8.61
9/16/2021 6:00:00 PM 20.84 69.512 0.123 7.35 13.78 8.52
9/16/2021 6:15:00 PM 20.75 69.35 0.124 7.33 15.37 8.44
9/16/2021 6:30:00 PM 20.66 69.188 0.124 7.31 18.75 8.37
9/16/2021 6:45:00 PM 20.58 69.044 0.124 7.29 16.77 8.3
9/16/2021 7:00:00 PM 20.51 68.918 0.124 7.27 15.63 8.24
9/16/2021 7:15:00 PM 20.44 68.792 0.125 7.25 16.98 8.17
9/16/2021 7:30:00 PM 20.39 68.702 0.126 7.23 16.19 8.12
9/16/2021 7:45:00 PM 20.34 68.612 0.126 7.23 15.28 8.08
9/16/2021 8:00:00 PM 20.29 68.522 0.126 7.22 13.68 8.06
9/16/2021 8:15:00 PM 20.25 68.45 0.126 7.21 14.01 8.05
9/16/2021 8:30:00 PM 20.21 68.378 0.126 7.2 13.01 8.04
9/16/2021 8:45:00 PM 20.16 68.288 0.126 7.2 11.84 8.04
9/16/2021 9:00:00 PM 20.12 68.216 0.126 7.19 12.18 8.04
9/16/2021 9:15:00 PM 20.07 68.126 0.126 7.19 11.9 8.04
9/16/2021 9:30:00 PM 20.02 68.036 0.127 7.19 10.71 8.04
9/16/2021 9:45:00 PM 19.98 67.964 0.126 7.19 12.8 8.04
9/16/2021 10:00:00 PM 19.94 67.892 0.127 7.18 11.04 8.04
9/16/2021 10:15:00 PM 19.9 67.82 0.127 7.18 11 8.04
9/16/2021 10:30:00 PM 19.86 67.748 0.127 7.18 10.96 8.04
9/16/2021 10:45:00 PM 19.83 67.694 0.127 7.18 10.13 8.05
9/16/2021 11:00:00 PM 19.8 67.64 0.127 7.17 10.72 8.05
9/16/2021 11:15:00 PM 19.77 67.586 0.127 7.17 9.34 8.04
9/16/2021 11:30:00 PM 19.74 67.532 0.128 7.17 10.55 8.04
9/16/2021 11:45:00 PM 19.7 67.46 0.128 7.17 9.34 8.05
9/17/2021 12:00:00 AM 19.67 67.406 0.128 7.17 9.53 8.04
9/17/2021 12:15:00 AM 19.64 67.352 0.128 7.17 9.4 8.04
9/17/2021 12:30:00 AM 19.6 67.28 0.128 7.16 8.89 8.05
9/17/2021 12:45:00 AM 19.55 67.19 0.129 7.16 8.43 8.04
9/17/2021 1:00:00 AM 19.5 67.1 0.129 7.16 8.7 8.04
9/17/2021 1:15:00 AM 19.45 67.01 0.129 7.16 8.49 8.05
9/17/2021 1:30:00 AM 19.41 66.938 0.129 7.16 8.1 8.06
9/17/2021 1:45:00 AM 19.38 66.884 0.129 7.16 7.82 8.06
9/17/2021 2:00:00 AM 19.35 66.83 0.129 7.16 7.55 8.06
9/17/2021 2:15:00 AM 19.34 66.812 0.13 7.16 7.21 8.06
9/17/2021 2:30:00 AM 19.33 66.794 0.13 7.16 6.91 8.07
9/17/2021 2:45:00 AM 19.32 66.776 0.13 7.15 6.86 8.06
9/17/2021 3:00:00 AM 19.31 66.758 0.13 7.16 6.82 8.06
9/17/2021 3:15:00 AM 19.3 66.74 0.13 7.16 6.74 8.06
9/17/2021 3:30:00 AM 19.29 66.722 0.13 7.16 6.83 8.06
9/17/2021 3:45:00 AM 19.28 66.704 0.131 7.15 6.72 8.06
9/17/2021 4:00:00 AM 19.26 66.668 0.131 7.16 6.42 8.05
9/17/2021 4:15:00 AM 19.25 66.65 0.131 7.16 6.26 8.05
9/17/2021 4:30:00 AM 19.24 66.632 0.131 7.16 6.31 8.05
9/17/2021 4:45:00 AM 19.23 66.614 0.132 7.15 6.17 8.05
9/17/2021 5:00:00 AM 19.22 66.596 0.132 7.15 5.71 8.06
9/17/2021 5:15:00 AM 19.2 66.56 0.132 7.15 6.6 8.05
9/17/2021 5:30:00 AM 19.19 66.542 0.132 7.15 6.17 8.06
9/17/2021 5:45:00 AM 19.18 66.524 0.132 7.15 5.62 8.06
9/17/2021 6:00:00 AM 19.16 66.488 0.132 7.15 5.99 8.06
9/17/2021 6:15:00 AM 19.15 66.47 0.132 7.15 5.83 8.06
9/17/2021 6:30:00 AM 19.13 66.434 0.133 7.15 5.83 8.07
9/17/2021 6:45:00 AM 19.12 66.416 0.133 7.15 5.78 8.06
9/17/2021 7:00:00 AM 19.11 66.398 0.133 7.15 5.8 8.06
9/17/2021 7:15:00 AM 19.1 66.38 0.133 7.15 5.41 8.08
9/17/2021 7:30:00 AM 19.1 66.38 0.133 7.16 5.66 8.09
9/17/2021 7:45:00 AM 19.11 66.398 0.134 7.16 5.34 8.14
9/17/2021 8:00:00 AM 19.12 66.416 0.134 7.17 4.97 8.2
9/17/2021 8:15:00 AM 19.13 66.434 0.133 7.18 4.96 8.26
9/17/2021 8:30:00 AM 19.16 66.488 0.134 7.19 4.91 8.36
9/17/2021 8:45:00 AM 19.18 66.524 0.134 7.21 4.75 8.42
9/17/2021 9:00:00 AM 19.21 66.578 0.134 7.22 4.65 8.48
9/17/2021 9:15:00 AM 19.24 66.632 0.134 7.23 4.51 8.55
9/17/2021 9:30:00 AM 19.3 66.74 0.134 7.25 4.35 8.66
9/17/2021 9:45:00 AM 19.36 66.848 0.14 7.27 4.22 8.78
9/17/2021 10:00:00 AM 19.43 66.974 0.138 7.29 4.14 8.87
9/17/2021 10:15:00 AM 19.51 67.118 0.134 7.31 4.59 8.97
9/17/2021 10:30:00 AM 19.63 67.334 0.134 7.34 4.27 9.06
9/17/2021 10:45:00 AM 19.76 67.568 0.134 7.36 4 9.17
9/17/2021 11:00:00 AM 19.95 67.91 0.134 7.39 4.16 9.27
9/17/2021 11:15:00 AM 20.11 68.198 0.134 7.42 4.17 9.3
9/17/2021 11:30:00 AM 20.2 68.36 0.138 7.43 4.16 9.29
9/17/2021 11:45:00 AM 20.24 68.432 0.134 7.43 4.21 9.28
9/17/2021 12:00:00 PM 20.31 68.558 0.139 7.45 3.97 9.32
9/17/2021 12:15:00 PM 20.38 68.684 0.135 7.46 4.03 9.34
9/17/2021 12:30:00 PM 20.43 68.774 0.138 7.47 4.07 9.34
9/17/2021 12:45:00 PM 20.48 68.864 0.135 7.47 3.93 9.31
9/17/2021 1:00:00 PM 20.51 68.918 0.134 7.47 3.97 9.25
9/17/2021 1:15:00 PM 20.54 68.972 0.134 7.47 3.78 9.22
9/17/2021 1:30:00 PM 20.51 68.918 0.135 7.44 3.95 9.09
9/17/2021 1:45:00 PM 20.51 68.918 0.135 7.43 3.95 9.04
9/17/2021 2:00:00 PM 20.51 68.918 0.135 7.42 3.87 9.01
9/17/2021 2:15:00 PM 20.49 68.882 0.141 7.41 3.75 8.95
9/17/2021 2:30:00 PM 20.49 68.882 0.135 7.4 3.99 8.94
9/17/2021 2:45:00 PM 20.5 68.9 0.136 7.4 3.69 8.97
9/17/2021 3:00:00 PM 20.51 68.918 0.135 7.41 3.99 8.98
9/17/2021 3:15:00 PM 20.55 68.99 0.135 7.42 3.84 9.05
9/17/2021 3:30:00 PM 20.6 69.08 0.141 7.44 3.62 9.12
9/17/2021 3:45:00 PM 20.65 69.17 0.138 7.45 3.53 9.17
9/17/2021 4:00:00 PM 20.69 69.242 0.135 7.46 4.2 9.18
9/17/2021 4:15:00 PM 20.76 69.368 0.135 7.47 3.78 9.21
9/17/2021 4:30:00 PM 20.87 69.566 0.136 7.48 3.81 9.24
9/17/2021 4:45:00 PM 20.94 69.692 0.136 7.49 3.69 9.23
9/17/2021 5:00:00 PM 21.01 69.818 0.136 7.49 3.78 9.21
9/17/2021 5:15:00 PM 21.04 69.872 0.136 7.48 3.65 9.16
9/17/2021 5:30:00 PM 21.01 69.818 0.136 7.46 3.83 9.03
9/17/2021 5:45:00 PM 20.96 69.728 0.136 7.44 3.7 8.92
9/17/2021 6:00:00 PM 20.89 69.602 0.137 7.4 3.75 8.77
9/17/2021 6:15:00 PM 20.78 69.404 0.137 7.37 3.6 8.6
9/17/2021 6:30:00 PM 20.67 69.206 0.143 7.33 3.77 8.45
9/17/2021 6:45:00 PM 20.6 69.08 0.143 7.3 3.76 8.35
9/17/2021 7:00:00 PM 20.55 68.99 0.143 7.28 4.02 8.25
9/17/2021 7:15:00 PM 20.48 68.864 0.146 7.26 4.12 8.14
9/17/2021 7:30:00 PM 20.42 68.756 0.144 7.24 3.79 8.04
9/17/2021 7:45:00 PM 20.36 68.648 0.145 7.22 4.04 7.96
9/17/2021 8:00:00 PM 20.32 68.576 0.147 7.2 4.14 7.9
9/17/2021 8:15:00 PM 20.27 68.486 0.146 7.19 4.17 7.86
9/17/2021 8:30:00 PM 20.22 68.396 0.145 7.19 4.58 7.84
9/17/2021 8:45:00 PM 20.17 68.306 0.147 7.18 4.55 7.82
9/17/2021 9:00:00 PM 20.12 68.216 0.145 7.17 4 7.81
9/17/2021 9:15:00 PM 20.09 68.162 0.144 7.17 3.99 7.8
9/17/2021 9:30:00 PM 20.05 68.09 0.143 7.17 3.92 7.79
9/17/2021 9:45:00 PM 20.01 68.018 0.145 7.16 3.98 7.79
9/17/2021 10:00:00 PM 19.95 67.91 0.144 7.16 4.04 7.8
9/17/2021 10:15:00 PM 19.9 67.82 0.144 7.16 4.09 7.8
9/17/2021 10:30:00 PM 19.85 67.73 0.145 7.16 4.19 7.81
9/17/2021 10:45:00 PM 19.8 67.64 0.14 7.15 4.51 7.77
9/17/2021 11:00:00 PM 19.75 67.55 0.14 7.15 4 7.81
9/17/2021 11:15:00 PM 19.7 67.46 0.14 7.15 4.28 7.8
9/17/2021 11:30:00 PM 19.65 67.37 0.141 7.15 4.26 7.82
9/17/2021 11:45:00 PM 19.61 67.298 0.142 7.15 4.58 7.83
9/18/2021 12:00:00 AM 19.57 67.226 0.141 7.15 4.59 7.82
9/18/2021 12:15:00 AM 19.52 67.136 0.141 7.15 4.33 7.8
9/18/2021 12:30:00 AM 19.48 67.064 0.141 7.14 4.09 7.83
9/18/2021 12:45:00 AM 19.45 67.01 0.141 7.14 4.34 7.83
9/18/2021 1:00:00 AM 19.42 66.956 0.143 7.15 4.47 7.84
9/18/2021 1:15:00 AM 19.39 66.902 0.144 7.14 4.35 7.84
9/18/2021 1:30:00 AM 19.36 66.848 0.145 7.14 4.6 7.85
9/18/2021 1:45:00 AM 19.32 66.776 0.143 7.14 4.24 7.85
9/18/2021 2:00:00 AM 19.29 66.722 0.142 7.14 4.82 7.84
9/18/2021 2:15:00 AM 19.27 66.686 0.148 7.14 4.44 7.84
9/18/2021 2:30:00 AM 19.24 66.632 0.147 7.14 4.34 7.86
9/18/2021 2:45:00 AM 19.21 66.578 0.146 7.14 4.47 7.86
9/18/2021 3:00:00 AM 19.18 66.524 0.149 7.14 4.44 7.85
9/18/2021 3:15:00 AM 19.15 66.47 0.148 7.14 4.51 7.86
9/18/2021 3:30:00 AM 19.13 66.434 0.144 7.14 3.99 7.86
9/18/2021 3:45:00 AM 19.12 66.416 0.147 7.14 4.49 7.86
9/18/2021 4:00:00 AM 19.11 66.398 0.146 7.14 4.96 7.86
9/18/2021 4:15:00 AM 19.11 66.398 0.146 7.14 4.29 7.87
9/18/2021 4:30:00 AM 19.1 66.38 0.146 7.14 4.49 7.86
9/18/2021 4:45:00 AM 19.09 66.362 0.148 7.14 4.59 7.86
9/18/2021 5:00:00 AM 19.09 66.362 0.147 7.14 4.58 7.87
9/18/2021 5:15:00 AM 19.08 66.344 0.149 7.14 4.59 7.86
9/18/2021 5:30:00 AM 19.07 66.326 0.15 7.14 4.84 7.86
9/18/2021 5:45:00 AM 19.07 66.326 0.149 7.14 4.68 7.86
9/18/2021 6:00:00 AM 19.06 66.308 0.15 7.14 4.37 7.86
9/18/2021 6:15:00 AM 19.06 66.308 0.149 7.14 4.4 7.86
9/18/2021 6:30:00 AM 19.05 66.29 0.148 7.14 4.53 7.87
9/18/2021 6:45:00 AM 19.04 66.272 0.147 7.14 4.64 7.87
9/18/2021 7:00:00 AM 19.02 66.236 0.148 7.14 4.57 7.89
9/18/2021 7:15:00 AM 19.01 66.218 0.149 7.14 4.4 7.9
9/18/2021 7:30:00 AM 19 66.2 0.15 7.15 4.4 7.97
9/18/2021 7:45:00 AM 19 66.2 0.151 7.16 4.14 8.04
9/18/2021 8:00:00 AM 19.02 66.236 0.15 7.17 4.43 8.12
9/18/2021 8:15:00 AM 19.03 66.254 0.152 7.18 4.61 8.19
9/18/2021 8:30:00 AM 19.06 66.308 0.149 7.2 4.35 8.31
9/18/2021 8:45:00 AM 19.1 66.38 0.151 7.22 4.32 8.47
9/18/2021 9:00:00 AM 19.19 66.542 0.15 7.24 4.26 8.61
9/18/2021 9:15:00 AM 19.28 66.704 0.147 7.27 4.32 8.79
9/18/2021 9:30:00 AM 19.39 66.902 0.146 7.3 3.98 8.94
9/18/2021 9:45:00 AM 19.46 67.028 0.146 7.32 3.97 9.03
9/18/2021 10:00:00 AM 19.53 67.154 0.148 7.34 4.21 9.09
9/18/2021 10:15:00 AM 19.59 67.262 0.149 7.35 3.99 9.14
9/18/2021 10:30:00 AM 19.68 67.424 0.148 7.38 3.81 9.21
9/18/2021 10:45:00 AM 19.82 67.676 0.148 7.4 4.09 9.29
9/18/2021 11:00:00 AM 19.93 67.874 0.148 7.41 4.18 9.32
9/18/2021 11:15:00 AM 20.14 68.252 0.148 7.43 4.29 9.37
9/18/2021 11:30:00 AM 20.36 68.648 0.148 7.45 3.81 9.41
9/18/2021 11:45:00 AM 20.57 69.026 0.148 7.47 4.06 9.41
9/18/2021 12:00:00 PM 20.82 69.476 0.148 7.48 3.99 9.43
9/18/2021 12:15:00 PM 21.01 69.818 0.148 7.5 4.04 9.46
9/18/2021 12:30:00 PM 21.19 70.142 0.148 7.51 4.22 9.45
9/18/2021 12:45:00 PM 21.4 70.52 0.147 7.53 3.89 9.44
9/18/2021 1:00:00 PM 21.6 70.88 0.149 7.54 4.31 9.41
9/18/2021 1:15:00 PM 21.78 71.204 0.148 7.55 4.11 9.4
9/18/2021 1:30:00 PM 22.02 71.636 0.149 7.57 4.25 9.41
9/18/2021 1:45:00 PM 22.04 71.672 0.149 7.55 5.79 9.26
9/18/2021 2:00:00 PM 22.06 71.708 0.148 7.53 4.22 9.14
9/18/2021 2:15:00 PM 22.11 71.798 0.147 7.53 4.12 9.12
9/18/2021 2:30:00 PM 22.1 71.78 0.148 7.52 4.34 9.08
9/18/2021 2:45:00 PM 22.15 71.87 0.147 7.53 4.85 9.11
9/18/2021 3:00:00 PM 22.01 71.618 0.146 7.51 6.21 8.92
9/18/2021 3:15:00 PM 22.03 71.654 0.145 7.5 5.35 8.91
9/18/2021 3:30:00 PM 22.15 71.87 0.143 7.52 5.31 8.99
9/18/2021 3:45:00 PM 22.17 71.906 0.14 7.51 4.94 8.97
9/18/2021 4:00:00 PM 22.14 71.852 0.14 7.5 4.65 8.99
9/18/2021 4:15:00 PM 22.16 71.888 0.141 7.5 4.71 9
9/18/2021 4:30:00 PM 22.17 71.906 0.141 7.5 4.52 8.96
9/18/2021 4:45:00 PM 22.15 71.87 0.142 7.5 4.41 8.94
9/18/2021 5:00:00 PM 22.09 71.762 0.142 7.49 4.45 8.91
9/18/2021 5:15:00 PM 22.01 71.618 0.142 7.48 4.59 8.85
9/18/2021 5:30:00 PM 21.93 71.474 0.142 7.46 4.54 8.81
9/18/2021 5:45:00 PM 21.84 71.312 0.142 7.44 4.5 8.74
9/18/2021 6:00:00 PM 21.74 71.132 0.143 7.42 4.44 8.67
9/18/2021 6:15:00 PM 21.59 70.862 0.144 7.39 4.39 8.55
9/18/2021 6:30:00 PM 21.44 70.592 0.143 7.36 4.02 8.38
9/18/2021 6:45:00 PM 21.29 70.32201 0.143 7.33 4.28 8.26
9/18/2021 7:00:00 PM 21.15 70.07 0.144 7.3 3.86 8.13
9/18/2021 7:15:00 PM 21.04 69.872 0.144 7.28 3.51 8
9/18/2021 7:30:00 PM 20.92 69.656 0.145 7.25 4.54 7.88
9/18/2021 7:45:00 PM 20.81 69.458 0.145 7.23 4.29 7.8
9/18/2021 8:00:00 PM 20.7 69.26 0.145 7.22 4.14 7.74
9/18/2021 8:15:00 PM 20.61 69.098 0.145 7.2 4.14 7.7
9/18/2021 8:30:00 PM 20.53 68.954 0.145 7.2 3.88 7.66
9/18/2021 8:45:00 PM 20.44 68.792 0.145 7.19 4.16 7.66
9/18/2021 9:00:00 PM 20.37 68.666 0.146 7.18 4 7.66
9/18/2021 9:15:00 PM 20.3 68.54 0.146 7.18 3.8 7.65
9/18/2021 9:30:00 PM 20.24 68.432 0.146 7.18 3.96 7.64
9/18/2021 9:45:00 PM 20.17 68.306 0.146 7.18 3.71 7.65
9/18/2021 10:00:00 PM 20.1 68.18 0.146 7.17 4.1 7.65
9/18/2021 10:15:00 PM 20.04 68.07201 0.146 7.17 4.03 7.66
9/18/2021 10:30:00 PM 19.96 67.92799 0.146 7.17 3.97 7.68
9/18/2021 10:45:00 PM 19.89 67.802 0.146 7.17 4.11 7.68
9/18/2021 11:00:00 PM 19.83 67.694 0.147 7.17 3.63 7.69
9/18/2021 11:15:00 PM 19.76 67.568 0.147 7.17 3.55 7.69
9/18/2021 11:30:00 PM 19.68 67.424 0.147 7.16 3.86 7.71
9/18/2021 11:45:00 PM 19.62 67.316 0.147 7.16 4.1 7.71
9/19/2021 12:00:00 AM 19.55 67.19 0.147 7.16 3.9 7.71
9/19/2021 12:15:00 AM 19.49 67.082 0.147 7.16 4.11 7.73
9/19/2021 12:30:00 AM 19.41 66.938 0.147 7.16 3.77 7.75
9/19/2021 12:45:00 AM 19.36 66.848 0.149 7.16 3.64 7.73
9/19/2021 1:00:00 AM 19.33 66.794 0.149 7.16 3.74 7.76
9/19/2021 1:15:00 AM 19.29 66.722 0.149 7.15 3.88 7.77
9/19/2021 1:30:00 AM 19.25 66.65 0.149 7.15 3.56 7.77
9/19/2021 1:45:00 AM 19.21 66.578 0.15 7.15 3.74 7.77
9/19/2021 2:00:00 AM 19.17 66.506 0.15 7.15 3.94 7.77
9/19/2021 2:15:00 AM 19.1 66.38 0.151 7.15 3.78 7.79
9/19/2021 2:30:00 AM 19.03 66.254 0.149 7.15 3.88 7.81
9/19/2021 2:45:00 AM 18.98 66.164 0.148 7.15 4.04 7.81
9/19/2021 3:00:00 AM 18.91 66.038 0.148 7.15 3.55 7.81
9/19/2021 3:15:00 AM 18.86 65.948 0.148 7.15 3.73 7.83
9/19/2021 3:30:00 AM 18.82 65.876 0.152 7.15 3.97 7.84
9/19/2021 3:45:00 AM 18.77 65.786 0.151 7.15 3.74 7.83
9/19/2021 4:00:00 AM 18.72 65.696 0.149 7.15 3.65 7.84
9/19/2021 4:15:00 AM 18.69 65.642 0.148 7.15 3.83 7.86
9/19/2021 4:30:00 AM 18.64 65.552 0.148 7.15 3.82 7.85
9/19/2021 4:45:00 AM 18.62 65.516 0.148 7.15 3.7 7.86
9/19/2021 5:00:00 AM 18.59 65.462 0.148 7.14 3.36 7.86
9/19/2021 5:15:00 AM 18.57 65.426 0.155 7.15 3.24 7.87
9/19/2021 5:30:00 AM 18.55 65.39 0.153 7.14 3.73 7.88
9/19/2021 5:45:00 AM 18.54 65.372 0.149 7.15 3.54 7.87
9/19/2021 6:00:00 AM 18.52 65.336 0.149 7.15 3.41 7.88
9/19/2021 6:15:00 AM 18.51 65.318 0.151 7.15 3.41 7.89
9/19/2021 6:30:00 AM 18.49 65.282 0.151 7.15 4.09 7.89
9/19/2021 6:45:00 AM 18.48 65.264 0.154 7.15 3.33 7.88
9/19/2021 7:00:00 AM 18.45 65.21 0.156 7.15 3.29 7.89
9/19/2021 7:15:00 AM 18.44 65.192 0.149 7.15 3.66 7.92
9/19/2021 7:30:00 AM 18.43 65.174 0.157 7.16 3.43 7.96
9/19/2021 7:45:00 AM 18.42 65.156 0.157 7.16 3.27 8.02
9/19/2021 8:00:00 AM 18.41 65.138 0.156 7.17 3.23 8.1
9/19/2021 8:15:00 AM 18.41 65.138 0.149 7.19 3.13 8.23
9/19/2021 8:30:00 AM 18.44 65.192 0.15 7.21 3.24 8.4
9/19/2021 8:45:00 AM 18.45 65.21 0.149 7.23 3.05 8.53
9/19/2021 9:00:00 AM 18.46 65.228 0.153 7.24 3.09 8.64
9/19/2021 9:15:00 AM 18.47 65.246 0.156 7.26 2.95 8.77
9/19/2021 9:30:00 AM 18.48 65.264 0.156 7.28 3.33 8.86
9/19/2021 9:45:00 AM 18.55 65.39 0.155 7.29 2.95 8.94
9/19/2021 10:00:00 AM 18.72 65.696 0.153 7.31 3.05 9.05
9/19/2021 10:15:00 AM 18.85 65.93 0.151 7.33 3.22 9.1
9/19/2021 10:30:00 AM 19.01 66.218 0.154 7.34 2.65 9.17
9/19/2021 10:45:00 AM 19.17 66.506 0.153 7.36 2.7 9.23
9/19/2021 11:00:00 AM 19.32 66.776 0.154 7.38 2.97 9.27
9/19/2021 11:15:00 AM 19.49 67.082 0.154 7.39 3.02 9.31
9/19/2021 11:30:00 AM 19.66 67.388 0.154 7.4 2.97 9.33
9/19/2021 11:45:00 AM 19.84 67.712 0.154 7.42 2.71 9.36
9/19/2021 12:00:00 PM 20.02 68.036 0.154 7.42 3.02 9.37
9/19/2021 12:15:00 PM 20.19 68.342 0.154 7.43 2.96 9.39
9/19/2021 12:30:00 PM 20.35 68.63 0.154 7.44 7.43 9.37
9/19/2021 12:45:00 PM 20.51 68.918 0.154 7.44 3.7 9.37
9/19/2021 1:00:00 PM 20.66 69.188 0.155 7.45 2.93 9.34
9/19/2021 1:15:00 PM 20.79 69.422 0.154 7.46 2.64 9.33
9/19/2021 1:30:00 PM 20.93 69.674 0.155 7.46 2.55 9.31
9/19/2021 1:45:00 PM 21.07 69.926 0.155 7.46 2.54 9.28
9/19/2021 2:00:00 PM 21.19 70.142 0.154 7.46 3.02 9.25
9/19/2021 2:15:00 PM 21.32 70.376 0.153 7.47 2.44 9.23
9/19/2021 2:30:00 PM 21.45 70.61 0.153 7.47 2.68 9.22
9/19/2021 2:45:00 PM 21.58 70.844 0.151 7.47 2.89 9.17
9/19/2021 3:00:00 PM 21.67 71.006 0.15 7.47 2.74 9.13
9/19/2021 3:15:00 PM 21.73 71.114 0.15 7.47 2.38 9.1
9/19/2021 3:30:00 PM 21.77 71.186 0.15 7.47 2.6 9.07
9/19/2021 3:45:00 PM 21.83 71.294 0.15 7.46 2.84 9.02
9/19/2021 4:00:00 PM 21.84 71.312 0.15 7.46 2.34 8.99
9/19/2021 4:15:00 PM 21.85 71.33 0.15 7.45 2.71 8.93
9/19/2021 4:30:00 PM 21.83 71.294 0.15 7.44 2.57 8.89
9/19/2021 4:45:00 PM 21.77 71.186 0.15 7.44 2.6 8.85
9/19/2021 5:00:00 PM 21.65 70.97 0.15 7.42 2.71 8.76
9/19/2021 5:15:00 PM 21.52 70.736 0.15 7.4 2.63 8.7
9/19/2021 5:30:00 PM 21.36 70.448 0.151 7.38 2.57 8.61
9/19/2021 5:45:00 PM 21.18 70.124 0.151 7.36 10.73 8.5
9/19/2021 6:00:00 PM 21.02 69.836 0.151 7.34 2.73 8.45
9/19/2021 6:15:00 PM 20.83 69.494 0.151 7.31 2.54 8.34
9/19/2021 6:30:00 PM 20.67 69.206 0.151 7.29 5.23 8.23
9/19/2021 6:45:00 PM 20.49 68.882 0.151 7.27 3.61 8.13
9/19/2021 7:00:00 PM 20.27 68.486 0.153 7.25 6.25 8.03
9/19/2021 7:15:00 PM 20.16 68.288 0.152 7.23 6.76 7.95
9/19/2021 7:30:00 PM 20 68 0.153 7.22 5.08 7.87
9/19/2021 7:45:00 PM 19.87 67.766 0.155 7.2 7.52 7.82
9/19/2021 8:00:00 PM 19.74 67.532 0.155 7.19 5.89 7.78
9/19/2021 8:15:00 PM 19.62 67.316 0.153 7.18 4.28 7.75
9/19/2021 8:30:00 PM 19.51 67.118 0.155 7.17 4.23 7.73
9/19/2021 8:45:00 PM 19.4 66.92 0.153 7.17 3.67 7.73
9/19/2021 9:00:00 PM 19.3 66.74 0.156 7.16 3.37 7.72
9/19/2021 9:15:00 PM 19.22 66.596 0.154 7.16 3.2 7.71
9/19/2021 9:30:00 PM 19.12 66.416 0.157 7.16 2.85 7.74
9/19/2021 9:45:00 PM 19.03 66.254 0.156 7.16 3.18 7.75
9/19/2021 10:00:00 PM 18.94 66.092 0.154 7.15 3.03 7.76
9/19/2021 10:15:00 PM 18.87 65.966 0.153 7.15 2.76 7.76
9/19/2021 10:30:00 PM 18.79 65.82201 0.154 7.15 2.64 7.77
9/19/2021 10:45:00 PM 18.72 65.696 0.153 7.15 2.72 7.78
9/19/2021 11:00:00 PM 18.66 65.588 0.155 7.15 2.6 7.79
9/19/2021 11:15:00 PM 18.58 65.444 0.155 7.15 2.42 7.79
9/19/2021 11:30:00 PM 18.51 65.318 0.156 7.15 2.57 7.8
9/19/2021 11:45:00 PM 18.44 65.192 0.159 7.15 2.55 7.81
9/20/2021 12:00:00 AM 18.36 65.048 0.16 7.14 2.31 7.83
9/20/2021 12:15:00 AM 18.31 64.958 0.159 7.14 2.43 7.84
9/20/2021 12:30:00 AM 18.25 64.85 0.158 7.14 2.12 7.85
9/20/2021 12:45:00 AM 18.19 64.742 0.156 7.14 2.09 7.86
9/20/2021 1:00:00 AM 18.12 64.616 0.157 7.14 2.24 7.87
9/20/2021 1:15:00 AM 18.07 64.526 0.155 7.13 2.11 7.88
9/20/2021 1:30:00 AM 18.02 64.436 0.155 7.13 2.14 7.89
9/20/2021 1:45:00 AM 17.96 64.328 0.155 7.13 1.85 7.91
9/20/2021 2:00:00 AM 17.91 64.238 0.156 7.13 1.84 7.9
9/20/2021 2:15:00 AM 17.86 64.148 0.16 7.13 2.14 7.93
9/20/2021 2:30:00 AM 17.81 64.058 0.161 7.13 1.98 7.93
9/20/2021 2:45:00 AM 17.77 63.986 0.16 7.13 2.22 7.94
9/20/2021 3:00:00 AM 17.73 63.914 0.159 7.13 2.38 7.94
9/20/2021 3:15:00 AM 17.7 63.86 0.161 7.13 1.76 7.94
9/20/2021 3:30:00 AM 17.66 63.788 0.161 7.13 2.02 7.96
9/20/2021 3:45:00 AM 17.65 63.77 0.161 7.12 2.05 7.94
9/20/2021 4:00:00 AM 17.64 63.752 0.162 7.12 1.68 7.95
9/20/2021 4:15:00 AM 17.62 63.716 0.16 7.12 2.03 7.95
9/20/2021 4:30:00 AM 17.61 63.698 0.161 7.13 1.77 7.95
9/20/2021 4:45:00 AM 17.58 63.644 0.158 7.12 2.28 7.95
9/20/2021 5:00:00 AM 17.58 63.644 0.161 7.13 1.92 7.97
9/20/2021 5:15:00 AM 17.57 63.626 0.16 7.13 2.16 7.96
9/20/2021 5:30:00 AM 17.56 63.608 0.161 7.13 2.15 7.95
9/20/2021 5:45:00 AM 17.55 63.59 0.163 7.13 1.97 7.95
9/20/2021 6:00:00 AM 17.54 63.572 0.162 7.13 2.06 7.96
9/20/2021 6:15:00 AM 17.52 63.536 0.162 7.13 1.89 7.96
9/20/2021 6:30:00 AM 17.52 63.536 0.162 7.13 1.92 7.95
9/20/2021 6:45:00 AM 17.49 63.482 0.163 7.13 1.98 7.97
9/20/2021 7:00:00 AM 17.47 63.446 0.163 7.13 2.03 7.97
9/20/2021 7:15:00 AM 17.47 63.446 0.164 7.13 2 7.99
9/20/2021 7:30:00 AM 17.46 63.428 0.164 7.14 1.93 8.03
9/20/2021 7:45:00 AM 17.45 63.41 0.162 7.14 1.98 8.08
9/20/2021 8:00:00 AM 17.44 63.392 0.165 7.15 1.75 8.17
9/20/2021 8:15:00 AM 17.43 63.374 0.164 7.16 1.72 8.25
9/20/2021 8:30:00 AM 17.45 63.41 0.164 7.17 1.67 8.37
9/20/2021 8:45:00 AM 17.48 63.464 0.164 7.19 1.72 8.53
9/20/2021 9:00:00 AM 17.51 63.518 0.162 7.21 1.67 8.65
9/20/2021 9:15:00 AM 17.53 63.554 0.163 7.23 1.59 8.8
9/20/2021 9:30:00 AM 17.61 63.698 0.164 7.25 1.57 9.01
9/20/2021 9:45:00 AM 17.65 63.77 0.164 7.27 1.61 9.1
9/20/2021 10:00:00 AM 17.72 63.896 0.163 7.28 1.61 9.16
9/20/2021 10:15:00 AM 17.85 64.13 0.163 7.29 1.71 9.2
9/20/2021 10:30:00 AM 17.99 64.382 0.163 7.3 1.69 9.25
9/20/2021 10:45:00 AM 18.19 64.742 0.163 7.31 1.71 9.33
9/20/2021 11:00:00 AM 18.43 65.174 0.163 7.33 1.7 9.37
9/20/2021 11:15:00 AM 18.68 65.624 0.163 7.35 1.56 9.42
9/20/2021 11:30:00 AM 18.95 66.11 0.164 7.36 1.62 9.48
9/20/2021 11:45:00 AM 19.19 66.542 0.163 7.38 1.6 9.53
9/20/2021 12:00:00 PM 19.38 66.884 0.163 7.4 1.53 9.55
9/20/2021 12:15:00 PM 19.6 67.28 0.163 7.41 1.48 9.57
9/20/2021 12:30:00 PM 19.81 67.658 0.163 7.41 1.51 9.57
9/20/2021 12:45:00 PM 20.02 68.036 0.163 7.41 1.52 9.52
9/20/2021 1:00:00 PM 20.18 68.324 0.164 7.42 1.57 9.47
9/20/2021 1:15:00 PM 20.33 68.594 0.164 7.42 1.65 9.45
9/20/2021 1:30:00 PM 20.47 68.846 0.164 7.42 1.59 9.42
9/20/2021 1:45:00 PM 20.65 69.17 0.164 7.42 1.56 9.39
9/20/2021 2:00:00 PM 20.76 69.368 0.163 7.43 1.42 9.35
9/20/2021 2:15:00 PM 20.96 69.728 0.163 7.43 1.5 9.33
9/20/2021 2:30:00 PM 21.07 69.926 0.164 7.43 1.42 9.29
9/20/2021 2:45:00 PM 21.2 70.16 0.163 7.43 1.51 9.27
9/20/2021 3:00:00 PM 21.27 70.286 0.162 7.43 1.65 9.23
9/20/2021 3:15:00 PM 21.35 70.43 0.161 7.43 1.67 9.2
9/20/2021 3:30:00 PM 21.42 70.556 0.16 7.42 1.43 9.17
9/20/2021 3:45:00 PM 21.48 70.664 0.16 7.42 1.43 9.15
9/20/2021 4:00:00 PM 21.49 70.682 0.158 7.42 1.33 9.1
9/20/2021 4:15:00 PM 21.48 70.664 0.158 7.41 1.44 9.05
9/20/2021 4:30:00 PM 21.48 70.664 0.158 7.41 1.71 9.03
9/20/2021 4:45:00 PM 21.4 70.52 0.158 7.4 1.51 8.97
9/20/2021 5:00:00 PM 21.32 70.376 0.158 7.39 1.38 8.91
9/20/2021 5:15:00 PM 21.23 70.214 0.158 7.37 1.06 8.8
9/20/2021 5:30:00 PM 21.11 69.998 0.157 7.36 1.28 8.72
9/20/2021 5:45:00 PM 20.92 69.656 0.158 7.33 1.24 8.6
9/20/2021 6:00:00 PM 20.8 69.44 0.158 7.31 1.39 8.51
9/20/2021 6:15:00 PM 20.64 69.152 0.159 7.3 1.28 8.42
9/20/2021 6:30:00 PM 20.53 68.954 0.158 7.28 1.43 8.34
9/20/2021 6:45:00 PM 20.4 68.72 0.16 7.26 1.26 8.23
9/20/2021 7:00:00 PM 20.21 68.378 0.161 7.24 1.54 8.14
9/20/2021 7:15:00 PM 20.13 68.234 0.16 7.23 1.66 8.02
9/20/2021 7:30:00 PM 19.98 67.964 0.159 7.21 1.64 7.93
9/20/2021 7:45:00 PM 19.84 67.712 0.16 7.19 1.43 7.84
9/20/2021 8:00:00 PM 19.71 67.478 0.165 7.18 1.35 7.78
9/20/2021 8:15:00 PM 19.6 67.28 0.165 7.17 1.56 7.73
9/20/2021 8:30:00 PM 19.49 67.082 0.165 7.16 1.3 7.7
9/20/2021 8:45:00 PM 19.37 66.866 0.165 7.15 1.37 7.68
9/20/2021 9:00:00 PM 19.29 66.722 0.165 7.15 1.44 7.65
9/20/2021 9:15:00 PM 19.21 66.578 0.163 7.14 1.36 7.65
9/20/2021 9:30:00 PM 19.12 66.416 0.165 7.14 1.28 7.64
9/20/2021 9:45:00 PM 19.04 66.272 0.166 7.14 1.56 7.64
9/20/2021 10:00:00 PM 18.98 66.164 0.166 7.14 1.31 7.65
9/20/2021 10:15:00 PM 18.91 66.038 0.167 7.13 1.41 7.65
9/20/2021 10:30:00 PM 18.83 65.894 0.167 7.13 1.25 7.66
9/20/2021 10:45:00 PM 18.76 65.768 0.167 7.13 1.38 7.68
9/20/2021 11:00:00 PM 18.71 65.67799 0.167 7.13 1.45 7.68
9/20/2021 11:15:00 PM 18.64 65.552 0.166 7.13 1.29 7.68
9/20/2021 11:30:00 PM 18.58 65.444 0.168 7.13 1.49 7.69
9/20/2021 11:45:00 PM 18.53 65.354 0.167 7.12 1.25 7.69
9/21/2021 12:00:00 AM 18.5 65.3 0.168 7.13 1.35 7.69
9/21/2021 12:15:00 AM 18.46 65.228 0.168 7.13 1.23 7.7
9/21/2021 12:30:00 AM 18.42 65.156 0.166 7.12 1.16 7.69
9/21/2021 12:45:00 AM 18.39 65.102 0.164 7.12 1.21 7.71
9/21/2021 1:00:00 AM 18.36 65.048 0.164 7.13 1.31 7.71
9/21/2021 1:15:00 AM 18.33 64.994 0.165 7.12 1.19 7.71
9/21/2021 1:30:00 AM 18.3 64.94 0.169 7.12 1.43 7.72
9/21/2021 1:45:00 AM 18.27 64.886 0.169 7.12 1.37 7.71
9/21/2021 2:00:00 AM 18.24 64.832 0.169 7.12 1.18 7.72
9/21/2021 2:15:00 AM 18.21 64.778 0.17 7.12 1.59 7.73
9/21/2021 2:30:00 AM 18.18 64.724 0.168 7.12 1.37 7.71
9/21/2021 2:45:00 AM 18.15 64.67 0.17 7.12 1.58 7.72
9/21/2021 3:00:00 AM 18.12 64.616 0.17 7.12 1.19 7.73
9/21/2021 3:15:00 AM 18.09 64.562 0.17 7.12 1.62 7.72
9/21/2021 3:30:00 AM 18.07 64.526 0.168 7.12 1.33 7.72
9/21/2021 3:45:00 AM 18.05 64.49 0.168 7.12 1.11 7.72
9/21/2021 4:00:00 AM 18.02 64.436 0.169 7.12 1.19 7.73
9/21/2021 4:15:00 AM 18 64.4 0.17 7.12 1.24 7.72
9/21/2021 4:30:00 AM 17.98 64.364 0.17 7.12 1.42 7.73
9/21/2021 4:45:00 AM 17.96 64.328 0.171 7.12 1.29 7.72
9/21/2021 5:00:00 AM 17.93 64.274 0.172 7.11 1.64 7.73
9/21/2021 5:15:00 AM 17.91 64.238 0.171 7.11 1.18 7.74
9/21/2021 5:30:00 AM 17.88 64.184 0.172 7.11 1.32 7.73
9/21/2021 5:45:00 AM 17.85 64.13 0.172 7.11 1.26 7.74
9/21/2021 6:00:00 AM 17.83 64.094 0.169 7.11 1.29 7.73
9/21/2021 6:15:00 AM 17.79 64.022 0.169 7.11 1.31 7.74
9/21/2021 6:30:00 AM 17.74 63.932 0.167 7.11 1.32 7.75
9/21/2021 6:45:00 AM 17.72 63.896 0.168 7.11 1.28 7.75
9/21/2021 7:00:00 AM 17.68 63.824 0.168 7.11 1.28 7.76
9/21/2021 7:15:00 AM 17.65 63.77 0.171 7.11 1.17 7.79
9/21/2021 7:30:00 AM 17.63 63.734 0.173 7.12 1.22 7.84
9/21/2021 7:45:00 AM 17.61 63.698 0.172 7.12 1.15 7.92
9/21/2021 8:00:00 AM 17.6 63.68 0.173 7.13 1.13 8
9/21/2021 8:15:00 AM 17.61 63.698 0.173 7.14 1.08 8.1
9/21/2021 8:30:00 AM 17.64 63.752 0.173 7.15 1.09 8.22
9/21/2021 8:45:00 AM 17.69 63.842 0.172 7.17 1.13 8.33
9/21/2021 9:00:00 AM 17.76 63.968 0.173 7.18 1.06 8.45
9/21/2021 9:15:00 AM 17.84 64.112 0.173 7.2 1.02 8.61
9/21/2021 9:30:00 AM 17.94 64.292 0.173 7.22 0.99 8.78
9/21/2021 9:45:00 AM 18.11 64.598 0.172 7.25 1.08 8.99
9/21/2021 10:00:00 AM 18.22 64.796 0.173 7.27 0.98 9.1
9/21/2021 10:15:00 AM 18.34 65.012 0.172 7.28 0.93 9.23
9/21/2021 10:30:00 AM 18.48 65.264 0.171 7.3 1.08 9.3
9/21/2021 10:45:00 AM 18.66 65.588 0.172 7.31 1.02 9.37
9/21/2021 11:00:00 AM 18.84 65.912 0.171 7.33 0.93 9.44
9/21/2021 11:15:00 AM 19.05 66.29 0.171 7.35 0.92 9.51
9/21/2021 11:30:00 AM 19.21 66.578 0.17 7.36 0.97 9.56
9/21/2021 11:45:00 AM 19.37 66.866 0.172 7.37 1.06 9.58
9/21/2021 12:00:00 PM 19.58 67.244 0.172 7.39 1.02 9.64
9/21/2021 12:15:00 PM 19.77 67.586 0.173 7.41 1.08 9.66
9/21/2021 12:30:00 PM 19.89 67.802 0.173 7.41 0.95 9.62
9/21/2021 12:45:00 PM 19.96 67.92799 0.173 7.41 1.03 9.58
9/21/2021 1:00:00 PM 20.04 68.07201 0.172 7.42 0.97 9.65
9/21/2021 1:15:00 PM 20.14 68.252 0.173 7.42 1.01 9.62
9/21/2021 1:30:00 PM 20.23 68.414 0.173 7.43 1.2 9.66
9/21/2021 1:45:00 PM 20.29 68.522 0.172 7.43 0.99 9.64
9/21/2021 2:00:00 PM 20.33 68.594 0.173 7.43 1.02 9.59
9/21/2021 2:15:00 PM 20.38 68.684 0.172 7.43 1.04 9.58
9/21/2021 2:30:00 PM 20.38 68.684 0.172 7.43 0.96 9.53
9/21/2021 2:45:00 PM 20.34 68.612 0.172 7.4 0.95 9.36
9/21/2021 3:00:00 PM 20.3 68.54 0.172 7.39 0.99 9.29
9/21/2021 3:15:00 PM 20.29 68.522 0.172 7.4 1.51 9.35
9/21/2021 3:30:00 PM 20.29 68.522 0.173 7.4 1.47 9.41
9/21/2021 3:45:00 PM 20.29 68.522 0.172 7.4 0.85 9.42
9/21/2021 4:00:00 PM 20.25 68.45 0.172 7.4 0.98 9.35
9/21/2021 4:15:00 PM 20.21 68.378 0.172 7.39 0.99 9.28
9/21/2021 4:30:00 PM 20.18 68.324 0.172 7.38 0.92 9.25
9/21/2021 4:45:00 PM 20.14 68.252 0.172 7.37 0.93 9.19
9/21/2021 5:00:00 PM 20.11 68.198 0.172 7.36 0.98 9.11
9/21/2021 5:15:00 PM 20.05 68.09 0.172 7.33 0.96 8.99
9/21/2021 5:30:00 PM 20.01 68.018 0.172 7.32 0.99 8.94
9/21/2021 5:45:00 PM 19.97 67.946 0.172 7.31 1.04 8.84
9/21/2021 6:00:00 PM 19.92 67.856 0.172 7.29 0.99 8.71
9/21/2021 6:15:00 PM 19.86 67.748 0.173 7.26 0.97 8.5
9/21/2021 6:30:00 PM 19.8 67.64 0.173 7.24 1.39 8.35
9/21/2021 6:45:00 PM 19.72 67.496 0.173 7.21 0.89 8.18
9/21/2021 7:00:00 PM 19.66 67.388 0.174 7.2 1.02 8.05
9/21/2021 7:15:00 PM 19.6 67.28 0.174 7.18 0.96 7.91
9/21/2021 7:30:00 PM 19.56 67.208 0.174 7.17 0.85 7.8
9/21/2021 7:45:00 PM 19.48 67.064 0.174 7.15 0.98 7.69
9/21/2021 8:00:00 PM 19.41 66.938 0.175 7.14 0.97 7.63
9/21/2021 8:15:00 PM 19.36 66.848 0.175 7.13 1 7.59
9/21/2021 8:30:00 PM 19.31 66.758 0.175 7.13 1.02 7.55
9/21/2021 8:45:00 PM 19.26 66.668 0.175 7.12 1.09 7.5
9/21/2021 9:00:00 PM 19.2 66.56 0.175 7.12 0.98 7.51
9/21/2021 9:15:00 PM 19.16 66.488 0.175 7.11 0.81 7.47
9/21/2021 9:30:00 PM 19.1 66.38 0.176 7.11 0.98 7.48
9/21/2021 9:45:00 PM 19.04 66.272 0.176 7.11 0.92 7.49
9/21/2021 10:00:00 PM 18.99 66.182 0.176 7.1 0.89 7.46
9/21/2021 10:15:00 PM 18.95 66.11 0.176 7.1 0.96 7.46
9/21/2021 10:30:00 PM 18.9 66.02 0.176 7.1 1.05 7.44
9/21/2021 10:45:00 PM 18.88 65.984 0.175 7.1 0.9 7.43
9/21/2021 11:00:00 PM 18.83 65.894 0.176 7.1 0.94 7.46
9/21/2021 11:15:00 PM 18.76 65.768 0.176 7.1 1 7.47
9/21/2021 11:30:00 PM 18.73 65.714 0.176 7.1 0.86 7.46
9/21/2021 11:45:00 PM 18.69 65.642 0.176 7.1 0.97 7.47
9/22/2021 12:00:00 AM 18.68 65.624 0.176 7.1 0.98 7.46
9/22/2021 12:15:00 AM 18.67 65.606 0.177 7.09 1.02 7.44
9/22/2021 12:30:00 AM 18.66 65.588 0.177 7.09 0.82 7.45
9/22/2021 12:45:00 AM 18.65 65.57 0.177 7.09 0.72 7.45
9/22/2021 1:00:00 AM 18.65 65.57 0.177 7.09 0.85 7.44
9/22/2021 1:15:00 AM 18.65 65.57 0.177 7.09 1.07 7.45
9/22/2021 1:30:00 AM 18.65 65.57 0.177 7.09 0.9 7.44
9/22/2021 1:45:00 AM 18.65 65.57 0.177 7.09 0.81 7.44
9/22/2021 2:00:00 AM 18.64 65.552 0.177 7.09 0.84 7.43
9/22/2021 2:15:00 AM 18.64 65.552 0.177 7.09 1.08 7.43
9/22/2021 2:30:00 AM 18.64 65.552 0.177 7.09 0.94 7.4
9/22/2021 2:45:00 AM 18.64 65.552 0.178 7.09 0.87 7.4
9/22/2021 3:00:00 AM 18.63 65.534 0.178 7.09 0.99 7.41
9/22/2021 3:15:00 AM 18.63 65.534 0.178 7.09 0.82 7.41
9/22/2021 3:30:00 AM 18.63 65.534 0.178 7.09 0.9 7.41
9/22/2021 3:45:00 AM 18.62 65.516 0.178 7.09 1.01 7.39
9/22/2021 4:00:00 AM 18.62 65.516 0.178 7.09 0.94 7.39
9/22/2021 4:15:00 AM 18.61 65.498 0.178 7.09 0.82 7.4
9/22/2021 4:30:00 AM 18.61 65.498 0.178 7.09 0.83 7.38
9/22/2021 4:45:00 AM 18.61 65.498 0.178 7.09 0.83 7.38
9/22/2021 5:00:00 AM 18.61 65.498 0.178 7.08 0.86 7.36
9/22/2021 5:15:00 AM 18.6 65.48 0.178 7.08 0.81 7.36
9/22/2021 5:30:00 AM 18.6 65.48 0.178 7.08 0.99 7.34
9/22/2021 5:45:00 AM 18.6 65.48 0.178 7.08 0.85 7.34
9/22/2021 6:00:00 AM 18.6 65.48 0.178 7.08 0.79 7.34
9/22/2021 6:15:00 AM 18.6 65.48 0.179 7.08 0.86 7.35
9/22/2021 6:30:00 AM 18.59 65.462 0.179 7.08 0.91 7.34
9/22/2021 6:45:00 AM 18.58 65.444 0.179 7.08 0.86 7.35
9/22/2021 7:00:00 AM 18.58 65.444 0.179 7.08 0.88 7.34
9/22/2021 7:15:00 AM 18.58 65.444 0.179 7.08 0.93 7.34
9/22/2021 7:30:00 AM 18.58 65.444 0.179 7.08 0.86 7.35
9/22/2021 7:45:00 AM 18.59 65.462 0.179 7.09 0.78 7.42
9/22/2021 8:00:00 AM 18.61 65.498 0.179 7.1 0.85 7.54
9/22/2021 8:15:00 AM 18.64 65.552 0.179 7.11 0.83 7.74
9/22/2021 8:30:00 AM 18.68 65.624 0.179 7.13 0.73 7.91
9/22/2021 8:45:00 AM 18.73 65.714 0.179 7.15 0.97 8.06
9/22/2021 9:00:00 AM 18.8 65.84 0.179 7.16 0.77 8.23
9/22/2021 9:15:00 AM 18.84 65.912 0.179 7.17 0.98 8.34
9/22/2021 9:30:00 AM 18.89 66.002 0.179 7.19 0.87 8.44
9/22/2021 9:45:00 AM 18.95 66.11 0.179 7.2 0.68 8.52
9/22/2021 10:00:00 AM 18.99 66.182 0.179 7.21 0.79 8.57
9/22/2021 10:15:00 AM 19.04 66.272 0.178 7.22 0.7 8.63
9/22/2021 10:30:00 AM 19.09 66.362 0.178 7.22 0.75 8.67
9/22/2021 10:45:00 AM 19.15 66.47 0.178 7.24 0.65 8.78
9/22/2021 11:00:00 AM 19.21 66.578 0.178 7.25 0.7 8.88
9/22/2021 11:15:00 AM 19.28 66.704 0.178 7.26 0.57 8.97
9/22/2021 11:30:00 AM 19.34 66.812 0.178 7.27 0.59 8.96
9/22/2021 11:45:00 AM 19.41 66.938 0.177 7.28 0.63 9.04
9/22/2021 12:00:00 PM 19.51 67.118 0.177 7.3 0.57 9.2
9/22/2021 12:15:00 PM 19.6 67.28 0.177 7.32 0.53 9.33
9/22/2021 12:30:00 PM 19.7 67.46 0.177 7.34 0.6 9.38
9/22/2021 12:45:00 PM 19.76 67.568 0.177 7.34 0.64 9.39
9/22/2021 1:00:00 PM 19.82 67.676 0.177 7.35 0.67 9.4
9/22/2021 1:15:00 PM 19.89 67.802 0.177 7.36 0.54 9.42
9/22/2021 1:30:00 PM 19.96 67.92799 0.177 7.36 0.68 9.45
9/22/2021 1:45:00 PM 20.03 68.054 0.177 7.37 0.79 9.48
9/22/2021 2:00:00 PM 20.08 68.144 0.176 7.38 1.27 9.51
9/22/2021 2:15:00 PM 20.13 68.234 0.176 7.38 0.54 9.45
9/22/2021 2:30:00 PM 20.19 68.342 0.176 7.39 0.55 9.52
9/22/2021 2:45:00 PM 20.25 68.45 0.177 7.4 0.58 9.49
9/22/2021 3:00:00 PM 20.26 68.468 0.176 7.39 0.6 9.42
9/22/2021 3:15:00 PM 20.25 68.45 0.177 7.37 0.63 9.3
9/22/2021 3:30:00 PM 20.26 68.468 0.177 7.36 0.61 9.25
9/22/2021 3:45:00 PM 20.26 68.468 0.177 7.35 0.57 9.16
9/22/2021 4:00:00 PM 20.25 68.45 0.177 7.33 0.57 9.05
9/22/2021 4:15:00 PM 20.23 68.414 0.177 7.31 0.69 8.9
9/22/2021 4:30:00 PM 20.21 68.378 0.177 7.31 2.54 8.9
9/22/2021 4:45:00 PM 20.2 68.36 0.178 7.31 0.75 8.86
9/22/2021 5:00:00 PM 20.16 68.288 0.178 7.29 2.12 8.75
9/22/2021 5:15:00 PM 20.13 68.234 0.179 7.28 18 8.57
9/22/2021 5:30:00 PM 20.1 68.18 0.176 7.26 0.84 8.52
9/22/2021 5:45:00 PM 20.05 68.09 0.177 7.24 0.94 8.33
9/22/2021 6:00:00 PM 20.01 68.018 0.178 7.23 0.65 8.24
9/22/2021 6:15:00 PM 19.95 67.91 0.176 7.21 0.77 8.12
9/22/2021 6:30:00 PM 19.93 67.874 0.176 7.2 0.74 8.03
9/22/2021 6:45:00 PM 19.88 67.784 0.178 7.18 0.72 7.92
9/22/2021 7:00:00 PM 19.81 67.658 0.179 7.17 0.82 7.76
9/22/2021 7:15:00 PM 19.78 67.604 0.179 7.16 0.79 7.68
9/22/2021 7:30:00 PM 19.73 67.514 0.18 7.15 0.84 7.59
9/22/2021 7:45:00 PM 19.69 67.442 0.18 7.14 0.76 7.49
9/22/2021 8:00:00 PM 19.64 67.352 0.177 7.13 0.69 7.43
9/22/2021 8:15:00 PM 19.61 67.298 0.18 7.12 0.68 7.37
9/22/2021 8:30:00 PM 19.57 67.226 0.181 7.12 0.81 7.31
9/22/2021 8:45:00 PM 19.52 67.136 0.181 7.11 0.77 7.3
9/22/2021 9:00:00 PM 19.5 67.1 0.181 7.11 0.73 7.29
9/22/2021 9:15:00 PM 19.47 67.046 0.182 7.11 0.77 7.28
9/22/2021 9:30:00 PM 19.45 67.01 0.181 7.11 0.66 7.25
9/22/2021 9:45:00 PM 19.41 66.938 0.182 7.1 0.83 7.26
9/22/2021 10:00:00 PM 19.39 66.902 0.181 7.1 0.81 7.21
9/22/2021 10:15:00 PM 19.37 66.866 0.182 7.1 0.8 7.24
9/22/2021 10:30:00 PM 19.36 66.848 0.18 7.1 0.82 7.18
9/22/2021 10:45:00 PM 19.35 66.83 0.18 7.1 0.81 7.21
9/22/2021 11:00:00 PM 19.34 66.812 0.18 7.1 0.7 7.23
9/22/2021 11:15:00 PM 19.32 66.776 0.18 7.1 0.79 7.19
9/22/2021 11:30:00 PM 19.31 66.758 0.181 7.1 0.85 7.22
9/22/2021 11:45:00 PM 19.29 66.722 0.182 7.1 0.76 7.23
9/23/2021 12:00:00 AM 19.28 66.704 0.18 7.1 0.93 7.16
9/23/2021 12:15:00 AM 19.27 66.686 0.181 7.1 0.89 7.18
9/23/2021 12:30:00 AM 19.26 66.668 0.18 7.1 0.76 7.19
9/23/2021 12:45:00 AM 19.24 66.632 0.179 7.1 0.76 7.23
9/23/2021 1:00:00 AM 19.23 66.614 0.181 7.1 0.73 7.21
9/23/2021 1:15:00 AM 19.21 66.578 0.18 7.1 0.86 7.19
9/23/2021 1:30:00 AM 19.2 66.56 0.178 7.1 0.73 7.19
9/23/2021 1:45:00 AM 19.18 66.524 0.18 7.1 0.72 7.21
9/23/2021 2:00:00 AM 19.17 66.506 0.176 7.1 0.75 7.18
9/23/2021 2:15:00 AM 19.16 66.488 0.173 7.09 0.75 7.19
9/23/2021 2:30:00 AM 19.14 66.452 0.174 7.09 0.7 7.19
9/23/2021 2:45:00 AM 19.14 66.452 0.177 7.09 0.79 7.16
9/23/2021 3:00:00 AM 19.13 66.434 0.175 7.09 0.68 7.17
9/23/2021 3:15:00 AM 19.12 66.416 0.177 7.09 0.72 7.16
9/23/2021 3:30:00 AM 19.11 66.398 0.172 7.09 0.71 7.16
9/23/2021 3:45:00 AM 19.11 66.398 0.172 7.09 0.65 7.14
9/23/2021 4:00:00 AM 19.11 66.398 0.174 7.09 0.8 7.16
9/23/2021 4:15:00 AM 19.11 66.398 0.173 7.09 0.85 7.14
9/23/2021 4:30:00 AM 19.12 66.416 0.175 7.08 0.81 7.13
9/23/2021 4:45:00 AM 19.12 66.416 0.178 7.09 0.85 7.13
9/23/2021 5:00:00 AM 19.12 66.416 0.175 7.08 1.32 7.13
9/23/2021 5:15:00 AM 19.12 66.416 0.176 7.08 0.81 7.11
9/23/2021 5:30:00 AM 19.12 66.416 0.175 7.08 0.76 7.11
9/23/2021 5:45:00 AM 19.12 66.416 0.175 7.08 0.91 7.11
9/23/2021 6:00:00 AM 19.12 66.416 0.177 7.08 0.79 7.08
9/23/2021 6:15:00 AM 19.11 66.398 0.174 7.08 0.78 7.09
9/23/2021 6:30:00 AM 19.11 66.398 0.176 7.08 0.89 7.1
9/23/2021 6:45:00 AM 19.1 66.38 0.175 7.08 0.84 7.09
9/23/2021 7:00:00 AM 19.1 66.38 0.178 7.08 1.01 7.11
9/23/2021 7:15:00 AM 19.1 66.38 0.177 7.08 0.76 7.11
9/23/2021 7:30:00 AM 19.1 66.38 0.178 7.09 0.72 7.17
9/23/2021 7:45:00 AM 19.11 66.398 0.176 7.09 0.7 7.22
9/23/2021 8:00:00 AM 19.13 66.434 0.177 7.1 0.71 7.33
9/23/2021 8:15:00 AM 19.15 66.47 0.176 7.11 0.69 7.46
9/23/2021 8:30:00 AM 19.18 66.524 0.176 7.12 0.85 7.58
9/23/2021 8:45:00 AM 19.23 66.614 0.176 7.14 0.69 7.79
9/23/2021 9:00:00 AM 19.24 66.632 0.175 7.15 0.8 7.82
9/23/2021 9:15:00 AM 19.25 66.65 0.175 7.15 0.62 7.79
9/23/2021 9:30:00 AM 19.26 66.668 0.174 7.15 0.81 7.74
9/23/2021 9:45:00 AM 19.26 66.668 0.174 7.15 0.92 7.73
9/23/2021 10:00:00 AM 19.28 66.704 0.173 7.16 1.1 7.78
9/23/2021 10:15:00 AM 19.3 66.74 0.173 7.17 1.05 7.94
9/23/2021 10:30:00 AM 19.32 66.776 0.173 7.18 0.93 7.96
9/23/2021 10:45:00 AM 19.33 66.794 0.172 7.19 0.92 7.99
9/23/2021 11:00:00 AM 19.35 66.83 0.172 7.2 1.02 8.11
9/23/2021 11:15:00 AM 19.35 66.83 0.17 7.22 1.5 8.12
9/23/2021 11:30:00 AM 19.33 66.794 0.168 7.23 2.05 8.14
9/23/2021 11:45:00 AM 19.27 66.686 0.165 7.24 3.71 8.16
9/23/2021 12:00:00 PM 19.19 66.542 0.162 7.25 4.11 8.18
9/23/2021 12:15:00 PM 19.14 66.452 0.157 7.26 3.26 8.23
9/23/2021 12:30:00 PM 19.08 66.344 0.152 7.28 5.65 8.27
9/23/2021 12:45:00 PM 19.05 66.29 0.151 7.28 8.83 8.29
9/23/2021 1:00:00 PM 18.97 66.146 0.148 7.29 29.68 8.33
9/23/2021 1:15:00 PM 18.8 65.84 0.163 7.23 29.77 8.34
9/23/2021 1:30:00 PM 18.82 65.876 0.153 7.11 101.92 7.97
9/23/2021 1:45:00 PM 18.54 65.372 0.131 7.4 525.4 8.78
9/23/2021 2:00:00 PM 18.36 65.048 0.109 7.41 715.2 8.95
9/23/2021 2:15:00 PM 18.25 64.85 0.1 7.32 937.1 9
9/23/2021 2:30:00 PM 18.15 64.67 0.091 7.26 1007.53 9.04
9/23/2021 2:45:00 PM 18.11 64.598 0.085 7.2 1064.8 9.07
9/23/2021 3:00:00 PM 18.1 64.58 0.081 7.19 984.11 9.09
9/23/2021 3:15:00 PM 18.09 64.562 0.078 7.17 900.9 9.1
9/23/2021 3:30:00 PM 18.08 64.544 0.076 7.15 905.01 9.11
9/23/2021 3:45:00 PM 18.07 64.526 0.075 7.13 791.4 9.1
9/23/2021 4:00:00 PM 18.06 64.508 0.075 7.11 704 9.09
9/23/2021 4:15:00 PM 18.06 64.508 0.074 7.1 632.42 9.08
9/23/2021 4:30:00 PM 18.06 64.508 0.074 7.09 975.83 9.08
9/23/2021 4:45:00 PM 18.04 64.472 0.075 7.1 507 9.07
9/23/2021 5:00:00 PM 18.02 64.436 0.074 7.09 491.74 9.06
9/23/2021 5:15:00 PM 18.02 64.436 0.073 7.09 474.84 9.06
9/23/2021 5:30:00 PM 18.03 64.454 0.074 7.08 422.96 9.05
9/23/2021 5:45:00 PM 18.04 64.472 0.074 7.09 408.23 9.05
9/23/2021 6:00:00 PM 18.04 64.472 0.075 7.1 356.65 9.03
9/23/2021 6:15:00 PM 18.06 64.508 0.076 7.1 330.84 9.03
9/23/2021 6:30:00 PM 18.06 64.508 0.077 7.1 312.26 9.02
9/23/2021 6:45:00 PM 18.05 64.49 0.078 7.1 279.26 9.01
9/23/2021 7:00:00 PM 18.03 64.454 0.08 7.1 248.54 9
9/23/2021 7:15:00 PM 18.01 64.418 0.081 7.11 195.06 9
9/23/2021 7:30:00 PM 18 64.4 0.082 7.11 221.5 8.99
9/23/2021 7:45:00 PM 17.99 64.382 0.083 7.12 193.05 8.99
9/23/2021 8:00:00 PM 17.98 64.364 0.084 7.12 190.74 8.99
9/23/2021 8:15:00 PM 17.96 64.328 0.085 7.12 173.76 8.98
9/23/2021 8:30:00 PM 17.94 64.292 0.086 7.12 168.57 8.98
9/23/2021 8:45:00 PM 17.91 64.238 0.087 7.13 147.69 8.98
9/23/2021 9:00:00 PM 17.87 64.166 0.088 7.14 175.15 8.99
9/23/2021 9:15:00 PM 17.83 64.094 0.089 7.14 215.63 8.98
9/23/2021 9:30:00 PM 17.77 63.986 0.09 7.14 232.87 8.99
9/23/2021 9:45:00 PM 17.72 63.896 0.091 7.15 157.68 9
9/23/2021 10:00:00 PM 17.67 63.806 0.091 7.15 141.78 9
9/23/2021 10:15:00 PM 17.61 63.698 0.092 7.16 133.11 9
9/23/2021 10:30:00 PM 17.56 63.608 0.093 7.16 120.16 9.01
9/23/2021 10:45:00 PM 17.5 63.5 0.094 7.16 159.57 9.01
9/23/2021 11:00:00 PM 17.44 63.392 0.095 7.16 87.03 9.02
9/23/2021 11:15:00 PM 17.38 63.284 0.096 7.17 79.75 9.02
9/23/2021 11:30:00 PM 17.32 63.176 0.098 7.17 99.6 9.03
9/23/2021 11:45:00 PM 17.26 63.068 0.096 7.17 86.87 9.04
9/24/2021 12:00:00 AM 17.2 62.96 0.096 7.17 88.28 9.05
9/24/2021 12:15:00 AM 17.14 62.852 0.097 7.17 77.62 9.05
9/24/2021 12:30:00 AM 17.08 62.744 0.098 7.17 80.9 9.06
9/24/2021 12:45:00 AM 17.01 62.618 0.098 7.17 55.05 9.07
9/24/2021 1:00:00 AM 16.96 62.528 0.098 7.17 77.44 9.07
9/24/2021 1:15:00 AM 16.89 62.402 0.099 7.17 64.22 9.08
9/24/2021 1:30:00 AM 16.83 62.294 0.099 7.17 54.99 9.09
9/24/2021 1:45:00 AM 16.77 62.186 0.1 7.17 66.32 9.1
9/24/2021 2:00:00 AM 16.71 62.078 0.1 7.17 48.53 9.11
9/24/2021 2:15:00 AM 16.66 61.988 0.101 7.15 58.21 9.12
9/24/2021 2:30:00 AM 16.61 61.898 0.101 7.15 49.57 9.12
9/24/2021 2:45:00 AM 16.55 61.79 0.102 7.16 47.6 9.13
9/24/2021 3:00:00 AM 16.49 61.682 0.102 7.16 66.77 9.14
9/24/2021 3:15:00 AM 16.44 61.592 0.103 7.16 55.61 9.15
9/24/2021 3:30:00 AM 16.38 61.484 0.103 7.16 45.8 9.16
9/24/2021 3:45:00 AM 16.32 61.376 0.104 7.16 47.81 9.16
9/24/2021 4:00:00 AM 16.27 61.286 0.104 7.15 46.89 9.17
9/24/2021 4:15:00 AM 16.21 61.178 0.104 7.16 42.36 9.19
9/24/2021 4:30:00 AM 16.16 61.088 0.104 7.16 39.15 9.19
9/24/2021 4:45:00 AM 16.1 60.98 0.105 7.16 41.62 9.2
9/24/2021 5:00:00 AM 16.05 60.89 0.105 7.16 63.5 9.21
9/24/2021 5:15:00 AM 15.99 60.782 0.106 7.16 45.5 9.22
9/24/2021 5:30:00 AM 15.94 60.692 0.106 7.16 56.24 9.23
9/24/2021 5:45:00 AM 15.89 60.602 0.106 7.16 50.21 9.24
9/24/2021 6:00:00 AM 15.83 60.494 0.107 7.16 37.28 9.25
9/24/2021 6:15:00 AM 15.79 60.422 0.108 7.16 48.03 9.25
9/24/2021 6:30:00 AM 15.74 60.332 0.109 7.16 55.14 9.26
9/24/2021 6:45:00 AM 15.69 60.242 0.109 7.16 35.76 9.27
9/24/2021 7:00:00 AM 15.65 60.17 0.109 7.16 55.69 9.28
9/24/2021 7:15:00 AM 15.61 60.098 0.11 7.16 41.09 9.29
9/24/2021 7:30:00 AM 15.57 60.026 0.11 7.16 50.35 9.3
9/24/2021 7:45:00 AM 15.55 59.99 0.111 7.17 32.47 9.31
9/24/2021 8:00:00 AM 15.53 59.954 0.111 7.17 37.01 9.32
9/24/2021 8:15:00 AM 15.52 59.936 0.111 7.17 34.42 9.34
9/24/2021 8:30:00 AM 15.52 59.936 0.111 7.18 32.73 9.34
9/24/2021 8:45:00 AM 15.53 59.954 0.112 7.18 34.31 9.35
9/24/2021 9:00:00 AM 15.54 59.972 0.112 7.19 37.84 9.36
9/24/2021 9:15:00 AM 15.57 60.026 0.112 7.19 26.05 9.36
9/24/2021 9:30:00 AM 15.6 60.08 0.113 7.2 32.65 9.37
9/24/2021 9:45:00 AM 15.65 60.17 0.114 7.2 36.05 9.37
9/24/2021 10:00:00 AM 15.71 60.278 0.115 7.21 25.27 9.37
9/24/2021 10:15:00 AM 15.8 60.44 0.115 7.21 28.38 9.36
9/24/2021 10:30:00 AM 15.9 60.62 0.115 7.22 33.21 9.37
9/24/2021 10:45:00 AM 16.03 60.854 0.116 7.22 26.74 9.35
9/24/2021 11:00:00 AM 16.17 61.106 0.116 7.23 26.53 9.33
9/24/2021 11:15:00 AM 16.27 61.286 0.116 7.23 27.03 9.32
9/24/2021 11:30:00 AM 16.48 61.664 0.116 7.24 23.71 9.3
9/24/2021 11:45:00 AM 16.65 61.97 0.117 7.24 29.18 9.26
9/24/2021 12:00:00 PM 16.65 61.97 0.117 7.25 42.11 9.25
9/24/2021 12:15:00 PM 16.6 61.88 0.117 7.25 36.43 9.23
9/24/2021 12:30:00 PM 16.67 62.006 0.117 7.25 25.5 9.23
9/24/2021 12:45:00 PM 16.85 62.33 0.117 7.25 28.62 9.21
9/24/2021 1:00:00 PM 17 62.6 0.117 7.25 25.25 9.18
9/24/2021 1:15:00 PM 17.11 62.798 0.117 7.26 46.53 9.16
9/24/2021 1:30:00 PM 17.16 62.888 0.118 7.26 26.9 9.13
9/24/2021 1:45:00 PM 17.34 63.212 0.118 7.26 25.97 9.11
9/24/2021 2:00:00 PM 17.49 63.482 0.118 7.26 21.22 9.09
9/24/2021 2:15:00 PM 17.7 63.86 0.118 7.26 22.54 9.07
9/24/2021 2:30:00 PM 17.77 63.986 0.118 7.26 23.5 9.04
9/24/2021 2:45:00 PM 17.81 64.058 0.118 7.26 28.65 9.01
9/24/2021 3:00:00 PM 17.91 64.238 0.118 7.26 30.09 8.99
9/24/2021 3:15:00 PM 18.01 64.418 0.119 7.26 22.92 8.97
9/24/2021 3:30:00 PM 18.17 64.706 0.119 7.26 20.65 8.95
9/24/2021 3:45:00 PM 18.2 64.76 0.119 7.26 20.19 8.93
9/24/2021 4:00:00 PM 18.23 64.814 0.119 7.27 22.08 8.92
9/24/2021 4:15:00 PM 18.19 64.742 0.12 7.27 28.01 8.91
9/24/2021 4:30:00 PM 18.16 64.688 0.12 7.27 20.66 8.9
9/24/2021 4:45:00 PM 18.06 64.508 0.12 7.26 20.79 8.89
9/24/2021 5:00:00 PM 17.98 64.364 0.12 7.26 18.99 8.89
9/24/2021 5:15:00 PM 17.9 64.22 0.12 7.25 22.44 8.9
9/24/2021 5:30:00 PM 17.83 64.094 0.12 7.25 21.57 8.89
9/24/2021 5:45:00 PM 17.76 63.968 0.12 7.25 22.49 8.88
9/24/2021 6:00:00 PM 17.69 63.842 0.12 7.24 21.19 8.87
9/24/2021 6:15:00 PM 17.62 63.716 0.121 7.23 20.28 8.87
9/24/2021 6:30:00 PM 17.54 63.572 0.12 7.23 22.05 8.86
9/24/2021 6:45:00 PM 17.46 63.428 0.121 7.23 24.17 8.86
9/24/2021 7:00:00 PM 17.38 63.284 0.121 7.22 15.8 8.86
9/24/2021 7:15:00 PM 17.3 63.14 0.121 7.21 20.25 8.86
9/24/2021 7:30:00 PM 17.23 63.014 0.121 7.21 18.01 8.87
9/24/2021 7:45:00 PM 17.15 62.87 0.122 7.21 16.3 8.87
9/24/2021 8:00:00 PM 17.08 62.744 0.122 7.21 18.56 8.88
9/24/2021 8:15:00 PM 17 62.6 0.122 7.21 19.2 8.89
9/24/2021 8:30:00 PM 16.92 62.456 0.122 7.2 14.31 8.9
9/24/2021 8:45:00 PM 16.84 62.312 0.122 7.2 22.94 8.91
9/24/2021 9:00:00 PM 16.77 62.186 0.123 7.2 17.34 8.92
9/24/2021 9:15:00 PM 16.7 62.06 0.123 7.19 18.54 8.93
9/24/2021 9:30:00 PM 16.64 61.952 0.123 7.2 19.88 8.95
9/24/2021 9:45:00 PM 16.57 61.826 0.123 7.19 19.32 8.95
9/24/2021 10:00:00 PM 16.51 61.718 0.123 7.19 18.7 8.97
9/24/2021 10:15:00 PM 16.45 61.61 0.124 7.19 19.53 8.97
9/24/2021 10:30:00 PM 16.39 61.502 0.123 7.19 19.21 8.99
9/24/2021 10:45:00 PM 16.33 61.394 0.124 7.19 18.43 8.99
9/24/2021 11:00:00 PM 16.28 61.304 0.124 7.19 18.02 9.01
9/24/2021 11:15:00 PM 16.23 61.214 0.123 7.18 18.22 9.01
9/24/2021 11:30:00 PM 16.18 61.124 0.123 7.19 22.89 9.01
9/24/2021 11:45:00 PM 16.13 61.034 0.125 7.18 17.85 9.02
9/25/2021 12:00:00 AM 16.08 60.944 0.124 7.18 16.84 9.04
9/25/2021 12:15:00 AM 16.04 60.872 0.124 7.18 17.63 9.04
9/25/2021 12:30:00 AM 15.99 60.782 0.124 7.18 17.38 9.05
9/25/2021 12:45:00 AM 15.94 60.692 0.124 7.18 16.95 9.06
9/25/2021 1:00:00 AM 15.9 60.62 0.124 7.18 17.98 9.07
9/25/2021 1:15:00 AM 15.86 60.548 0.124 7.18 16.72 9.07
9/25/2021 1:30:00 AM 15.81 60.458 0.125 7.18 17.24 9.09
9/25/2021 1:45:00 AM 15.76 60.368 0.125 7.18 16.19 9.1
9/25/2021 2:00:00 AM 15.7 60.26 0.125 7.18 15.59 9.1
9/25/2021 2:15:00 AM 15.65 60.17 0.125 7.18 14.45 9.11
9/25/2021 2:30:00 AM 15.6 60.08 0.125 7.18 15.4 9.14
9/25/2021 2:45:00 AM 15.56 60.008 0.126 7.18 14.57 9.14
9/25/2021 3:00:00 AM 15.53 59.954 0.125 7.18 15.59 9.14
9/25/2021 3:15:00 AM 15.5 59.9 0.125 7.18 15.71 9.15
9/25/2021 3:30:00 AM 15.47 59.846 0.126 7.18 14.93 9.16
9/25/2021 3:45:00 AM 15.43 59.774 0.127 7.18 14.45 9.17
9/25/2021 4:00:00 AM 15.39 59.702 0.126 7.18 16.1 9.18
9/25/2021 4:15:00 AM 15.34 59.612 0.127 7.18 16.22 9.18
9/25/2021 4:30:00 AM 15.27 59.486 0.127 7.18 14.37 9.19
9/25/2021 4:45:00 AM 15.22 59.396 0.128 7.18 14.16 9.21
9/25/2021 5:00:00 AM 15.18 59.324 0.128 7.18 15.04 9.21
9/25/2021 5:15:00 AM 15.14 59.252 0.128 7.18 14.87 9.22
9/25/2021 5:30:00 AM 15.11 59.198 0.128 7.17 15.75 9.23
9/25/2021 5:45:00 AM 15.07 59.126 0.128 7.18 15 9.24
9/25/2021 6:00:00 AM 15.04 59.072 0.128 7.17 14.27 9.25
9/25/2021 6:15:00 AM 15.02 59.036 0.129 7.17 13.87 9.25
9/25/2021 6:30:00 AM 14.99 58.982 0.13 7.18 14.01 9.26
9/25/2021 6:45:00 AM 14.96 58.928 0.129 7.17 12.91 9.27
9/25/2021 7:00:00 AM 14.93 58.874 0.13 7.17 14.25 9.28
9/25/2021 7:15:00 AM 14.9 58.82 0.128 7.17 12.87 9.28
9/25/2021 7:30:00 AM 14.88 58.784 0.13 7.17 13.52 9.29
9/25/2021 7:45:00 AM 14.86 58.748 0.131 7.18 12.96 9.31
9/25/2021 8:00:00 AM 14.86 58.748 0.13 7.18 12.55 9.33
9/25/2021 8:15:00 AM 14.86 58.748 0.13 7.18 12.54 9.35
9/25/2021 8:30:00 AM 14.87 58.766 0.13 7.19 11.85 9.36
9/25/2021 8:45:00 AM 14.9 58.82 0.13 7.19 11.98 9.37
9/25/2021 9:00:00 AM 14.92 58.856 0.13 7.19 12.13 9.39
9/25/2021 9:15:00 AM 14.95 58.91 0.13 7.2 11.6 9.4
9/25/2021 9:30:00 AM 15 59 0.13 7.2 12.35 9.41
9/25/2021 9:45:00 AM 15.05 59.09 0.13 7.21 11.52 9.42
9/25/2021 10:00:00 AM 15.12 59.216 0.13 7.21 11.04 9.42
9/25/2021 10:15:00 AM 15.21 59.378 0.131 7.21 10.71 9.42
9/25/2021 10:30:00 AM 15.35 59.63 0.13 7.22 11.16 9.41
9/25/2021 10:45:00 AM 15.51 59.918 0.13 7.22 11.26 9.4
9/25/2021 11:00:00 AM 15.66 60.188 0.129 7.22 11.05 9.37
9/25/2021 11:15:00 AM 15.82 60.476 0.132 7.23 10.68 9.36
9/25/2021 11:30:00 AM 16.01 60.818 0.132 7.23 10.4 9.33
9/25/2021 11:45:00 AM 16.21 61.178 0.131 7.23 9.82 9.3
9/25/2021 12:00:00 PM 16.41 61.538 0.131 7.24 9.62 9.27
9/25/2021 12:15:00 PM 16.62 61.916 0.13 7.24 10.61 9.24
9/25/2021 12:30:00 PM 16.84 62.312 0.132 7.24 10.31 9.2
9/25/2021 12:45:00 PM 17.06 62.708 0.132 7.25 9.43 9.16
9/25/2021 1:00:00 PM 17.27 63.086 0.131 7.25 10.77 9.12
9/25/2021 1:15:00 PM 17.46 63.428 0.129 7.25 10.59 9.07
9/25/2021 1:30:00 PM 17.65 63.77 0.131 7.26 10.57 9.04
9/25/2021 1:45:00 PM 17.85 64.13 0.132 7.26 10.26 9
9/25/2021 2:00:00 PM 18.03 64.454 0.134 7.26 10.56 8.96
9/25/2021 2:15:00 PM 18.16 64.688 0.132 7.27 9.47 8.92
9/25/2021 2:30:00 PM 18.28 64.904 0.133 7.27 9.61 8.9
9/25/2021 2:45:00 PM 18.38 65.084 0.133 7.27 9.91 8.88
9/25/2021 3:00:00 PM 18.44 65.192 0.132 7.28 9.64 8.86
9/25/2021 3:15:00 PM 18.52 65.336 0.133 7.28 10.67 8.83
9/25/2021 3:30:00 PM 18.55 65.39 0.133 7.28 9.88 8.81
9/25/2021 3:45:00 PM 18.58 65.444 0.134 7.28 9.59 8.8
9/25/2021 4:00:00 PM 18.59 65.462 0.133 7.28 9.34 8.79
9/25/2021 4:15:00 PM 18.57 65.426 0.133 7.28 10.01 8.77
9/25/2021 4:30:00 PM 18.53 65.354 0.134 7.27 9.76 8.76
9/25/2021 4:45:00 PM 18.45 65.21 0.133 7.27 9.92 8.75
9/25/2021 5:00:00 PM 18.37 65.066 0.134 7.27 9.83 8.75
9/25/2021 5:15:00 PM 18.29 64.922 0.135 7.26 9.72 8.74
9/25/2021 5:30:00 PM 18.2 64.76 0.134 7.26 9.35 8.73
9/25/2021 5:45:00 PM 18.12 64.616 0.134 7.25 8.95 8.73
9/25/2021 6:00:00 PM 18.04 64.472 0.135 7.25 8.91 8.71
9/25/2021 6:15:00 PM 17.98 64.364 0.135 7.25 8.85 8.71
9/25/2021 6:30:00 PM 17.9 64.22 0.135 7.24 9.13 8.7
9/25/2021 6:45:00 PM 17.82 64.076 0.135 7.24 9.33 8.68
9/25/2021 7:00:00 PM 17.74 63.932 0.135 7.23 9.15 8.67
9/25/2021 7:15:00 PM 17.64 63.752 0.136 7.22 9.3 8.66
9/25/2021 7:30:00 PM 17.57 63.626 0.135 7.22 9.49 8.65
9/25/2021 7:45:00 PM 17.49 63.482 0.136 7.22 8.8 8.66
9/25/2021 8:00:00 PM 17.42 63.356 0.137 7.21 8.98 8.67
9/25/2021 8:15:00 PM 17.35 63.23 0.137 7.21 8.83 8.67
9/25/2021 8:30:00 PM 17.28 63.104 0.137 7.21 9.78 8.68
9/25/2021 8:45:00 PM 17.22 62.996 0.137 7.2 9.81 8.68
9/25/2021 9:00:00 PM 17.16 62.888 0.137 7.2 8.72 8.69
9/25/2021 9:15:00 PM 17.1 62.78 0.137 7.2 9.59 8.7
9/25/2021 9:30:00 PM 17.04 62.672 0.137 7.2 9.11 8.7
9/25/2021 9:45:00 PM 16.99 62.582 0.138 7.2 9.33 8.71
9/25/2021 10:00:00 PM 16.95 62.51 0.138 7.2 8.63 8.72
9/25/2021 10:15:00 PM 16.91 62.438 0.138 7.2 9.86 8.73
9/25/2021 10:30:00 PM 16.87 62.366 0.138 7.19 8.52 8.73
9/25/2021 10:45:00 PM 16.84 62.312 0.139 7.19 8.12 8.73
9/25/2021 11:00:00 PM 16.82 62.276 0.138 7.19 8.89 8.74
9/25/2021 11:15:00 PM 16.79 62.222 0.138 7.19 8.89 8.74
9/25/2021 11:30:00 PM 16.77 62.186 0.138 7.19 8.74 8.74
9/25/2021 11:45:00 PM 16.75 62.15 0.138 7.19 9.19 8.75
9/26/2021 12:00:00 AM 16.73 62.114 0.138 7.19 9.11 8.76
9/26/2021 12:15:00 AM 16.71 62.078 0.139 7.19 8.48 8.76
9/26/2021 12:30:00 AM 16.7 62.06 0.139 7.19 8.81 8.76
9/26/2021 12:45:00 AM 16.68 62.024 0.139 7.18 7.92 8.77
9/26/2021 1:00:00 AM 16.67 62.006 0.139 7.19 8.48 8.76
9/26/2021 1:15:00 AM 16.63 61.934 0.138 7.19 8.64 8.78
9/26/2021 1:30:00 AM 16.6 61.88 0.138 7.19 8.07 8.79
9/26/2021 1:45:00 AM 16.58 61.844 0.138 7.19 8.05 8.79
9/26/2021 2:00:00 AM 16.55 61.79 0.139 7.19 8.34 8.8
9/26/2021 2:15:00 AM 16.52 61.736 0.139 7.19 7.97 8.79
9/26/2021 2:30:00 AM 16.49 61.682 0.138 7.19 8.23 8.81
9/26/2021 2:45:00 AM 16.46 61.628 0.14 7.19 7.96 8.81
9/26/2021 3:00:00 AM 16.44 61.592 0.139 7.19 8.08 8.8
9/26/2021 3:15:00 AM 16.41 61.538 0.14 7.19 7.99 8.82
9/26/2021 3:30:00 AM 16.39 61.502 0.14 7.19 8.25 8.82
9/26/2021 3:45:00 AM 16.36 61.448 0.14 7.19 7.83 8.82
9/26/2021 4:00:00 AM 16.34 61.412 0.14 7.19 8.41 8.81
9/26/2021 4:15:00 AM 16.31 61.358 0.14 7.19 7.93 8.81
9/26/2021 4:30:00 AM 16.27 61.286 0.14 7.19 6.77 8.83
9/26/2021 4:45:00 AM 16.22 61.196 0.141 7.19 7.6 8.84
9/26/2021 5:00:00 AM 16.16 61.088 0.141 7.19 7.48 8.85
9/26/2021 5:15:00 AM 16.11 60.998 0.141 7.19 7.58 8.86
9/26/2021 5:30:00 AM 16.06 60.908 0.141 7.19 7.59 8.87
9/26/2021 5:45:00 AM 16.02 60.836 0.142 7.19 7.49 8.88
9/26/2021 6:00:00 AM 15.98 60.764 0.142 7.19 7.41 8.88
9/26/2021 6:15:00 AM 15.94 60.692 0.142 7.19 7.3 8.89
9/26/2021 6:30:00 AM 15.9 60.62 0.142 7.19 7.46 8.91
9/26/2021 6:45:00 AM 15.87 60.566 0.142 7.19 7.3 8.92
9/26/2021 7:00:00 AM 15.83 60.494 0.142 7.19 7.97 8.94
9/26/2021 7:15:00 AM 15.79 60.422 0.141 7.19 6.93 8.95
9/26/2021 7:30:00 AM 15.76 60.368 0.143 7.2 6.99 8.97
9/26/2021 7:45:00 AM 15.74 60.332 0.142 7.2 7.36 8.99
9/26/2021 8:00:00 AM 15.73 60.314 0.141 7.2 7.24 9.03
9/26/2021 8:15:00 AM 15.73 60.314 0.141 7.21 7.22 9.05
9/26/2021 8:30:00 AM 15.72 60.296 0.141 7.21 6.54 9.07
9/26/2021 8:45:00 AM 15.75 60.35 0.142 7.22 6.26 9.12
9/26/2021 9:00:00 AM 15.81 60.458 0.142 7.22 7.31 9.14
9/26/2021 9:15:00 AM 15.81 60.458 0.142 7.22 6.67 9.14
9/26/2021 9:30:00 AM 15.83 60.494 0.141 7.23 7.25 9.15
9/26/2021 9:45:00 AM 15.88 60.584 0.141 7.23 6.54 9.16
9/26/2021 10:00:00 AM 15.93 60.674 0.142 7.23 6.58 9.16
9/26/2021 10:15:00 AM 16.01 60.818 0.141 7.23 6.72 9.17
9/26/2021 10:30:00 AM 16.12 61.016 0.142 7.24 6.45 9.18
9/26/2021 10:45:00 AM 16.24 61.232 0.142 7.24 6.26 9.17
9/26/2021 11:00:00 AM 16.38 61.484 0.142 7.24 6.49 9.17
9/26/2021 11:15:00 AM 16.52 61.736 0.142 7.25 6.01 9.16
9/26/2021 11:30:00 AM 16.67 62.006 0.142 7.25 6.5 9.14
9/26/2021 11:45:00 AM 16.87 62.366 0.142 7.25 6.76 9.13
9/26/2021 12:00:00 PM 16.98 62.564 0.142 7.25 6.62 9.1
9/26/2021 12:15:00 PM 17.16 62.888 0.142 7.26 6.81 9.09
9/26/2021 12:30:00 PM 17.29 63.122 0.142 7.26 6.81 9.06
9/26/2021 12:45:00 PM 17.47 63.446 0.142 7.26 7.11 9.03
9/26/2021 1:00:00 PM 17.66 63.788 0.142 7.26 6.9 8.99
9/26/2021 1:15:00 PM 17.82 64.076 0.142 7.27 7.45 8.97
9/26/2021 1:30:00 PM 17.99 64.382 0.142 7.27 7.53 8.94
9/26/2021 1:45:00 PM 18.03 64.454 0.142 7.27 9.95 8.89
9/26/2021 2:00:00 PM 18.18 64.724 0.143 7.28 7.22 8.87
9/26/2021 2:15:00 PM 18.32 64.976 0.143 7.28 6.69 8.87
9/26/2021 2:30:00 PM 18.32 64.976 0.143 7.28 6.73 8.85
9/26/2021 2:45:00 PM 18.38 65.084 0.143 7.28 6.87 8.84
9/26/2021 3:00:00 PM 18.37 65.066 0.143 7.28 6.65 8.81
9/26/2021 3:15:00 PM 18.42 65.156 0.143 7.28 6.63 8.81
9/26/2021 3:30:00 PM 18.34 65.012 0.143 7.28 6.59 8.78
9/26/2021 3:45:00 PM 18.3 64.94 0.143 7.28 6.29 8.79
9/26/2021 4:00:00 PM 18.28 64.904 0.144 7.27 6.2 8.77
9/26/2021 4:15:00 PM 18.22 64.796 0.143 7.27 6.39 8.79
9/26/2021 4:30:00 PM 18.18 64.724 0.143 7.27 6.34 8.79
9/26/2021 4:45:00 PM 18.13 64.634 0.143 7.27 6.44 8.79
9/26/2021 5:00:00 PM 18.06 64.508 0.143 7.27 6.15 8.77
9/26/2021 5:15:00 PM 18.03 64.454 0.144 7.26 6.09 8.75
9/26/2021 5:30:00 PM 17.96 64.328 0.144 7.26 5.69 8.72
9/26/2021 5:45:00 PM 17.87 64.166 0.144 7.25 6.46 8.71
9/26/2021 6:00:00 PM 17.81 64.058 0.144 7.25 6.32 8.7
9/26/2021 6:15:00 PM 17.73 63.914 0.144 7.25 6.17 8.69
9/26/2021 6:30:00 PM 17.63 63.734 0.145 7.24 9.32 8.67
9/26/2021 6:45:00 PM 17.53 63.554 0.145 7.23 5.86 8.66
9/26/2021 7:00:00 PM 17.45 63.41 0.145 7.23 5.55 8.65
9/26/2021 7:15:00 PM 17.37 63.266 0.145 7.22 5.48 8.63
9/26/2021 7:30:00 PM 17.3 63.14 0.146 7.22 5.67 8.63
9/26/2021 7:45:00 PM 17.24 63.032 0.146 7.21 5.6 8.61
9/26/2021 8:00:00 PM 17.15 62.87 0.146 7.21 5.58 8.62
9/26/2021 8:15:00 PM 17.09 62.762 0.146 7.21 5.41 8.64
9/26/2021 8:30:00 PM 17.03 62.654 0.145 7.2 5.72 8.62
9/26/2021 8:45:00 PM 16.97 62.546 0.146 7.2 5.6 8.63
9/26/2021 9:00:00 PM 16.91 62.438 0.146 7.2 5.83 8.66
9/26/2021 9:15:00 PM 16.85 62.33 0.146 7.2 5.52 8.66
9/26/2021 9:30:00 PM 16.78 62.204 0.146 7.2 5.54 8.67
9/26/2021 9:45:00 PM 16.71 62.078 0.147 7.2 5.72 8.68
9/26/2021 10:00:00 PM 16.64 61.952 0.147 7.2 5.38 8.7
9/26/2021 10:15:00 PM 16.56 61.808 0.147 7.2 6.13 8.71
9/26/2021 10:30:00 PM 16.5 61.7 0.147 7.19 5.64 8.72
9/26/2021 10:45:00 PM 16.44 61.592 0.147 7.19 5.53 8.73
9/26/2021 11:00:00 PM 16.39 61.502 0.147 7.19 5.35 8.74
9/26/2021 11:15:00 PM 16.33 61.394 0.147 7.19 5.34 8.74
9/26/2021 11:30:00 PM 16.28 61.304 0.148 7.19 5.1 8.76
9/26/2021 11:45:00 PM 16.25 61.25 0.147 7.19 5.31 8.76
9/27/2021 12:00:00 AM 16.2 61.16 0.147 7.19 5.15 8.77
9/27/2021 12:15:00 AM 16.17 61.106 0.148 7.19 5.38 8.78
9/27/2021 12:30:00 AM 16.14 61.052 0.148 7.19 5.39 8.79
9/27/2021 12:45:00 AM 16.09 60.962 0.148 7.18 5.5 8.8
9/27/2021 1:00:00 AM 16.08 60.944 0.148 7.19 4.56 8.79
9/27/2021 1:15:00 AM 16.06 60.908 0.148 7.19 5.2 8.8
9/27/2021 1:30:00 AM 16.04 60.872 0.148 7.19 4.97 8.8
9/27/2021 1:45:00 AM 16.02 60.836 0.149 7.19 5.13 8.82
9/27/2021 2:00:00 AM 16.01 60.818 0.149 7.18 4.92 8.81
9/27/2021 2:15:00 AM 16 60.8 0.149 7.18 4.84 8.81
9/27/2021 2:30:00 AM 15.99 60.782 0.149 7.18 4.78 8.8
9/27/2021 2:45:00 AM 15.97 60.746 0.149 7.18 4.7 8.81
9/27/2021 3:00:00 AM 15.96 60.728 0.149 7.18 5.03 8.81
9/27/2021 3:15:00 AM 15.95 60.71 0.15 7.18 5.08 8.82
9/27/2021 3:30:00 AM 15.94 60.692 0.149 7.18 4.44 8.81
9/27/2021 3:45:00 AM 15.93 60.674 0.149 7.18 4.86 8.82
9/27/2021 4:00:00 AM 15.91 60.638 0.15 7.18 4.54 8.83
9/27/2021 4:15:00 AM 15.9 60.62 0.149 7.18 4.74 8.82
9/27/2021 4:30:00 AM 15.9 60.62 0.149 7.18 5.21 8.82
9/27/2021 4:45:00 AM 15.89 60.602 0.15 7.18 4.88 8.82
9/27/2021 5:00:00 AM 15.88 60.584 0.15 7.18 4.76 8.82
9/27/2021 5:15:00 AM 15.87 60.566 0.15 7.18 4.69 8.84
9/27/2021 5:30:00 AM 15.87 60.566 0.149 7.18 4.98 8.83
9/27/2021 5:45:00 AM 15.86 60.548 0.15 7.18 4.51 8.84
9/27/2021 6:00:00 AM 15.85 60.53 0.15 7.18 4.56 8.83
9/27/2021 6:15:00 AM 15.85 60.53 0.15 7.18 4.38 8.84
9/27/2021 6:30:00 AM 15.84 60.512 0.151 7.18 4.51 8.84
9/27/2021 6:45:00 AM 15.84 60.512 0.15 7.18 4.66 8.85
9/27/2021 7:00:00 AM 15.83 60.494 0.15 7.18 4.52 8.85
9/27/2021 7:15:00 AM 15.83 60.494 0.15 7.18 4.33 8.86
9/27/2021 7:30:00 AM 15.82 60.476 0.151 7.18 4.5 8.85
9/27/2021 7:45:00 AM 15.82 60.476 0.15 7.18 4.15 8.86
9/27/2021 8:00:00 AM 15.82 60.476 0.15 7.18 4.32 8.87
9/27/2021 8:15:00 AM 15.82 60.476 0.151 7.18 4.27 8.88
9/27/2021 8:30:00 AM 15.82 60.476 0.151 7.18 4.35 8.89
9/27/2021 8:45:00 AM 15.83 60.494 0.151 7.19 4.19 8.91
9/27/2021 9:00:00 AM 15.85 60.53 0.151 7.19 4.14 8.92
9/27/2021 9:15:00 AM 15.88 60.584 0.151 7.2 4.16 8.96
9/27/2021 9:30:00 AM 15.94 60.692 0.151 7.21 4 9.02
9/27/2021 9:45:00 AM 16 60.8 0.151 7.21 3.91 9.03
9/27/2021 10:00:00 AM 16.08 60.944 0.151 7.22 3.98 9.06
9/27/2021 10:15:00 AM 16.24 61.232 0.151 7.23 3.69 9.08
9/27/2021 10:30:00 AM 16.39 61.502 0.151 7.23 3.66 9.09
9/27/2021 10:45:00 AM 16.57 61.826 0.151 7.24 3.55 9.09
9/27/2021 11:00:00 AM 16.69 62.042 0.151 7.25 3.35 9.09
9/27/2021 11:15:00 AM 16.82 62.276 0.151 7.25 3.73 9.09
9/27/2021 11:30:00 AM 16.95 62.51 0.151 7.25 3.57 9.08
9/27/2021 11:45:00 AM 17.11 62.798 0.151 7.26 3.41 9.08
9/27/2021 12:00:00 PM 17.28 63.104 0.15 7.26 3.56 9.06
9/27/2021 12:15:00 PM 17.4 63.32 0.151 7.26 3.61 9.03
9/27/2021 12:30:00 PM 17.47 63.446 0.15 7.27 3.8 9
9/27/2021 12:45:00 PM 17.55 63.59 0.151 7.27 3.86 8.98
9/27/2021 1:00:00 PM 17.65 63.77 0.151 7.27 3.32 8.99
9/27/2021 1:15:00 PM 17.74 63.932 0.151 7.27 3.6 8.98
9/27/2021 1:30:00 PM 17.85 64.13 0.151 7.28 3.47 8.96
9/27/2021 1:45:00 PM 17.99 64.382 0.151 7.28 3.11 8.93
9/27/2021 2:00:00 PM 18.11 64.598 0.151 7.28 3.56 8.9
9/27/2021 2:15:00 PM 18.2 64.76 0.151 7.29 3.65 8.9
9/27/2021 2:30:00 PM 18.33 64.994 0.152 7.29 3.53 8.88
9/27/2021 2:45:00 PM 18.39 65.102 0.151 7.29 3.45 8.86
9/27/2021 3:00:00 PM 18.5 65.3 0.152 7.29 3.18 8.84
9/27/2021 3:15:00 PM 18.59 65.462 0.152 7.29 3.3 8.82
9/27/2021 3:30:00 PM 18.65 65.57 0.152 7.29 3.18 8.79
9/27/2021 3:45:00 PM 18.68 65.624 0.152 7.29 3.2 8.78
9/27/2021 4:00:00 PM 18.66 65.588 0.152 7.29 3.36 8.76
9/27/2021 4:15:00 PM 18.65 65.57 0.153 7.29 3.44 8.75
9/27/2021 4:30:00 PM 18.64 65.552 0.152 7.29 3.36 8.74
9/27/2021 4:45:00 PM 18.59 65.462 0.152 7.28 3.17 8.73
9/27/2021 5:00:00 PM 18.54 65.372 0.153 7.28 3.4 8.71
9/27/2021 5:15:00 PM 18.47 65.246 0.153 7.27 3.34 8.69
9/27/2021 5:30:00 PM 18.4 65.12 0.153 7.27 3.45 8.67
9/27/2021 5:45:00 PM 18.32 64.976 0.154 7.26 3.4 8.64
9/27/2021 6:00:00 PM 18.26 64.868 0.154 7.25 3.34 8.62
9/27/2021 6:15:00 PM 18.19 64.742 0.154 7.25 3.42 8.59
9/27/2021 6:30:00 PM 18.11 64.598 0.153 7.24 3.53 8.56
9/27/2021 6:45:00 PM 18.03 64.454 0.153 7.23 3.93 8.52
9/27/2021 7:00:00 PM 17.93 64.274 0.154 7.22 4.03 8.5
9/27/2021 7:15:00 PM 17.86 64.148 0.153 7.22 5.6 8.46
9/27/2021 7:30:00 PM 17.8 64.04 0.154 7.21 4.28 8.46
9/27/2021 7:45:00 PM 17.73 63.914 0.154 7.21 4.58 8.43
9/27/2021 8:00:00 PM 17.67 63.806 0.154 7.2 4.75 8.43
9/27/2021 8:15:00 PM 17.62 63.716 0.154 7.2 5.65 8.43
9/27/2021 8:30:00 PM 17.57 63.626 0.154 7.19 4.65 8.43
9/27/2021 8:45:00 PM 17.52 63.536 0.154 7.19 4.7 8.43
9/27/2021 9:00:00 PM 17.48 63.464 0.155 7.19 4.38 8.43
9/27/2021 9:15:00 PM 17.44 63.392 0.155 7.19 4.9 8.44
9/27/2021 9:30:00 PM 17.41 63.338 0.155 7.19 4.73 8.43
9/27/2021 9:45:00 PM 17.39 63.302 0.155 7.19 5.03 8.44
9/27/2021 10:00:00 PM 17.37 63.266 0.155 7.18 5.9 8.43
9/27/2021 10:15:00 PM 17.35 63.23 0.155 7.18 6.87 8.44
9/27/2021 10:30:00 PM 17.31 63.158 0.155 7.18 8.15 8.43
9/27/2021 10:45:00 PM 17.27 63.086 0.155 7.18 9.08 8.44
9/27/2021 11:00:00 PM 17.22 62.996 0.156 7.18 11.17 8.45
9/27/2021 11:15:00 PM 17.18 62.924 0.156 7.18 11.14 8.46
9/27/2021 11:30:00 PM 17.16 62.888 0.156 7.18 12.67 8.47
9/27/2021 11:45:00 PM 17.14 62.852 0.156 7.18 13.72 8.47
9/28/2021 12:00:00 AM 17.12 62.816 0.157 7.17 13.52 8.47
9/28/2021 12:15:00 AM 17.11 62.798 0.157 7.18 12.56 8.47
9/28/2021 12:30:00 AM 17.1 62.78 0.155 7.18 11.96 8.46
9/28/2021 12:45:00 AM 17.08 62.744 0.157 7.18 11.2 8.47
9/28/2021 1:00:00 AM 17.07 62.726 0.157 7.17 8.95 8.47
9/28/2021 1:15:00 AM 17.05 62.69 0.157 7.17 8.64 8.46
9/28/2021 1:30:00 AM 17.02 62.636 0.157 7.17 7.92 8.47
9/28/2021 1:45:00 AM 16.99 62.582 0.157 7.17 7.86 8.46
9/28/2021 2:00:00 AM 16.96 62.528 0.157 7.17 8.55 8.47
9/28/2021 2:15:00 AM 16.92 62.456 0.157 7.17 7.35 8.48
9/28/2021 2:30:00 AM 16.89 62.402 0.157 7.17 7.39 8.49
9/28/2021 2:45:00 AM 16.86 62.348 0.157 7.17 7.44 8.49
9/28/2021 3:00:00 AM 16.85 62.33 0.158 7.17 7.33 8.49
9/28/2021 3:15:00 AM 16.84 62.312 0.158 7.17 7.61 8.5
9/28/2021 3:30:00 AM 16.83 62.294 0.157 7.17 7.52 8.49
9/28/2021 3:45:00 AM 16.82 62.276 0.157 7.17 9.45 8.48
9/28/2021 4:00:00 AM 16.81 62.258 0.158 7.17 10.82 8.49
9/28/2021 4:15:00 AM 16.8 62.24 0.158 7.17 11.27 8.49
9/28/2021 4:30:00 AM 16.8 62.24 0.158 7.17 14.09 8.5
9/28/2021 4:45:00 AM 16.79 62.222 0.158 7.17 15.61 8.5
9/28/2021 5:00:00 AM 16.77 62.186 0.159 7.17 15.05 8.5
9/28/2021 5:15:00 AM 16.74 62.132 0.159 7.17 16.82 8.5
9/28/2021 5:30:00 AM 16.71 62.078 0.159 7.17 13.99 8.51
9/28/2021 5:45:00 AM 16.69 62.042 0.158 7.17 13.2 8.51
9/28/2021 6:00:00 AM 16.66 61.988 0.158 7.17 12.56 8.5
9/28/2021 6:15:00 AM 16.63 61.934 0.159 7.17 11.05 8.52
9/28/2021 6:30:00 AM 16.61 61.898 0.159 7.17 8.84 8.52
9/28/2021 6:45:00 AM 16.61 61.898 0.158 7.17 8 8.53
9/28/2021 7:00:00 AM 16.61 61.898 0.159 7.17 7.1 8.53
9/28/2021 7:15:00 AM 16.61 61.898 0.158 7.17 6.59 8.54
9/28/2021 7:30:00 AM 16.61 61.898 0.158 7.17 6.66 8.55
9/28/2021 7:45:00 AM 16.61 61.898 0.158 7.17 5.4 8.57
9/28/2021 8:00:00 AM 16.63 61.934 0.159 7.18 4.98 8.59
9/28/2021 8:15:00 AM 16.65 61.97 0.158 7.18 4.86 8.59
9/28/2021 8:30:00 AM 16.66 61.988 0.159 7.17 4.35 8.6
9/28/2021 8:45:00 AM 16.66 61.988 0.159 7.18 4.42 8.61
9/28/2021 9:00:00 AM 16.68 62.024 0.159 7.18 3.92 8.61
9/28/2021 9:15:00 AM 16.68 62.024 0.159 7.18 3.82 8.61
9/28/2021 9:30:00 AM 16.68 62.024 0.159 7.18 3.71 8.62
9/28/2021 9:45:00 AM 16.69 62.042 0.159 7.18 3.4 8.6
9/28/2021 10:00:00 AM 16.69 62.042 0.159 7.18 3.19 8.6
9/28/2021 10:15:00 AM 16.69 62.042 0.159 7.18 3.14 8.6
9/28/2021 10:30:00 AM 16.69 62.042 0.159 7.18 3.15 8.6
9/28/2021 10:45:00 AM 16.7 62.06 0.159 7.18 3.48 8.59
9/28/2021 11:00:00 AM 16.7 62.06 0.159 7.18 3.67 8.6
9/28/2021 11:15:00 AM 16.71 62.078 0.16 7.18 3.01 8.62
9/28/2021 11:30:00 AM 16.73 62.114 0.159 7.19 3.06 8.68
9/28/2021 11:45:00 AM 16.76 62.168 0.16 7.2 2.79 8.72
9/28/2021 12:00:00 PM 16.79 62.222 0.16 7.21 2.7 8.76
9/28/2021 12:15:00 PM 16.84 62.312 0.159 7.21 2.69 8.81
9/28/2021 12:30:00 PM 16.93 62.474 0.159 7.22 2.49 8.88
9/28/2021 12:45:00 PM 16.98 62.564 0.159 7.23 2.59 8.9
9/28/2021 1:00:00 PM 17.04 62.672 0.159 7.24 2.73 8.93
9/28/2021 1:15:00 PM 17.12 62.816 0.16 7.25 2.59 8.96
9/28/2021 1:30:00 PM 17.22 62.996 0.16 7.25 2.61 8.98
9/28/2021 1:45:00 PM 17.28 63.104 0.16 7.26 2.49 8.98
9/28/2021 2:00:00 PM 17.34 63.212 0.16 7.26 2.34 8.98
9/28/2021 2:15:00 PM 17.37 63.266 0.16 7.26 2.77 8.95
9/28/2021 2:30:00 PM 17.38 63.284 0.16 7.26 2.44 8.93
9/28/2021 2:45:00 PM 17.46 63.428 0.16 7.27 2.37 8.96
9/28/2021 3:00:00 PM 17.5 63.5 0.16 7.27 2.35 8.97
9/28/2021 3:15:00 PM 17.54 63.572 0.16 7.28 2.48 8.98
9/28/2021 3:30:00 PM 17.66 63.788 0.16 7.28 2.54 8.98
9/28/2021 3:45:00 PM 17.76 63.968 0.16 7.28 2.48 8.97
9/28/2021 4:00:00 PM 17.8 64.04 0.16 7.28 2.51 8.93
9/28/2021 4:15:00 PM 17.77 63.986 0.16 7.28 2.43 8.92
9/28/2021 4:30:00 PM 17.72 63.896 0.161 7.28 2.46 8.91
9/28/2021 4:45:00 PM 17.74 63.932 0.16 7.28 2.68 8.93
9/28/2021 5:00:00 PM 17.71 63.878 0.16 7.28 2.42 8.9
9/28/2021 5:15:00 PM 17.64 63.752 0.16 7.28 2.48 8.9
9/28/2021 5:30:00 PM 17.56 63.608 0.16 7.28 2.39 8.88
9/28/2021 5:45:00 PM 17.49 63.482 0.16 7.28 2.41 8.86
9/28/2021 6:00:00 PM 17.37 63.266 0.16 7.27 2.34 8.81
9/28/2021 6:15:00 PM 17.27 63.086 0.16 7.26 2.69 8.78
9/28/2021 6:30:00 PM 17.16 62.888 0.16 7.26 2.83 8.77
9/28/2021 6:45:00 PM 17.03 62.654 0.16 7.25 3.95 8.74
9/28/2021 7:00:00 PM 16.93 62.474 0.16 7.24 4.21 8.71
9/28/2021 7:15:00 PM 16.83 62.294 0.16 7.24 3.99 8.68
9/28/2021 7:30:00 PM 16.74 62.132 0.16 7.23 3.62 8.66
9/28/2021 7:45:00 PM 16.65 61.97 0.159 7.23 3.57 8.66
9/28/2021 8:00:00 PM 16.56 61.808 0.16 7.22 3.5 8.67
9/28/2021 8:15:00 PM 16.5 61.7 0.16 7.22 3.22 8.67
9/28/2021 8:30:00 PM 16.43 61.574 0.16 7.21 3.34 8.67
9/28/2021 8:45:00 PM 16.36 61.448 0.159 7.21 3.34 8.68
9/28/2021 9:00:00 PM 16.29 61.322 0.16 7.21 3.25 8.7
9/28/2021 9:15:00 PM 16.24 61.232 0.161 7.21 3.87 8.7
9/28/2021 9:30:00 PM 16.19 61.142 0.161 7.21 4.13 8.71
9/28/2021 9:45:00 PM 16.15 61.07 0.16 7.2 4.35 8.71
9/28/2021 10:00:00 PM 16.11 60.998 0.161 7.2 5.21 8.72
9/28/2021 10:15:00 PM 16.07 60.926 0.161 7.2 5.05 8.73
9/28/2021 10:30:00 PM 16.03 60.854 0.161 7.2 5.83 8.73
9/28/2021 10:45:00 PM 15.99 60.782 0.161 7.2 5.99 8.73
9/28/2021 11:00:00 PM 15.96 60.728 0.161 7.2 6.39 8.74
9/28/2021 11:15:00 PM 15.93 60.674 0.161 7.2 6.52 8.74
9/28/2021 11:30:00 PM 15.89 60.602 0.161 7.2 6.05 8.76
9/28/2021 11:45:00 PM 15.86 60.548 0.161 7.2 6.42 8.78
9/29/2021 12:00:00 AM 15.84 60.512 0.161 7.2 6.75 8.77
9/29/2021 12:15:00 AM 15.81 60.458 0.161 7.2 6.19 8.76
9/29/2021 12:30:00 AM 15.77 60.386 0.161 7.2 6.41 8.78
9/29/2021 12:45:00 AM 15.72 60.296 0.161 7.2 5.87 8.8
9/29/2021 1:00:00 AM 15.67 60.206 0.16 7.2 6.11 8.8
9/29/2021 1:15:00 AM 15.63 60.134 0.161 7.19 6.18 8.81
9/29/2021 1:30:00 AM 15.58 60.044 0.16 7.19 5.56 8.82
9/29/2021 1:45:00 AM 15.53 59.954 0.161 7.19 5.51 8.83
9/29/2021 2:00:00 AM 15.48 59.864 0.16 7.19 5 8.83
9/29/2021 2:15:00 AM 15.43 59.774 0.161 7.19 5.15 8.85
9/29/2021 2:30:00 AM 15.37 59.666 0.16 7.19 5.44 8.86
9/29/2021 2:45:00 AM 15.31 59.558 0.162 7.19 4.72 8.87
9/29/2021 3:00:00 AM 15.27 59.486 0.161 7.18 5.08 8.87
9/29/2021 3:15:00 AM 15.21 59.378 0.161 7.18 4.98 8.88
9/29/2021 3:30:00 AM 15.17 59.306 0.161 7.18 4.81 8.89
9/29/2021 3:45:00 AM 15.13 59.234 0.162 7.18 4.43 8.89
9/29/2021 4:00:00 AM 15.11 59.198 0.162 7.17 4.84 8.91
9/29/2021 4:15:00 AM 15.09 59.162 0.162 7.18 4.33 8.91
9/29/2021 4:30:00 AM 15.07 59.126 0.161 7.18 4.21 8.9
9/29/2021 4:45:00 AM 15.06 59.108 0.162 7.17 4.17 8.92
9/29/2021 5:00:00 AM 15.05 59.09 0.162 7.18 3.82 8.92
9/29/2021 5:15:00 AM 15.02 59.036 0.161 7.18 3.97 8.92
9/29/2021 5:30:00 AM 14.96 58.928 0.162 7.18 3.77 8.93
9/29/2021 5:45:00 AM 14.93 58.874 0.162 7.18 3.57 8.95
9/29/2021 6:00:00 AM 14.88 58.784 0.162 7.18 3.77 8.97
9/29/2021 6:15:00 AM 14.83 58.694 0.162 7.18 3.27 8.97
9/29/2021 6:30:00 AM 14.77 58.586 0.162 7.18 3.19 8.99
9/29/2021 6:45:00 AM 14.73 58.514 0.162 7.18 3.27 8.99
9/29/2021 7:00:00 AM 14.67 58.406 0.162 7.18 3.55 9
9/29/2021 7:15:00 AM 14.64 58.352 0.161 7.17 3.23 9.02
9/29/2021 7:30:00 AM 14.61 58.298 0.161 7.18 3.36 9.05
9/29/2021 7:45:00 AM 14.6 58.28 0.161 7.18 2.97 9.08
9/29/2021 8:00:00 AM 14.58 58.244 0.161 7.18 2.79 9.12
9/29/2021 8:15:00 AM 14.6 58.28 0.161 7.19 2.61 9.17
9/29/2021 8:30:00 AM 14.62 58.316 0.161 7.19 2.42 9.21
9/29/2021 8:45:00 AM 14.64 58.352 0.161 7.2 2.51 9.24
9/29/2021 9:00:00 AM 14.69 58.442 0.161 7.21 2.37 9.28
9/29/2021 9:15:00 AM 14.76 58.568 0.161 7.22 2.35 9.33
9/29/2021 9:30:00 AM 14.87 58.766 0.161 7.23 2.32 9.38
9/29/2021 9:45:00 AM 15 59 0.162 7.23 2.42 9.43
9/29/2021 10:00:00 AM 15.08 59.144 0.161 7.24 2.4 9.44
9/29/2021 10:15:00 AM 15.2 59.36 0.161 7.24 2.3 9.45
9/29/2021 10:30:00 AM 15.32 59.576 0.162 7.25 2.4 9.46
9/29/2021 10:45:00 AM 15.46 59.828 0.162 7.26 2.28 9.46
9/29/2021 11:00:00 AM 15.59 60.062 0.162 7.27 2.24 9.47
9/29/2021 11:15:00 AM 15.68 60.224 0.162 7.27 2.2 9.47
9/29/2021 11:30:00 AM 15.86 60.548 0.162 7.28 2.12 9.48
9/29/2021 11:45:00 AM 15.99 60.782 0.162 7.28 2.08 9.44
9/29/2021 12:00:00 PM 16.13 61.034 0.161 7.28 2.09 9.43
9/29/2021 12:15:00 PM 16.28 61.304 0.162 7.29 2.13 9.43
9/29/2021 12:30:00 PM 16.37 61.466 0.162 7.29 1.93 9.39
9/29/2021 12:45:00 PM 16.46 61.628 0.161 7.29 1.91 9.4
9/29/2021 1:00:00 PM 16.61 61.898 0.162 7.29 2.21 9.37
9/29/2021 1:15:00 PM 16.74 62.132 0.162 7.3 1.91 9.35
9/29/2021 1:30:00 PM 16.85 62.33 0.162 7.3 1.97 9.33
9/29/2021 1:45:00 PM 16.93 62.474 0.162 7.3 1.86 9.31
9/29/2021 2:00:00 PM 16.95 62.51 0.162 7.3 2.02 9.28
9/29/2021 2:15:00 PM 16.98 62.564 0.163 7.3 1.95 9.25
9/29/2021 2:30:00 PM 16.99 62.582 0.163 7.3 1.95 9.23
9/29/2021 2:45:00 PM 17 62.6 0.162 7.3 2.07 9.22
9/29/2021 3:00:00 PM 17.03 62.654 0.163 7.3 2.12 9.22
9/29/2021 3:15:00 PM 16.99 62.582 0.162 7.3 1.88 9.2
9/29/2021 3:30:00 PM 16.95 62.51 0.162 7.3 1.79 9.17
9/29/2021 3:45:00 PM 16.95 62.51 0.162 7.3 2.04 9.17
9/29/2021 4:00:00 PM 16.95 62.51 0.163 7.3 1.86 9.16
9/29/2021 4:15:00 PM 16.93 62.474 0.162 7.29 1.88 9.14
9/29/2021 4:30:00 PM 16.91 62.438 0.162 7.29 1.83 9.14
9/29/2021 4:45:00 PM 16.9 62.42 0.162 7.29 1.91 9.14
9/29/2021 5:00:00 PM 16.89 62.402 0.162 7.29 1.78 9.13
9/29/2021 5:15:00 PM 16.87 62.366 0.162 7.29 1.82 9.14
9/29/2021 5:30:00 PM 16.84 62.312 0.162 7.28 1.86 9.11
9/29/2021 5:45:00 PM 16.81 62.258 0.162 7.28 1.9 9.1
9/29/2021 6:00:00 PM 16.75 62.15 0.163 7.27 1.79 9.06
9/29/2021 6:15:00 PM 16.7 62.06 0.163 7.26 1.86 9.01
9/29/2021 6:30:00 PM 16.65 61.97 0.163 7.25 1.72 8.94
9/29/2021 6:45:00 PM 16.59 61.862 0.164 7.24 1.79 8.88
9/29/2021 7:00:00 PM 16.52 61.736 0.165 7.23 1.83 8.83
9/29/2021 7:15:00 PM 16.47 61.646 0.163 7.22 1.83 8.78
9/29/2021 7:30:00 PM 16.4 61.52 0.164 7.22 2.16 8.75
9/29/2021 7:45:00 PM 16.32 61.376 0.164 7.21 2.25 8.72
9/29/2021 8:00:00 PM 16.26 61.268 0.164 7.2 2.49 8.71
9/29/2021 8:15:00 PM 16.21 61.178 0.164 7.2 2.7 8.69
9/29/2021 8:30:00 PM 16.16 61.088 0.164 7.2 3.4 8.68
9/29/2021 8:45:00 PM 16.1 60.98 0.164 7.2 4.7 8.7
9/29/2021 9:00:00 PM 16.06 60.908 0.165 7.19 5.3 8.7
9/29/2021 9:15:00 PM 16.02 60.836 0.165 7.19 6.35 8.7
9/29/2021 9:30:00 PM 15.98 60.764 0.165 7.19 6.26 8.69
9/29/2021 9:45:00 PM 15.93 60.674 0.165 7.19 6.42 8.7
9/29/2021 10:00:00 PM 15.89 60.602 0.165 7.18 6.21 8.71
9/29/2021 10:15:00 PM 15.86 60.548 0.165 7.18 5.5 8.71
9/29/2021 10:30:00 PM 15.83 60.494 0.165 7.18 5.46 8.71
9/29/2021 10:45:00 PM 15.8 60.44 0.165 7.18 5.89 8.71
9/29/2021 11:00:00 PM 15.78 60.404 0.165 7.18 5.11 8.72
9/29/2021 11:15:00 PM 15.76 60.368 0.164 7.18 5.19 8.72
9/29/2021 11:30:00 PM 15.74 60.332 0.166 7.18 5.58 8.72
9/29/2021 11:45:00 PM 15.73 60.314 0.165 7.18 5.79 8.71
9/30/2021 12:00:00 AM 15.71 60.278 0.166 7.18 6.04 8.73
9/30/2021 12:15:00 AM 15.7 60.26 0.166 7.18 5.67 8.71
9/30/2021 12:30:00 AM 15.69 60.242 0.166 7.17 7.38 8.73
9/30/2021 12:45:00 AM 15.67 60.206 0.166 7.18 6.13 8.73
9/30/2021 1:00:00 AM 15.66 60.188 0.166 7.17 7.12 8.73
9/30/2021 1:15:00 AM 15.65 60.17 0.166 7.17 7.12 8.74
9/30/2021 1:30:00 AM 15.64 60.152 0.166 7.17 7.58 8.74
9/30/2021 1:45:00 AM 15.63 60.134 0.166 7.17 6.69 8.72
9/30/2021 2:00:00 AM 15.62 60.116 0.166 7.17 6.21 8.74
9/30/2021 2:15:00 AM 15.61 60.098 0.166 7.17 5.87 8.73
9/30/2021 2:30:00 AM 15.59 60.062 0.167 7.17 5.3 8.74
9/30/2021 2:45:00 AM 15.58 60.044 0.167 7.17 5.01 8.75
9/30/2021 3:00:00 AM 15.57 60.026 0.167 7.17 4.83 8.74
9/30/2021 3:15:00 AM 15.55 59.99 0.167 7.17 4.71 8.74
9/30/2021 3:30:00 AM 15.54 59.972 0.167 7.17 4.13 8.73
9/30/2021 3:45:00 AM 15.52 59.936 0.167 7.17 4.45 8.75
9/30/2021 4:00:00 AM 15.51 59.918 0.167 7.17 4.04 8.75
9/30/2021 4:15:00 AM 15.49 59.882 0.167 7.17 3.72 8.76
9/30/2021 4:30:00 AM 15.48 59.864 0.167 7.17 4.08 8.75
9/30/2021 4:45:00 AM 15.47 59.846 0.167 7.17 3.31 8.75
9/30/2021 5:00:00 AM 15.45 59.81 0.167 7.17 3.36 8.76
9/30/2021 5:15:00 AM 15.43 59.774 0.168 7.17 3.18 8.75
9/30/2021 5:30:00 AM 15.42 59.756 0.168 7.17 3.12 8.74
9/30/2021 5:45:00 AM 15.4 59.72 0.168 7.17 2.81 8.77
9/30/2021 6:00:00 AM 15.36 59.648 0.168 7.17 2.77 8.77
9/30/2021 6:15:00 AM 15.32 59.576 0.168 7.17 2.39 8.78
9/30/2021 6:30:00 AM 15.27 59.486 0.168 7.17 2.87 8.8
9/30/2021 6:45:00 AM 15.23 59.414 0.169 7.17 2.47 8.81
9/30/2021 7:00:00 AM 15.18 59.324 0.168 7.17 2.5 8.82
9/30/2021 7:15:00 AM 15.13 59.234 0.169 7.17 2.49 8.84
9/30/2021 7:30:00 AM 15.09 59.162 0.169 7.17 2.28 8.86
9/30/2021 7:45:00 AM 15.05 59.09 0.168 7.18 2.19 8.9
9/30/2021 8:00:00 AM 15.03 59.054 0.169 7.18 2.14 8.96
9/30/2021 8:15:00 AM 15.03 59.054 0.169 7.19 2.09 9.02
9/30/2021 8:30:00 AM 15.03 59.054 0.168 7.19 1.94 9.08
9/30/2021 8:45:00 AM 15.08 59.144 0.169 7.2 2.1 9.17
9/30/2021 9:00:00 AM 15.1 59.18 0.169 7.21 1.88 9.22
9/30/2021 9:15:00 AM 15.12 59.216 0.169 7.22 1.85 9.27
9/30/2021 9:30:00 AM 15.17 59.306 0.168 7.22 1.67 9.31
9/30/2021 9:45:00 AM 15.23 59.414 0.169 7.23 1.81 9.37
9/30/2021 10:00:00 AM 15.35 59.63 0.168 7.24 1.72 9.45
9/30/2021 10:15:00 AM 15.43 59.774 0.169 7.25 1.74 9.49
9/30/2021 10:30:00 AM 15.53